Provisional Data: Susquehanna River at Kirkwood, NY


Please select a monitoring station.
Please select start date.
Please select start date.

Toggle Unit: C/F Toggle Unit: C/F
Sample Time Temperature (C) Temperature (F) Specific Conductivity (mS/cm) pH   Turbidity (NTU+) DO (mg/L)
5/17/2022 12:00:00 AM 18.47 65.246 0.244 7.55 5.59 8.08
5/17/2022 12:15:00 AM 18.42 65.156 0.245 7.54 10.22 8.04
5/17/2022 12:30:00 AM 18.38 65.084 0.246 7.53 9.96 8.02
5/17/2022 12:45:00 AM 18.35 65.03 0.245 7.54 6.29 8.06
5/17/2022 1:00:00 AM 18.32 64.976 0.245 7.54 7.01 8.01
5/17/2022 1:15:00 AM 18.3 64.94 0.245 7.53 6.42 7.98
5/17/2022 1:30:00 AM 18.18 64.724 0.258 7.49 6.72 7.93
5/17/2022 1:45:00 AM 18.17 64.706 0.256 7.51 7.99 7.93
5/17/2022 2:00:00 AM 18.04 64.472 0.269 7.46 10.74 7.85
5/17/2022 2:15:00 AM 18.02 64.436 0.263 7.47 7.38 7.75
5/17/2022 2:30:00 AM 18.14 64.652 0.265 7.5 8.16 7.86
5/17/2022 2:45:00 AM 18.03 64.454 0.264 7.45 13.5 7.85
5/17/2022 3:00:00 AM 17.75 63.95 0.3 7.4 18.14 7.77
5/17/2022 3:15:00 AM 17.83 64.094 0.285 7.43 13.72 7.77
5/17/2022 3:30:00 AM 17.49 63.482 0.337 7.37 26.99 7.79
5/17/2022 3:45:00 AM 17.56 63.608 0.306 7.41 15.21 7.79
5/17/2022 4:00:00 AM 17.41 63.338 0.322 7.39 20.65 7.83
5/17/2022 4:15:00 AM 17.7 63.86 0.307 7.44 20.74 7.83
5/17/2022 4:30:00 AM 17.64 63.752 0.29 7.43 15.31 7.82
5/17/2022 4:45:00 AM 17.34 63.212 0.325 7.39 15.63 7.78
5/17/2022 5:00:00 AM 17.61 63.698 0.291 7.43 13.51 7.81
5/17/2022 5:15:00 AM 17.54 63.572 0.302 7.41 14.55 7.78
5/17/2022 5:30:00 AM 17.45 63.41 0.311 7.39 13.03 7.77
5/17/2022 5:45:00 AM 17.45 63.41 0.311 7.4 17.15 7.69
5/17/2022 6:00:00 AM 17.47 63.446 0.309 7.4 12.18 7.73
5/17/2022 6:15:00 AM 17.41 63.338 0.313 7.39 16.65 7.62
5/17/2022 6:30:00 AM 17.43 63.374 0.312 7.4 19.06 7.76
5/17/2022 6:45:00 AM 17.31 63.158 0.328 7.39 15.25 7.83
5/17/2022 7:00:00 AM 17.44 63.392 0.314 7.39 14.83 7.56
5/17/2022 7:15:00 AM 17.43 63.374 0.317 7.4 19.3 7.79
5/17/2022 7:30:00 AM 17.41 63.338 0.318 7.42 13.25 7.91
5/17/2022 7:45:00 AM 17.68 63.824 0.29 7.46 9.55 7.93
5/17/2022 8:00:00 AM 17.69 63.842 0.287 7.46 9.82 7.9
5/17/2022 8:15:00 AM 17.66 63.788 0.297 7.46 10.94 7.98
5/17/2022 8:30:00 AM 17.92 64.256 0.271 7.52 8.01 8.13
5/17/2022 8:45:00 AM 17.81 64.058 0.294 7.48 10.99 8.12
5/17/2022 9:00:00 AM 18 64.4 0.28 7.52 9.4 8.23
5/17/2022 9:15:00 AM 17.96 64.328 0.294 7.52 10.2 8.33
5/17/2022 9:30:00 AM 18.18 64.724 0.27 7.56 9.79 8.35
5/17/2022 9:45:00 AM 18.18 64.724 0.3 7.56 11.1 8.44
5/17/2022 10:00:00 AM 18 64.4 0.325 7.53 16.09 8.54
5/17/2022 10:15:00 AM 18.06 64.508 0.312 7.55 10.53 8.52
5/17/2022 10:30:00 AM 18.29 64.922 0.292 7.61 9.08 8.65
5/17/2022 10:45:00 AM 18.36 65.048 0.289 7.62 7.44 8.68
5/17/2022 11:00:00 AM 18.5 65.3 0.274 7.66 7.83 8.81
5/17/2022 11:15:00 AM 18.49 65.282 0.292 7.65 8.66 8.92
5/17/2022 11:30:00 AM 18.57 65.426 0.282 7.66 10.35 8.96
5/17/2022 11:45:00 AM 18.7 65.66 0.305 7.65 10.8 9.03
5/17/2022 12:00:00 PM 18.84 65.912 0.302 7.68 10.07 9.11
5/17/2022 12:15:00 PM 19.05 66.29 0.277 7.74 6.79 9.15
5/17/2022 12:30:00 PM 19.23 66.614 0.293 7.71 8.42 9.12
5/17/2022 12:45:00 PM 19.19 66.542 0.312 7.69 14.15 9.19
5/17/2022 1:00:00 PM 19.16 66.488 0.304 7.73 9.57 9.2
5/17/2022 1:15:00 PM 19.18 66.524 0.291 7.73 21.77 9.24
5/17/2022 1:30:00 PM 19.29 66.722 0.322 7.71 14.27 9.29
5/17/2022 1:45:00 PM 19.34 66.812 0.311 7.73 10.26 9.28
5/17/2022 2:00:00 PM 19.39 66.902 0.291 7.77 11.81 9.42
5/17/2022 2:15:00 PM 19.39 66.902 0.311 7.76 10.76 9.41
5/17/2022 2:30:00 PM 19.33 66.794 0.299 7.81 11.6 9.46
5/17/2022 2:45:00 PM 19.38 66.884 0.296 7.8 10.78 9.46
5/17/2022 3:00:00 PM 19.44 66.992 0.292 7.8 16.05 9.45
5/17/2022 3:15:00 PM 19.48 67.064 0.295 7.8 19.43 9.45
5/17/2022 3:30:00 PM 19.38 66.884 0.291 7.82 11.29 9.49
5/17/2022 3:45:00 PM 19.41 66.938 0.294 7.82 9.17 9.55
5/17/2022 4:00:00 PM 19.35 66.83 0.277 7.86 8.48 9.54
5/17/2022 4:15:00 PM 19.3 66.74 0.263 7.93 8.75 9.69
5/17/2022 4:30:00 PM 19.19 66.542 0.282 7.88 10.91 9.62
5/17/2022 4:45:00 PM 19.09 66.362 0.28 7.87 8.18 9.63
5/17/2022 5:00:00 PM 19.09 66.362 0.241 7.94 8.01 9.71
5/17/2022 5:15:00 PM 18.97 66.146 0.269 7.92 8.09 9.69
5/17/2022 5:30:00 PM 18.93 66.074 0.255 7.97 11.34 9.76
5/17/2022 5:45:00 PM 18.89 66.002 0.261 7.95 7.53 9.73
5/17/2022 6:00:00 PM 18.82 65.876 0.249 7.98 6.36 9.77
5/17/2022 6:15:00 PM 18.63 65.534 0.278 7.91 8.39 9.66
5/17/2022 6:30:00 PM 18.63 65.534 0.248 7.98 5.78 9.72
5/17/2022 6:45:00 PM 18.54 65.372 0.249 7.97 6.87 9.69
5/17/2022 7:00:00 PM 18.48 65.264 0.248 7.97 5.85 9.65
5/17/2022 7:15:00 PM 18.41 65.138 0.243 7.97 5.73 9.64
5/17/2022 7:30:00 PM 18.32 64.976 0.25 7.94 5.37 9.56
5/17/2022 7:45:00 PM 18.25 64.85 0.243 7.94 6.44 9.53
5/17/2022 8:00:00 PM 18.18 64.724 0.244 7.92 7.11 9.48
5/17/2022 8:15:00 PM 18.1 64.58 0.25 7.89 8.32 9.36
5/17/2022 8:30:00 PM 18.1 64.58 0.243 7.89 6.46 9.35
5/17/2022 8:45:00 PM 18.07 64.526 0.244 7.87 6.46 9.3
5/17/2022 9:00:00 PM 18.03 64.454 0.243 7.85 7.62 9.22
5/17/2022 9:15:00 PM 18.01 64.418 0.243 7.84 6.78 9.21
5/17/2022 9:30:00 PM 17.99 64.382 0.243 7.83 6.89 9.12
5/17/2022 9:45:00 PM 17.96 64.328 0.244 7.81 7.34 9.09
5/17/2022 10:00:00 PM 17.93 64.274 0.242 7.8 8.57 9.03
5/17/2022 10:15:00 PM 17.86 64.148 0.248 7.75 9.66 8.96
5/17/2022 10:30:00 PM 17.9 64.22 0.244 7.76 7.18 8.93
5/17/2022 10:45:00 PM 17.88 64.184 0.244 7.75 8.33 8.89
5/17/2022 11:00:00 PM 17.87 64.166 0.244 7.75 7.47 8.89
5/17/2022 11:15:00 PM 17.86 64.148 0.244 7.75 7.86 8.86
5/17/2022 11:30:00 PM 17.85 64.13 0.245 7.71 10.88 8.79
5/17/2022 11:45:00 PM 17.86 64.148 0.245 7.72 10 8.78
5/18/2022 12:00:00 AM 17.84 64.112 0.245 7.72 9.05 8.75
5/18/2022 12:15:00 AM 17.83 64.094 0.245 7.71 9.58 8.71
5/18/2022 12:30:00 AM 17.79 64.022 0.251 7.7 8.81 8.67
5/18/2022 12:45:00 AM 17.79 64.022 0.246 7.7 8.34 8.72
5/18/2022 1:00:00 AM 17.77 63.986 0.246 7.71 7.87 8.7
5/18/2022 1:15:00 AM 17.75 63.95 0.246 7.7 6.79 8.69
5/18/2022 1:30:00 AM 17.73 63.914 0.245 7.7 7.25 8.7
5/18/2022 1:45:00 AM 17.7 63.86 0.245 7.7 8.33 8.68
5/18/2022 2:00:00 AM 17.69 63.842 0.245 7.69 6.95 8.63
5/18/2022 2:15:00 AM 17.67 63.806 0.245 7.69 6.76 8.64
5/18/2022 2:30:00 AM 17.63 63.734 0.246 7.68 6.96 8.6
5/18/2022 2:45:00 AM 17.6 63.68 0.245 7.68 8.98 8.61
5/18/2022 3:00:00 AM 17.57 63.626 0.245 7.68 10.06 8.61
5/18/2022 3:15:00 AM 17.54 63.572 0.245 7.67 7.37 8.58
5/18/2022 3:30:00 AM 17.51 63.518 0.245 7.67 8.52 8.6
5/18/2022 3:45:00 AM 17.47 63.446 0.246 7.66 10.24 8.57
5/18/2022 4:00:00 AM 17.46 63.428 0.244 7.66 7.61 8.56
5/18/2022 4:15:00 AM 17.44 63.392 0.244 7.66 7.43 8.53
5/18/2022 4:30:00 AM 17.41 63.338 0.244 7.65 6.36 8.54
5/18/2022 4:45:00 AM 17.37 63.266 0.245 7.65 6.57 8.54
5/18/2022 5:00:00 AM 17.36 63.248 0.244 7.64 6.08 8.51
5/18/2022 5:15:00 AM 17.32 63.176 0.244 7.64 7.6 8.51
5/18/2022 5:30:00 AM 17.28 63.104 0.244 7.63 8.52 8.49
5/18/2022 5:45:00 AM 17.22 62.996 0.245 7.63 6.32 8.47
5/18/2022 6:00:00 AM 17.16 62.888 0.247 7.61 10.15 8.43
5/18/2022 6:15:00 AM 17.14 62.852 0.243 7.61 9.4 8.45
5/18/2022 6:30:00 AM 17.1 62.78 0.243 7.62 9.51 8.46
5/18/2022 6:45:00 AM 17.05 62.69 0.243 7.62 7.68 8.5
5/18/2022 7:00:00 AM 17 62.6 0.243 7.62 6.48 8.51
5/18/2022 7:15:00 AM 16.96 62.528 0.243 7.62 7.01 8.52
5/18/2022 7:30:00 AM 16.9 62.42 0.243 7.63 5.88 8.55
5/18/2022 7:45:00 AM 16.85 62.33 0.243 7.63 6.12 8.59
5/18/2022 8:00:00 AM 16.82 62.276 0.243 7.64 5.95 8.62
5/18/2022 8:15:00 AM 16.8 62.24 0.242 7.64 6.13 8.65
5/18/2022 8:30:00 AM 16.77 62.186 0.244 7.65 5.58 8.73
5/18/2022 8:45:00 AM 16.77 62.186 0.244 7.66 6.28 8.77
5/18/2022 9:00:00 AM 16.8 62.24 0.243 7.66 7.25 8.8
5/18/2022 9:15:00 AM 16.84 62.312 0.242 7.68 5.3 8.87
5/18/2022 9:30:00 AM 16.88 62.384 0.242 7.7 5.62 8.96
5/18/2022 9:45:00 AM 16.9 62.42 0.247 7.7 5.46 9
5/18/2022 10:00:00 AM 16.96 62.528 0.244 7.72 5.49 9.07
5/18/2022 10:15:00 AM 17.02 62.636 0.245 7.73 5.01 9.16
5/18/2022 10:30:00 AM 17.12 62.816 0.243 7.76 5.39 9.24
5/18/2022 10:45:00 AM 17.22 62.996 0.245 7.78 5.89 9.33
5/18/2022 11:00:00 AM 17.32 63.176 0.243 7.8 4.6 9.41
5/18/2022 11:15:00 AM 17.42 63.356 0.244 7.82 4.78 9.49
5/18/2022 11:30:00 AM 17.53 63.554 0.243 7.84 5.46 9.57
5/18/2022 11:45:00 AM 17.63 63.734 0.243 7.86 6.28 9.65
5/18/2022 12:00:00 PM 17.77 63.986 0.245 7.88 5.68 9.69
5/18/2022 12:15:00 PM 17.94 64.292 0.243 7.91 4.76 9.8
5/18/2022 12:30:00 PM 18.11 64.598 0.269 7.85 11.45 9.8
5/18/2022 12:45:00 PM 18.27 64.886 0.251 7.94 6.1 9.93
5/18/2022 1:00:00 PM 18.4 65.12 0.249 7.95 6.93 9.99
5/18/2022 1:15:00 PM 18.54 65.372 0.251 7.97 5.7 10.02
5/18/2022 1:30:00 PM 18.72 65.696 0.273 7.95 7.19 10.07
5/18/2022 1:45:00 PM 18.82 65.876 0.246 8.02 6.07 10.16
5/18/2022 2:00:00 PM 18.98 66.164 0.255 8.02 7.31 10.2
5/18/2022 2:15:00 PM 19.09 66.362 0.249 8.06 4.9 10.26
5/18/2022 2:30:00 PM 19.16 66.488 0.245 8.08 7.13 10.34
5/18/2022 2:45:00 PM 19.21 66.578 0.245 8.09 7.88 10.33
5/18/2022 3:00:00 PM 19.28 66.704 0.246 8.09 6.28 10.37
5/18/2022 3:15:00 PM 19.3 66.74 0.244 8.14 8.47 10.46
5/18/2022 3:30:00 PM 19.3 66.74 0.243 8.15 5.65 10.45
5/18/2022 3:45:00 PM 19.26 66.668 0.243 8.16 5.03 10.51
5/18/2022 4:00:00 PM 19.23 66.614 0.242 8.16 6.44 10.52
5/18/2022 4:15:00 PM 19.16 66.488 0.242 8.18 7.5 10.56
5/18/2022 4:30:00 PM 19.1 66.38 0.241 8.2 6.14 10.58
5/18/2022 4:45:00 PM 19.06 66.308 0.242 8.21 6.62 10.6
5/18/2022 5:00:00 PM 19.01 66.218 0.241 8.21 4.83 10.6
5/18/2022 5:15:00 PM 18.95 66.11 0.241 8.21 6.22 10.56
5/18/2022 5:30:00 PM 18.9 66.02 0.24 8.22 6.16 10.56
5/18/2022 5:45:00 PM 18.83 65.894 0.239 8.21 8.69 10.53
5/18/2022 6:00:00 PM 18.77 65.786 0.24 8.2 5.25 10.47
5/18/2022 6:15:00 PM 18.71 65.67799 0.239 8.19 4.66 10.44
5/18/2022 6:30:00 PM 18.64 65.552 0.239 8.18 5.18 10.36
5/18/2022 6:45:00 PM 18.57 65.426 0.239 8.17 5.16 10.33
5/18/2022 7:00:00 PM 18.51 65.318 0.238 8.16 5.38 10.3
5/18/2022 7:15:00 PM 18.46 65.228 0.238 8.15 4.91 10.23
5/18/2022 7:30:00 PM 18.41 65.138 0.237 8.12 6.53 10.18
5/18/2022 7:45:00 PM 18.36 65.048 0.237 8.11 11.36 10.12
5/18/2022 8:00:00 PM 18.32 64.976 0.237 8.1 6.47 10.06
5/18/2022 8:15:00 PM 18.28 64.904 0.236 8.07 5.8 10
5/18/2022 8:30:00 PM 18.25 64.85 0.236 8.05 6.87 9.92
5/18/2022 8:45:00 PM 18.22 64.796 0.236 7.98 7.41 9.86
5/18/2022 9:00:00 PM 18.19 64.742 0.236 7.98 12.37 9.8
5/18/2022 9:15:00 PM 18.18 64.724 0.235 7.98 8.43 9.76
5/18/2022 9:30:00 PM 18.17 64.706 0.235 7.96 7.46 9.7
5/18/2022 9:45:00 PM 18.16 64.688 0.234 7.93 7.19 9.63
5/18/2022 10:00:00 PM 18.16 64.688 0.234 7.93 8.04 9.59
5/18/2022 10:15:00 PM 18.11 64.598 0.236 7.88 7.54 9.53
5/18/2022 10:30:00 PM 18.14 64.652 0.233 7.89 6.8 9.51
5/18/2022 10:45:00 PM 18.14 64.652 0.232 7.87 6.37 9.46
5/18/2022 11:00:00 PM 18.14 64.652 0.232 7.87 6.32 9.43
5/18/2022 11:15:00 PM 18.13 64.634 0.231 7.85 6.04 9.4
5/18/2022 11:30:00 PM 18.12 64.616 0.231 7.85 6.4 9.37
5/18/2022 11:45:00 PM 18.11 64.598 0.232 7.83 6.15 9.33
5/19/2022 12:00:00 AM 18.1 64.58 0.23 7.82 6.17 9.29
5/19/2022 12:15:00 AM 18.09 64.562 0.23 7.8 9.39 9.27
5/19/2022 12:30:00 AM 18.07 64.526 0.23 7.77 9.31 9.2
5/19/2022 12:45:00 AM 18.07 64.526 0.229 7.78 8.37 9.21
5/19/2022 1:00:00 AM 18.06 64.508 0.228 7.77 8.18 9.18
5/19/2022 1:15:00 AM 18.06 64.508 0.227 7.74 10.43 9.14
5/19/2022 1:30:00 AM 18.06 64.508 0.226 7.74 7.38 9.11
5/19/2022 1:45:00 AM 18.06 64.508 0.226 7.73 7.21 9.07
5/19/2022 2:00:00 AM 18.05 64.49 0.226 7.72 8.18 9
5/19/2022 2:15:00 AM 18.04 64.472 0.225 7.72 7.58 9.01
5/19/2022 2:30:00 AM 18.02 64.436 0.225 7.69 8.36 8.96
5/19/2022 2:45:00 AM 18 64.4 0.225 7.67 12.6 8.92
5/19/2022 3:00:00 AM 17.98 64.364 0.225 7.65 9.77 8.9
5/19/2022 3:15:00 AM 17.96 64.328 0.224 7.65 8.23 8.87
5/19/2022 3:30:00 AM 17.93 64.274 0.224 7.66 7.83 8.86
5/19/2022 3:45:00 AM 17.9 64.22 0.224 7.64 7.1 8.81
5/19/2022 4:00:00 AM 17.85 64.13 0.224 7.64 7.3 8.77
5/19/2022 4:15:00 AM 17.82 64.076 0.223 7.62 9.2 8.73
5/19/2022 4:30:00 AM 17.77 63.986 0.224 7.61 14.35 8.71
5/19/2022 4:45:00 AM 17.73 63.914 0.222 7.61 7.63 8.71
5/19/2022 5:00:00 AM 17.68 63.824 0.222 7.6 9.91 8.69
5/19/2022 5:15:00 AM 17.65 63.77 0.221 7.59 6.98 8.64
5/19/2022 5:30:00 AM 17.6 63.68 0.221 7.59 7.62 8.58
5/19/2022 5:45:00 AM 17.55 63.59 0.221 7.58 10.85 8.63
5/19/2022 6:00:00 AM 17.51 63.518 0.22 7.57 7.82 8.6
5/19/2022 6:15:00 AM 17.47 63.446 0.22 7.56 22.84 8.52
5/19/2022 6:30:00 AM 17.41 63.338 0.219 7.55 15.42 8.55
5/19/2022 6:45:00 AM 17.36 63.248 0.219 7.55 8.45 8.55
5/19/2022 7:00:00 AM 17.3 63.14 0.221 7.54 9.06 8.45
5/19/2022 7:15:00 AM 17.23 63.014 0.221 7.52 11.93 8.45
5/19/2022 7:30:00 AM 17.19 62.942 0.219 7.53 11.33 8.51
5/19/2022 7:45:00 AM 17.13 62.834 0.221 7.52 13.81 8.48
5/19/2022 8:00:00 AM 17.08 62.744 0.219 7.52 17.57 8.47
5/19/2022 8:15:00 AM 17.01 62.618 0.218 7.53 8.75 8.53
5/19/2022 8:30:00 AM 16.94 62.492 0.219 7.52 6.11 8.54
5/19/2022 8:45:00 AM 16.88 62.384 0.22 7.52 7.63 8.53
5/19/2022 9:00:00 AM 16.84 62.312 0.218 7.52 13.16 8.53
5/19/2022 9:15:00 AM 16.78 62.204 0.219 7.53 7.44 8.58
5/19/2022 9:30:00 AM 16.73 62.114 0.218 7.53 6.38 8.56
5/19/2022 9:45:00 AM 16.68 62.024 0.219 7.53 6.77 8.6
5/19/2022 10:00:00 AM 16.63 61.934 0.219 7.52 5.68 8.64
5/19/2022 10:15:00 AM 16.6 61.88 0.219 7.53 7.78 8.67
5/19/2022 10:30:00 AM 16.56 61.808 0.22 7.54 8.74 8.77
5/19/2022 10:45:00 AM 16.54 61.772 0.22 7.56 5.61 8.81
5/19/2022 11:00:00 AM 16.5 61.7 0.225 7.55 19.17 8.81
5/19/2022 11:15:00 AM 16.48 61.664 0.222 7.56 6.23 8.88
5/19/2022 11:30:00 AM 16.45 61.61 0.223 7.56 9.86 8.85
5/19/2022 11:45:00 AM 16.44 61.592 0.221 7.58 5.22 8.96
5/19/2022 12:00:00 PM 16.41 61.538 0.222 7.59 5.91 8.99
5/19/2022 12:15:00 PM 16.39 61.502 0.225 7.59 6.28 8.99
5/19/2022 12:30:00 PM 16.4 61.52 0.222 7.6 6.49 9.07
5/19/2022 12:45:00 PM 16.39 61.502 0.223 7.6 5.72 9.13
5/19/2022 1:00:00 PM 16.4 61.52 0.225 7.61 6.44 9.11
5/19/2022 1:15:00 PM 16.41 61.538 0.222 7.63 6.7 9.19
5/19/2022 1:30:00 PM 16.43 61.574 0.222 7.65 4.72 9.26
5/19/2022 1:45:00 PM 16.47 61.646 0.221 7.67 4.56 9.37
5/19/2022 2:00:00 PM 16.51 61.718 0.224 7.69 5.52 9.44
5/19/2022 2:15:00 PM 16.61 61.898 0.222 7.71 5.19 9.49
5/19/2022 2:30:00 PM 16.69 62.042 0.222 7.74 4.89 9.6
5/19/2022 2:45:00 PM 16.79 62.222 0.223 7.76 4.68 9.68
5/19/2022 3:00:00 PM 17.02 62.636 0.223 7.77 6.79 9.66
5/19/2022 3:15:00 PM 17.24 63.032 0.235 7.78 5.17 9.83
5/19/2022 3:30:00 PM 17.33 63.194 0.226 7.81 8.39 9.83
5/19/2022 3:45:00 PM 17.36 63.248 0.233 7.8 10.37 9.87
5/19/2022 4:00:00 PM 17.46 63.428 0.234 7.84 7.99 9.98
5/19/2022 4:15:00 PM 17.56 63.608 0.245 7.8 10.99 9.88
5/19/2022 4:30:00 PM 17.59 63.662 0.262 7.83 5.96 10.01
5/19/2022 4:45:00 PM 17.74 63.932 0.227 7.91 5.09 10.1
5/19/2022 5:00:00 PM 17.87 64.166 0.272 7.87 6.13 10.12
5/19/2022 5:15:00 PM 17.97 64.346 0.239 7.92 6.05 10.18
5/19/2022 5:30:00 PM 18.04 64.472 0.262 7.91 7.6 10.16
5/19/2022 5:45:00 PM 18.11 64.598 0.26 7.92 5.7 10.21
5/19/2022 6:00:00 PM 18.17 64.706 0.23 8.02 6.66 10.32
5/19/2022 6:15:00 PM 18.17 64.706 0.243 8.01 5.82 10.33
5/19/2022 6:30:00 PM 18.19 64.742 0.227 8.05 6.23 10.37
5/19/2022 6:45:00 PM 18.16 64.688 0.236 8.04 5.27 10.34
5/19/2022 7:00:00 PM 18.13 64.634 0.23 8.06 6.39 10.34
5/19/2022 7:15:00 PM 18.07 64.526 0.228 8.07 5.15 10.34
5/19/2022 7:30:00 PM 18.01 64.418 0.227 8.06 5.06 10.31
5/19/2022 7:45:00 PM 17.93 64.274 0.237 8.04 7.31 10.22
5/19/2022 8:00:00 PM 17.84 64.112 0.243 7.99 6.97 10.1
5/19/2022 8:15:00 PM 17.81 64.058 0.23 8.01 5.87 10.08
5/19/2022 8:30:00 PM 17.7 63.86 0.241 7.94 4.86 9.86
5/19/2022 8:45:00 PM 17.67 63.806 0.231 7.95 7.05 9.88
5/19/2022 9:00:00 PM 17.62 63.716 0.227 7.95 7.88 9.87
5/19/2022 9:15:00 PM 17.52 63.536 0.24 7.89 7.81 9.72
5/19/2022 9:30:00 PM 17.45 63.41 0.238 7.87 8.5 9.63
5/19/2022 9:45:00 PM 17.39 63.302 0.24 7.85 8.87 9.59
5/19/2022 10:00:00 PM 17.37 63.266 0.232 7.86 6.55 9.59
5/19/2022 10:15:00 PM 17.24 63.032 0.239 7.78 7.84 9.5
5/19/2022 10:30:00 PM 17.23 63.014 0.237 7.8 5.88 9.48
5/19/2022 10:45:00 PM 17.18 62.924 0.237 7.78 13.19 9.41
5/19/2022 11:00:00 PM 17.16 62.888 0.232 7.78 9.22 9.42
5/19/2022 11:15:00 PM 17.13 62.834 0.229 7.78 5.54 9.39
5/19/2022 11:30:00 PM 17.08 62.744 0.232 7.76 7.03 9.33
5/19/2022 11:45:00 PM 17 62.6 0.238 7.73 9.55 9.27
5/20/2022 12:00:00 AM 17.04 62.672 0.225 7.76 6.14 9.32
5/20/2022 12:15:00 AM 16.99 62.582 0.227 7.74 5.91 9.29
5/20/2022 12:30:00 AM 16.94 62.492 0.23 7.72 5.55 9.2
5/20/2022 12:45:00 AM 16.87 62.366 0.235 7.69 13.06 9.13
5/20/2022 1:00:00 AM 16.87 62.366 0.231 7.7 8.45 9.12
5/20/2022 1:15:00 AM 16.85 62.33 0.23 7.7 7.86 9.12
5/20/2022 1:30:00 AM 16.81 62.258 0.23 7.69 6.01 9.15
5/20/2022 1:45:00 AM 16.81 62.258 0.228 7.69 5.72 9.12
5/20/2022 2:00:00 AM 16.76 62.168 0.232 7.67 8.67 9.02
5/20/2022 2:15:00 AM 16.76 62.168 0.228 7.69 6.08 9.08
5/20/2022 2:30:00 AM 16.69 62.042 0.234 7.64 15.76 9.04
5/20/2022 2:45:00 AM 16.72 62.096 0.23 7.64 12.59 9.02
5/20/2022 3:00:00 AM 16.71 62.078 0.232 7.65 13.63 8.96
5/20/2022 3:15:00 AM 16.7 62.06 0.232 7.64 9.15 9.01
5/20/2022 3:30:00 AM 16.73 62.114 0.228 7.66 10.54 8.96
5/20/2022 3:45:00 AM 16.64 61.952 0.24 7.62 15.57 8.9
5/20/2022 4:00:00 AM 16.7 62.06 0.232 7.63 8.21 8.96
5/20/2022 4:15:00 AM 16.69 62.042 0.231 7.63 7.35 8.91
5/20/2022 4:30:00 AM 16.64 61.952 0.238 7.6 9.62 8.85
5/20/2022 4:45:00 AM 16.69 62.042 0.229 7.63 7.34 8.88
5/20/2022 5:00:00 AM 16.65 61.97 0.231 7.62 8.29 8.88
5/20/2022 5:15:00 AM 16.64 61.952 0.231 7.6 10.39 8.84
5/20/2022 5:30:00 AM 16.51 61.718 0.245 7.58 6.75 8.85
5/20/2022 5:45:00 AM 16.52 61.736 0.241 7.59 8.41 8.8
5/20/2022 6:00:00 AM 16.54 61.772 0.234 7.6 5.66 8.82
5/20/2022 6:15:00 AM 16.49 61.682 0.233 7.6 5.2 8.84
5/20/2022 6:30:00 AM 16.44 61.592 0.242 7.57 7.19 8.73
5/20/2022 6:45:00 AM 16.39 61.502 0.245 7.58 8.41 8.77
5/20/2022 7:00:00 AM 16.43 61.574 0.237 7.6 5.9 8.88
5/20/2022 7:15:00 AM 16.39 61.502 0.242 7.6 6.51 8.87
5/20/2022 7:30:00 AM 16.46 61.628 0.23 7.62 10.87 8.97
5/20/2022 7:45:00 AM 16.39 61.502 0.243 7.62 8.51 9.03
5/20/2022 8:00:00 AM 16.45 61.61 0.234 7.64 5.9 8.96
5/20/2022 8:15:00 AM 16.45 61.61 0.234 7.66 11.6 9.17
5/20/2022 8:30:00 AM 16.46 61.628 0.241 7.66 5.54 9.24
5/20/2022 8:45:00 AM 16.52 61.736 0.233 7.69 6.05 9.24
5/20/2022 9:00:00 AM 16.57 61.826 0.232 7.71 6.81 9.35
5/20/2022 9:15:00 AM 16.59 61.862 0.241 7.71 6.59 9.44
5/20/2022 9:30:00 AM 16.69 62.042 0.227 7.76 4.64 9.54
5/20/2022 9:45:00 AM 16.77 62.186 0.231 7.79 4.32 9.6
5/20/2022 10:00:00 AM 16.85 62.33 0.243 7.78 4.93 9.65
5/20/2022 10:15:00 AM 16.93 62.474 0.231 7.83 4.83 9.77
5/20/2022 10:30:00 AM 16.95 62.51 0.242 7.81 4.19 9.76
5/20/2022 10:45:00 AM 16.93 62.474 0.243 7.82 7.14 9.76
5/20/2022 11:00:00 AM 16.9 62.42 0.237 7.83 5.43 9.81
5/20/2022 11:15:00 AM 16.86 62.348 0.234 7.84 6.43 9.81
5/20/2022 11:30:00 AM 16.82 62.276 0.234 7.84 9.9 9.82
5/20/2022 11:45:00 AM 16.87 62.366 0.23 7.87 4.45 9.91
5/20/2022 12:00:00 PM 16.93 62.474 0.228 7.89 4.35 9.97
5/20/2022 12:15:00 PM 16.96 62.528 0.228 7.89 4.38 10
5/20/2022 12:30:00 PM 16.99 62.582 0.249 7.87 6.23 10.02
5/20/2022 12:45:00 PM 17 62.6 0.237 7.91 4.94 10.07
5/20/2022 1:00:00 PM 17.05 62.69 0.241 7.9 7.18 10.05
5/20/2022 1:15:00 PM 17.2 62.96 0.237 7.93 5.1 10.16
5/20/2022 1:30:00 PM 17.41 63.338 0.276 7.89 6.77 10.18
5/20/2022 1:45:00 PM 17.56 63.608 0.262 7.93 4.42 10.27
5/20/2022 2:00:00 PM 17.68 63.824 0.247 7.95 6.66 10.26
5/20/2022 2:15:00 PM 17.88 64.184 0.234 8 4.18 10.37
5/20/2022 2:30:00 PM 18.12 64.616 0.253 7.98 6.44 10.39
5/20/2022 2:45:00 PM 18.16 64.688 0.259 7.99 5.54 10.35
5/20/2022 3:00:00 PM 18.04 64.472 0.243 7.97 5.94 10.33
5/20/2022 3:15:00 PM 18.13 64.634 0.271 7.96 11.9 10.29
5/20/2022 3:30:00 PM 18.04 64.472 0.24 7.97 8.79 10.35
5/20/2022 3:45:00 PM 18.16 64.688 0.246 8.02 13.39 10.42
5/20/2022 4:00:00 PM 18.14 64.652 0.237 8.04 11.36 10.51
5/20/2022 4:15:00 PM 18.17 64.706 0.243 8.02 18.39 10.46
5/20/2022 4:30:00 PM 18.14 64.652 0.256 8.05 5.58 10.54
5/20/2022 4:45:00 PM 18.12 64.616 0.253 8.05 14.51 10.49
5/20/2022 5:00:00 PM 18.1 64.58 0.24 8.05 6.8 10.53
5/20/2022 5:15:00 PM 18.01 64.418 0.23 8.08 11.82 10.56
5/20/2022 5:30:00 PM 17.97 64.346 0.237 8.09 7.23 10.51
5/20/2022 5:45:00 PM 17.95 64.31 0.242 8.08 6.24 10.48
5/20/2022 6:00:00 PM 17.9 64.22 0.24 8.08 5.96 10.47
5/20/2022 6:15:00 PM 17.87 64.166 0.246 8.05 7.06 10.41
5/20/2022 6:30:00 PM 17.88 64.184 0.268 7.98 6.15 10.22
5/20/2022 6:45:00 PM 17.77 63.986 0.245 8.04 6.13 10.29
5/20/2022 7:00:00 PM 17.7 63.86 0.24 8.02 10.01 10.27
5/20/2022 7:15:00 PM 17.64 63.752 0.235 8.01 7.03 10.28
5/20/2022 7:30:00 PM 17.62 63.716 0.244 7.99 9.73 10.18
5/20/2022 7:45:00 PM 17.57 63.626 0.237 7.99 5.48 10.17
5/20/2022 8:00:00 PM 17.54 63.572 0.239 7.97 6.16 10.08
5/20/2022 8:15:00 PM 17.51 63.518 0.243 7.94 6.14 10.02
5/20/2022 8:30:00 PM 17.46 63.428 0.229 7.97 7.03 10.06
5/20/2022 8:45:00 PM 17.45 63.41 0.244 7.94 10.27 9.99
5/20/2022 9:00:00 PM 17.42 63.356 0.23 7.92 11.27 9.96
5/20/2022 9:15:00 PM 17.41 63.338 0.231 7.92 5.76 9.92
5/20/2022 9:30:00 PM 17.41 63.338 0.23 7.91 6.9 9.89
5/20/2022 9:45:00 PM 17.41 63.338 0.234 7.89 5.36 9.83
5/20/2022 10:00:00 PM 17.41 63.338 0.23 7.9 6.48 9.83
5/20/2022 10:15:00 PM 17.38 63.284 0.236 7.82 7.87 9.72
5/20/2022 10:30:00 PM 17.4 63.32 0.238 7.83 7.45 9.68
5/20/2022 10:45:00 PM 17.4 63.32 0.244 7.82 6.69 9.61
5/20/2022 11:00:00 PM 17.43 63.374 0.233 7.86 5.62 9.7
5/20/2022 11:15:00 PM 17.44 63.392 0.23 7.85 6.86 9.65
5/20/2022 11:30:00 PM 17.43 63.374 0.243 7.8 6.82 9.46
5/20/2022 11:45:00 PM 17.44 63.392 0.24 7.79 9.54 9.51
5/21/2022 12:00:00 AM 17.46 63.428 0.242 7.8 8.08 9.49
5/21/2022 12:15:00 AM 17.47 63.446 0.24 7.8 6.04 9.48
5/21/2022 12:30:00 AM 17.5 63.5 0.232 7.81 7.03 9.46
5/21/2022 12:45:00 AM 17.52 63.536 0.229 7.81 7.02 9.48
5/21/2022 1:00:00 AM 17.49 63.482 0.242 7.77 7.5 9.37
5/21/2022 1:15:00 AM 17.54 63.572 0.231 7.78 7.32 9.41
5/21/2022 1:30:00 AM 17.49 63.482 0.252 7.73 7.48 9.28
5/21/2022 1:45:00 AM 17.53 63.554 0.237 7.77 7.54 9.35
5/21/2022 2:00:00 AM 17.56 63.608 0.23 7.77 6.92 9.33
5/21/2022 2:15:00 AM 17.56 63.608 0.234 7.76 6.69 9.28
5/21/2022 2:30:00 AM 17.58 63.644 0.231 7.77 5.98 9.29
5/21/2022 2:45:00 AM 17.57 63.626 0.233 7.76 5.68 9.24
5/21/2022 3:00:00 AM 17.58 63.644 0.233 7.75 6.77 9.2
5/21/2022 3:15:00 AM 17.59 63.662 0.232 7.74 8.45 9.17
5/21/2022 3:30:00 AM 17.62 63.716 0.228 7.73 6.19 9.16
5/21/2022 3:45:00 AM 17.61 63.698 0.229 7.74 9.76 9.15
5/21/2022 4:00:00 AM 17.62 63.716 0.227 7.74 7.06 9.17
5/21/2022 4:15:00 AM 17.58 63.644 0.235 7.71 6.41 9.07
5/21/2022 4:30:00 AM 17.58 63.644 0.234 7.7 7.94 9.06
5/21/2022 4:45:00 AM 17.61 63.698 0.227 7.71 5.44 9.09
5/21/2022 5:00:00 AM 17.59 63.662 0.231 7.7 6.46 9.01
5/21/2022 5:15:00 AM 17.58 63.644 0.229 7.7 6.03 9.02
5/21/2022 5:30:00 AM 17.58 63.644 0.227 7.68 7.73 8.99
5/21/2022 5:45:00 AM 17.55 63.59 0.231 7.68 8.9 8.94
5/21/2022 6:00:00 AM 17.56 63.608 0.227 7.68 6.03 8.97
5/21/2022 6:15:00 AM 17.52 63.536 0.238 7.65 5.79 8.91
5/21/2022 6:30:00 AM 17.54 63.572 0.232 7.64 7.63 8.84
5/21/2022 6:45:00 AM 17.54 63.572 0.23 7.65 5.73 8.83
5/21/2022 7:00:00 AM 17.52 63.536 0.231 7.65 6.12 8.84
5/21/2022 7:15:00 AM 17.53 63.554 0.23 7.66 5.87 8.96
5/21/2022 7:30:00 AM 17.51 63.518 0.24 7.63 7.19 8.84
5/21/2022 7:45:00 AM 17.53 63.554 0.232 7.66 6.46 8.99
5/21/2022 8:00:00 AM 17.55 63.59 0.231 7.68 5.98 9.03
5/21/2022 8:15:00 AM 17.56 63.608 0.231 7.67 5.84 8.99
5/21/2022 8:30:00 AM 17.61 63.698 0.227 7.7 5.63 9.16
5/21/2022 8:45:00 AM 17.63 63.734 0.232 7.71 6.22 9.17
5/21/2022 9:00:00 AM 17.72 63.896 0.225 7.74 5.24 9.28
5/21/2022 9:15:00 AM 17.75 63.95 0.25 7.71 9.02 9.28
5/21/2022 9:30:00 AM 17.86 64.148 0.24 7.75 5.2 9.38
5/21/2022 9:45:00 AM 17.96 64.328 0.234 7.77 6.01 9.38
5/21/2022 10:00:00 AM 18.08 64.544 0.241 7.78 5.86 9.53
5/21/2022 10:15:00 AM 18.28 64.904 0.267 7.79 8.96 9.56
5/21/2022 10:30:00 AM 18.41 65.138 0.259 7.8 7.83 9.67
5/21/2022 10:45:00 AM 18.5 65.3 0.246 7.84 8 9.72
5/21/2022 11:00:00 AM 18.64 65.552 0.235 7.89 8.77 9.87
5/21/2022 11:15:00 AM 18.73 65.714 0.225 7.91 5.39 9.89
5/21/2022 11:30:00 AM 18.89 66.002 0.226 7.93 6.89 10.04
5/21/2022 11:45:00 AM 19.11 66.398 0.232 7.96 6.72 10.05
5/21/2022 12:00:00 PM 19.33 66.794 0.236 7.99 5.08 10.16
5/21/2022 12:15:00 PM 19.35 66.83 0.23 8 8.28 10.18
5/21/2022 12:30:00 PM 19.6 67.28 0.233 8.05 4.83 10.34
5/21/2022 12:45:00 PM 19.81 67.658 0.24 8.02 7.81 10.34
5/21/2022 1:00:00 PM 19.96 67.92799 0.235 8.08 4.54 10.48
5/21/2022 1:15:00 PM 20.2 68.36 0.241 8.08 6.14 10.49
5/21/2022 1:30:00 PM 20.28 68.504 0.233 8.12 5.31 10.54
5/21/2022 1:45:00 PM 20.46 68.828 0.235 8.12 4.74 10.55
5/21/2022 2:00:00 PM 20.67 69.206 0.241 8.15 4.97 10.63
5/21/2022 2:15:00 PM 20.68 69.224 0.226 8.17 4.64 10.67
5/21/2022 2:30:00 PM 20.93 69.674 0.236 8.19 4.44 10.72
5/21/2022 2:45:00 PM 21.02 69.836 0.233 8.2 6.22 10.71
5/21/2022 3:00:00 PM 21.03 69.854 0.232 8.22 9.77 10.76
5/21/2022 3:15:00 PM 21.22 70.196 0.232 8.23 5.5 10.85
5/21/2022 3:30:00 PM 21.22 70.196 0.229 8.24 9.57 10.83
5/21/2022 3:45:00 PM 21.3 70.34 0.235 8.26 4.02 10.93
5/21/2022 4:00:00 PM 21.31 70.358 0.232 8.24 12.89 10.84
5/21/2022 4:15:00 PM 21.4 70.52 0.237 8.23 11.56 10.8
5/21/2022 4:30:00 PM 21.26 70.268 0.229 8.28 7.23 10.86
5/21/2022 4:45:00 PM 21.29 70.32201 0.23 8.28 5.02 10.88
5/21/2022 5:00:00 PM 21.46 70.628 0.242 8.26 6.62 10.86
5/21/2022 5:15:00 PM 21.37 70.466 0.233 8.29 5.02 10.88
5/21/2022 5:30:00 PM 21.34 70.412 0.234 8.31 5.34 10.95
5/21/2022 5:45:00 PM 21.3 70.34 0.233 8.3 5.38 10.76
5/21/2022 6:00:00 PM 21.34 70.412 0.239 8.31 7.47 10.89
5/21/2022 6:15:00 PM 21.33 70.394 0.244 8.3 5.86 10.88
5/21/2022 6:30:00 PM 21.16 70.088 0.227 8.33 5.07 10.88
5/21/2022 6:45:00 PM 21.19 70.142 0.242 8.3 4.96 10.86
5/21/2022 7:00:00 PM 21.05 69.89 0.227 8.34 4.35 10.95
5/21/2022 7:15:00 PM 21.01 69.818 0.246 8.28 9.39 10.78
5/21/2022 7:30:00 PM 20.86 69.548 0.236 8.27 6.41 10.76
5/21/2022 7:45:00 PM 20.79 69.422 0.245 8.24 5.26 10.61
5/21/2022 8:00:00 PM 20.64 69.152 0.234 8.25 6.46 10.55
5/21/2022 8:15:00 PM 20.6 69.08 0.246 8.16 8.77 10.3
5/21/2022 8:30:00 PM 20.51 68.918 0.255 8.06 7.22 10.14
5/21/2022 8:45:00 PM 20.41 68.738 0.252 8.06 23.42 10.12
5/21/2022 9:00:00 PM 20.31 68.558 0.239 8.02 18.44 10.08
5/21/2022 9:15:00 PM 20.27 68.486 0.251 7.99 11.95 9.97
5/21/2022 9:30:00 PM 20.19 68.342 0.246 7.99 10.7 9.86
5/21/2022 9:45:00 PM 20.13 68.234 0.249 7.95 7.87 9.82
5/21/2022 10:00:00 PM 20.07 68.126 0.246 7.95 12.64 9.71
5/21/2022 10:15:00 PM 20.03 68.054 0.234 7.98 11.74 9.77
5/21/2022 10:30:00 PM 20 68 0.252 7.9 10.04 9.58
5/21/2022 10:45:00 PM 19.97 67.946 0.235 7.9 9.83 9.55
5/21/2022 11:00:00 PM 19.95 67.91 0.229 7.92 7.21 9.61
5/21/2022 11:15:00 PM 19.95 67.91 0.223 7.93 8.86 9.63
5/21/2022 11:30:00 PM 19.94 67.892 0.232 7.87 6.86 9.48
5/21/2022 11:45:00 PM 19.93 67.874 0.243 7.83 9.07 9.42
5/22/2022 12:00:00 AM 19.94 67.892 0.233 7.84 9 9.34
5/22/2022 12:15:00 AM 19.96 67.92799 0.229 7.83 5.87 9.37
5/22/2022 12:30:00 AM 19.96 67.92799 0.239 7.8 7.56 9.27
5/22/2022 12:45:00 AM 19.99 67.982 0.224 7.82 5.44 9.3
5/22/2022 1:00:00 AM 19.98 67.964 0.232 7.79 6.17 9.21
5/22/2022 1:15:00 AM 19.99 67.982 0.234 7.76 6.55 9.05
5/22/2022 1:30:00 AM 20.01 68.018 0.232 7.77 6.05 9.13
5/22/2022 1:45:00 AM 20.01 68.018 0.233 7.74 8.11 9.03
5/22/2022 2:00:00 AM 20.01 68.018 0.242 7.71 6.07 8.99
5/22/2022 2:15:00 AM 20.03 68.054 0.233 7.74 7.79 9.04
5/22/2022 2:30:00 AM 20.06 68.108 0.228 7.74 6.54 9.03
5/22/2022 2:45:00 AM 20.08 68.144 0.224 7.76 8.92 9.03
5/22/2022 3:00:00 AM 20.06 68.108 0.23 7.72 7.78 8.89
5/22/2022 3:15:00 AM 20.09 68.162 0.223 7.74 7.89 8.97
5/22/2022 3:30:00 AM 20.06 68.108 0.234 7.7 10.22 8.84
5/22/2022 3:45:00 AM 20.11 68.198 0.216 7.74 5.8 8.93
5/22/2022 4:00:00 AM 20.04 68.07201 0.234 7.69 10.33 8.83
5/22/2022 4:15:00 AM 20.05 68.09 0.229 7.68 7.6 8.76
5/22/2022 4:30:00 AM 20.07 68.126 0.22 7.7 31.08 8.78
5/22/2022 4:45:00 AM 20.04 68.07201 0.221 7.69 7.96 8.74
5/22/2022 5:00:00 AM 20.01 68.018 0.225 7.67 7.4 8.68
5/22/2022 5:15:00 AM 20 68 0.22 7.67 10.91 8.68
5/22/2022 5:30:00 AM 19.99 67.982 0.219 7.66 9.84 8.66
5/22/2022 5:45:00 AM 19.98 67.964 0.215 7.66 10.11 8.63
5/22/2022 6:00:00 AM 19.92 67.856 0.222 7.63 12.39 8.58
5/22/2022 6:15:00 AM 19.87 67.766 0.23 7.62 9.38 8.53
5/22/2022 6:30:00 AM 19.89 67.802 0.218 7.65 9.03 8.64
5/22/2022 6:45:00 AM 19.89 67.802 0.215 7.64 10.5 8.55
5/22/2022 7:00:00 AM 19.86 67.748 0.219 7.62 14.36 8.51
5/22/2022 7:15:00 AM 19.85 67.73 0.219 7.62 19.58 8.53
5/22/2022 7:30:00 AM 19.82 67.676 0.223 7.61 13.35 8.5
5/22/2022 7:45:00 AM 19.81 67.658 0.218 7.63 12.15 8.64
5/22/2022 8:00:00 AM 19.81 67.658 0.211 7.66 10.74 8.68
5/22/2022 8:15:00 AM 19.77 67.586 0.216 7.64 15.78 8.57
5/22/2022 8:30:00 AM 19.73 67.514 0.23 7.61 13.95 8.44
5/22/2022 8:45:00 AM 19.76 67.568 0.223 7.66 7.42 8.69
5/22/2022 9:00:00 AM 19.81 67.658 0.219 7.68 9.99 8.82
5/22/2022 9:15:00 AM 19.89 67.802 0.229 7.69 7.73 8.86
5/22/2022 9:30:00 AM 19.96 67.92799 0.227 7.72 7.42 8.99
5/22/2022 9:45:00 AM 20.02 68.036 0.215 7.79 4.88 9.22
5/22/2022 10:00:00 AM 20.07 68.126 0.22 7.77 6.76 9.16
5/22/2022 10:15:00 AM 20.09 68.162 0.222 7.78 10.98 9.25
5/22/2022 10:30:00 AM 20.19 68.342 0.23 7.79 11.38 9.28
5/22/2022 10:45:00 AM 20.29 68.522 0.224 7.85 5.85 9.42
5/22/2022 11:00:00 AM 20.38 68.684 0.24 7.84 10.9 9.48
5/22/2022 11:15:00 AM 20.57 69.026 0.249 7.84 13.53 9.5
5/22/2022 11:30:00 AM 20.73 69.314 0.246 7.9 9.24 9.69
5/22/2022 11:45:00 AM 20.84 69.512 0.225 7.95 13.52 9.84
5/22/2022 12:00:00 PM 20.97 69.746 0.226 7.93 16.48 9.67
5/22/2022 12:15:00 PM 21.19 70.142 0.235 7.91 75.7 9.87
5/22/2022 12:30:00 PM 21.25 70.25 0.224 8.03 5.23 10.1
5/22/2022 12:45:00 PM 21.42 70.556 0.227 8.05 8.48 10.06
5/22/2022 1:00:00 PM 21.56 70.808 0.222 8.12 7.05 10.3
5/22/2022 1:15:00 PM 21.61 70.898 0.217 8.08 5.46 10.23
5/22/2022 1:30:00 PM 21.7 71.06 0.214 8.12 5.43 10.3
5/22/2022 1:45:00 PM 21.82 71.276 0.221 8.14 8.21 10.35
5/22/2022 2:00:00 PM 21.86 71.348 0.217 8.16 6.07 10.44
5/22/2022 2:15:00 PM 21.9 71.42 0.214 8.19 9.62 10.44
5/22/2022 2:30:00 PM 22.01 71.618 0.216 8.21 5.19 10.53
5/22/2022 2:45:00 PM 21.99 71.582 0.214 8.18 6.69 10.58
5/22/2022 3:00:00 PM 22.12 71.816 0.225 8.22 6.19 10.5
5/22/2022 3:15:00 PM 22.04 71.672 0.216 8.23 6.2 10.54
5/22/2022 3:30:00 PM 21.97 71.546 0.226 8.2 7.72 10.38
5/22/2022 3:45:00 PM 21.83 71.294 0.221 8.19 9.75 10.34
5/22/2022 4:00:00 PM 21.68 71.024 0.217 8.17 8.81 10.23
5/22/2022 4:15:00 PM 21.56 70.808 0.228 8.08 21.41 9.9
5/22/2022 4:30:00 PM 21.45 70.61 0.22 8.08 12.39 9.91
5/22/2022 4:45:00 PM 21.36 70.448 0.218 8.03 13.84 9.85
5/22/2022 5:00:00 PM 21.36 70.448 0.222 8.02 24.59 9.75
5/22/2022 5:15:00 PM 21.35 70.43 0.216 8.05 11.43 9.91
5/22/2022 5:30:00 PM 21.36 70.448 0.219 8.06 9.48 9.96
5/22/2022 5:45:00 PM 21.26 70.268 0.228 8.02 9.53 9.86
5/22/2022 6:00:00 PM 21.17 70.106 0.236 7.95 21 9.64
5/22/2022 6:15:00 PM 21.17 70.106 0.268 7.73 28.67 9.09
5/22/2022 6:30:00 PM 20.98 69.764 0.236 7.85 30.91 9.48
5/22/2022 6:45:00 PM 20.96 69.728 0.275 7.7 16.71 9.03
5/22/2022 7:00:00 PM 20.82 69.476 0.274 7.65 15.82 9.03
5/22/2022 7:15:00 PM 20.65 69.17 0.229 7.9 14.69 9.59
5/22/2022 7:30:00 PM 20.56 69.008 0.245 7.85 13.61 9.39
5/22/2022 7:45:00 PM 20.42 68.756 0.282 7.68 13.64 9.07
5/22/2022 8:00:00 PM 20.34 68.612 0.282 7.67 13.8 9.07
5/22/2022 8:15:00 PM 20.27 68.486 0.232 7.83 11.02 9.36
5/22/2022 8:30:00 PM 20.21 68.378 0.234 7.76 86.22 9.23
5/22/2022 8:45:00 PM 20.14 68.252 0.248 7.76 17.84 9.21
5/22/2022 9:00:00 PM 20.09 68.162 0.228 7.8 11.83 9.23
5/22/2022 9:15:00 PM 19.92 67.856 0.295 7.6 13 8.81
5/22/2022 9:30:00 PM 20.02 68.036 0.228 7.79 10.52 9.15
5/22/2022 9:45:00 PM 19.97 67.946 0.237 7.74 11.22 9.03
5/22/2022 10:00:00 PM 19.73 67.514 0.302 7.57 14.63 8.64
5/22/2022 10:15:00 PM 19.88 67.784 0.238 7.72 13.75 8.97
5/22/2022 10:30:00 PM 19.92 67.856 0.228 7.74 9.16 8.99
5/22/2022 10:45:00 PM 19.9 67.82 0.232 7.75 9.26 8.98
5/22/2022 11:00:00 PM 19.8 67.64 0.237 7.71 7.36 8.9
5/22/2022 11:15:00 PM 19.83 67.694 0.235 7.71 10.01 8.89
5/22/2022 11:30:00 PM 19.74 67.532 0.244 7.64 11.21 8.78
5/22/2022 11:45:00 PM 19.84 67.712 0.227 7.74 8.99 8.87
5/23/2022 12:00:00 AM 19.79 67.622 0.233 7.7 9.27 8.8
5/23/2022 12:15:00 AM 19.75 67.55 0.243 7.68 9.68 8.74
5/23/2022 12:30:00 AM 19.88 67.784 0.224 7.75 6.14 8.86
5/23/2022 12:45:00 AM 19.85 67.73 0.229 7.74 7.95 8.77
5/23/2022 1:00:00 AM 19.8 67.64 0.231 7.7 11.24 8.68
5/23/2022 1:15:00 AM 19.84 67.712 0.227 7.73 22.69 8.72
5/23/2022 1:30:00 AM 19.85 67.73 0.227 7.68 134.34 8.51
5/23/2022 1:45:00 AM 19.76 67.568 0.236 7.68 17.1 8.6
5/23/2022 2:00:00 AM 19.87 67.766 0.225 7.72 14.18 8.65
5/23/2022 2:15:00 AM 19.78 67.604 0.244 7.67 8.67 8.58
5/23/2022 2:30:00 AM 19.92 67.856 0.225 7.73 7.21 8.62
5/23/2022 2:45:00 AM 19.93 67.874 0.224 7.74 6.77 8.64
5/23/2022 3:00:00 AM 19.94 67.892 0.223 7.74 7.57 8.55
5/23/2022 3:15:00 AM 19.94 67.892 0.223 7.75 8.22 8.6
5/23/2022 3:30:00 AM 19.91 67.838 0.228 7.72 9.56 8.5
5/23/2022 3:45:00 AM 19.93 67.874 0.226 7.72 11.49 8.48
5/23/2022 4:00:00 AM 19.95 67.91 0.224 7.74 6.14 8.51
5/23/2022 4:15:00 AM 19.93 67.874 0.226 7.73 7.31 8.44
5/23/2022 4:30:00 AM 19.87 67.766 0.232 7.72 6.52 8.4
5/23/2022 4:45:00 AM 19.86 67.748 0.232 7.71 10.24 8.4
5/23/2022 5:00:00 AM 19.8 67.64 0.242 7.7 7.52 8.39
5/23/2022 5:15:00 AM 19.79 67.622 0.237 7.71 8.72 8.39
5/23/2022 5:30:00 AM 19.8 67.64 0.233 7.71 7.79 8.36
5/23/2022 5:45:00 AM 19.73 67.514 0.239 7.7 10.85 8.31
5/23/2022 6:00:00 AM 19.75 67.55 0.234 7.71 6.76 8.33
5/23/2022 6:15:00 AM 19.69 67.442 0.235 7.71 7.6 8.36
5/23/2022 6:30:00 AM 19.62 67.316 0.239 7.68 9.16 8.27
5/23/2022 6:45:00 AM 19.63 67.334 0.235 7.71 7.18 8.34
5/23/2022 7:00:00 AM 19.53 67.154 0.242 7.69 7.74 8.21
5/23/2022 7:15:00 AM 19.53 67.154 0.239 7.71 7.82 8.34
5/23/2022 7:30:00 AM 19.5 67.1 0.239 7.71 6.79 8.4
5/23/2022 7:45:00 AM 19.52 67.136 0.23 7.75 6.68 8.46
5/23/2022 8:00:00 AM 19.36 66.848 0.253 7.72 6.81 8.49
5/23/2022 8:15:00 AM 19.47 67.046 0.235 7.75 8.18 8.52
5/23/2022 8:30:00 AM 19.42 66.956 0.24 7.76 6.74 8.61
5/23/2022 8:45:00 AM 19.49 67.082 0.235 7.79 5.86 8.71
5/23/2022 9:00:00 AM 19.51 67.118 0.23 7.82 6.22 8.8
5/23/2022 9:15:00 AM 19.34 66.812 0.251 7.79 9.65 8.84
5/23/2022 9:30:00 AM 19.48 67.064 0.226 7.86 6.04 8.91
5/23/2022 9:45:00 AM 19.46 67.028 0.235 7.83 5.63 8.9
5/23/2022 10:00:00 AM 19.44 66.992 0.252 7.83 6.61 9.05
5/23/2022 10:15:00 AM 19.55 67.19 0.244 7.84 6.66 9.1
5/23/2022 10:30:00 AM 19.66 67.388 0.238 7.86 5.81 9.19
5/23/2022 10:45:00 AM 19.77 67.586 0.246 7.89 6.55 9.29
5/23/2022 11:00:00 AM 19.86 67.748 0.249 7.91 6.12 9.37
5/23/2022 11:15:00 AM 19.93 67.874 0.235 7.92 7.42 9.37
5/23/2022 11:30:00 AM 20 68 0.232 7.97 5.13 9.5
5/23/2022 11:45:00 AM 20.02 68.036 0.253 7.95 6.63 9.54
5/23/2022 12:00:00 PM 20.04 68.07201 0.252 7.98 6.52 9.63
5/23/2022 12:15:00 PM 20.14 68.252 0.258 8 5.86 9.74
5/23/2022 12:30:00 PM 20.27 68.486 0.243 8.04 5.55 9.82
5/23/2022 12:45:00 PM 20.31 68.558 0.247 8.04 5.27 9.83
5/23/2022 1:00:00 PM 20.37 68.666 0.246 8.04 6.59 9.85
5/23/2022 1:15:00 PM 20.37 68.666 0.244 8.08 6.03 9.96
5/23/2022 1:30:00 PM 20.38 68.684 0.257 8.08 5.76 10.03
5/23/2022 1:45:00 PM 20.38 68.684 0.25 8.11 6.15 10.1
5/23/2022 2:00:00 PM 20.4 68.72 0.258 8.11 6 10.11
5/23/2022 2:15:00 PM 20.45 68.81 0.234 8.16 6.4 10.2
5/23/2022 2:30:00 PM 20.49 68.882 0.251 8.16 6.51 10.28
5/23/2022 2:45:00 PM 20.52 68.936 0.238 8.19 4.88 10.3
5/23/2022 3:00:00 PM 20.58 69.044 0.239 8.19 6.54 10.3
5/23/2022 3:15:00 PM 20.71 69.278 0.235 8.21 6.22 10.38
5/23/2022 3:30:00 PM 20.77 69.386 0.243 8.22 6.56 10.43
5/23/2022 3:45:00 PM 20.84 69.512 0.242 8.24 5.92 10.51
5/23/2022 4:00:00 PM 20.89 69.602 0.247 8.25 5.97 10.57
5/23/2022 4:15:00 PM 20.86 69.548 0.251 8.25 6.37 10.58
5/23/2022 4:30:00 PM 20.83 69.494 0.24 8.26 6.67 10.6
5/23/2022 4:45:00 PM 20.75 69.35 0.252 8.26 5.46 10.54
5/23/2022 5:00:00 PM 20.67 69.206 0.244 8.27 5.71 10.56
5/23/2022 5:15:00 PM 20.56 69.008 0.23 8.32 5.7 10.65
5/23/2022 5:30:00 PM 20.45 68.81 0.236 8.29 5.8 10.59
5/23/2022 5:45:00 PM 20.31 68.558 0.268 8.2 7.39 10.45
5/23/2022 6:00:00 PM 20.23 68.414 0.245 8.26 6.29 10.5
5/23/2022 6:15:00 PM 20.15 68.27 0.231 8.31 6.32 10.58
5/23/2022 6:30:00 PM 20.06 68.108 0.23 8.3 5.28 10.52
5/23/2022 6:45:00 PM 19.97 67.946 0.226 8.29 6.75 10.47
5/23/2022 7:00:00 PM 19.87 67.766 0.227 8.27 7.14 10.43
5/23/2022 7:15:00 PM 19.77 67.586 0.236 8.24 7.43 10.33
5/23/2022 7:30:00 PM 19.72 67.496 0.218 8.28 6.85 10.4
5/23/2022 7:45:00 PM 19.62 67.316 0.234 8.2 14.21 10.23
5/23/2022 8:00:00 PM 19.55 67.19 0.228 8.18 10.94 10.16
5/23/2022 8:15:00 PM 19.47 67.046 0.225 8.16 7.71 10.08
5/23/2022 8:30:00 PM 19.37 66.866 0.232 8.1 9.31 9.89
5/23/2022 8:45:00 PM 19.33 66.794 0.221 8.11 7.77 9.89
5/23/2022 9:00:00 PM 19.24 66.632 0.226 8.08 9.08 9.83
5/23/2022 9:15:00 PM 19.21 66.578 0.221 8.05 7.8 9.7
5/23/2022 9:30:00 PM 19.14 66.452 0.225 8.02 8.67 9.65
5/23/2022 9:45:00 PM 19.09 66.362 0.224 7.99 6.97 9.57
5/23/2022 10:00:00 PM 19 66.2 0.23 7.95 6.88 9.51
5/23/2022 10:15:00 PM 18.94 66.092 0.232 7.92 8.6 9.45
5/23/2022 10:30:00 PM 18.98 66.164 0.22 7.92 6.18 9.45
5/23/2022 10:45:00 PM 18.9 66.02 0.229 7.89 7.77 9.34
5/23/2022 11:00:00 PM 18.9 66.02 0.227 7.89 8.72 9.35
5/23/2022 11:15:00 PM 18.9 66.02 0.226 7.87 7.58 9.28
5/23/2022 11:30:00 PM 18.87 65.966 0.229 7.86 7.65 9.24
5/23/2022 11:45:00 PM 18.79 65.82201 0.241 7.82 7.9 9.15
5/24/2022 12:00:00 AM 18.92 66.056 0.218 7.87 8.29 9.21
5/24/2022 12:15:00 AM 18.84 65.912 0.23 7.81 7.52 9.11
5/24/2022 12:30:00 AM 18.86 65.948 0.227 7.83 8.14 9.13
5/24/2022 12:45:00 AM 18.87 65.966 0.227 7.82 6.91 9.08
5/24/2022 1:00:00 AM 18.87 65.966 0.228 7.82 8.34 9.1
5/24/2022 1:15:00 AM 18.91 66.038 0.225 7.81 8.27 9.06
5/24/2022 1:30:00 AM 18.89 66.002 0.227 7.81 6.08 9.07
5/24/2022 1:45:00 AM 18.92 66.056 0.225 7.82 6.31 9.05
5/24/2022 2:00:00 AM 18.96 66.128 0.223 7.82 6.36 8.99
5/24/2022 2:15:00 AM 18.93 66.074 0.225 7.81 6.58 8.98
5/24/2022 2:30:00 AM 18.92 66.056 0.231 7.8 6.99 8.98
5/24/2022 2:45:00 AM 18.98 66.164 0.225 7.8 6.08 8.9
5/24/2022 3:00:00 AM 19.03 66.254 0.221 7.82 7.36 8.95
5/24/2022 3:15:00 AM 18.97 66.146 0.228 7.8 7.65 8.9
5/24/2022 3:30:00 AM 18.99 66.182 0.226 7.8 12.28 8.91
5/24/2022 3:45:00 AM 18.97 66.146 0.229 7.79 8.05 8.89
5/24/2022 4:00:00 AM 18.99 66.182 0.225 7.8 6.78 8.86
5/24/2022 4:15:00 AM 19 66.2 0.223 7.8 6.47 8.84
5/24/2022 4:30:00 AM 18.93 66.074 0.228 7.79 756.9 8.78
5/24/2022 4:45:00 AM 18.94 66.092 0.227 7.79 10.35 8.74
5/24/2022 5:00:00 AM 18.85 65.93 0.236 7.75 6.96 8.67
5/24/2022 5:15:00 AM 18.94 66.092 0.223 7.78 8.12 8.74
5/24/2022 5:30:00 AM 18.88 65.984 0.226 7.76 8.06 8.74
5/24/2022 5:45:00 AM 18.88 65.984 0.226 7.77 6.33 8.7
5/24/2022 6:00:00 AM 18.84 65.912 0.226 7.76 5.96 8.66
5/24/2022 6:15:00 AM 18.82 65.876 0.225 7.76 6.65 8.64
5/24/2022 6:30:00 AM 18.76 65.768 0.232 7.75 7.44 8.66
5/24/2022 6:45:00 AM 18.74 65.732 0.231 7.76 5.02 8.65
5/24/2022 7:00:00 AM 18.75 65.75 0.228 7.77 6.38 8.69
5/24/2022 7:15:00 AM 18.66 65.588 0.234 7.73 5.45 8.6
5/24/2022 7:30:00 AM 18.58 65.444 0.242 7.67 71.21 8.49
5/24/2022 7:45:00 AM 18.59 65.462 0.236 7.74 11.72 8.66
5/24/2022 8:00:00 AM 18.59 65.462 0.239 7.76 8.04 8.73
5/24/2022 8:15:00 AM 18.72 65.696 0.224 7.82 6.06 8.84
5/24/2022 8:30:00 AM 18.7 65.66 0.231 7.82 6.46 8.93
5/24/2022 8:45:00 AM 18.68 65.624 0.235 7.82 7.29 8.98
5/24/2022 9:00:00 AM 18.8 65.84 0.227 7.87 6.24 9.06
5/24/2022 9:15:00 AM 18.78 65.804 0.234 7.88 5.39 9.18
5/24/2022 9:30:00 AM 18.87 65.966 0.228 7.91 5.76 9.22
5/24/2022 9:45:00 AM 18.92 66.056 0.235 7.92 5.69 9.3
5/24/2022 10:00:00 AM 19.02 66.236 0.229 7.94 6.27 9.39
5/24/2022 10:15:00 AM 19.11 66.398 0.23 7.97 6.91 9.44
5/24/2022 10:30:00 AM 19.22 66.596 0.226 8.02 4.85 9.64
5/24/2022 10:45:00 AM 19.28 66.704 0.235 8.03 4.85 9.66
5/24/2022 11:00:00 AM 19.36 66.848 0.231 8.07 5 9.77
5/24/2022 11:15:00 AM 19.4 66.92 0.235 8.07 7.1 9.83
5/24/2022 11:30:00 AM 19.41 66.938 0.24 8.09 4.85 9.92
5/24/2022 11:45:00 AM 19.44 66.992 0.229 8.12 4.42 9.91
5/24/2022 12:00:00 PM 19.46 67.028 0.232 8.12 6.51 9.92
5/24/2022 12:15:00 PM 19.48 67.064 0.232 8.15 4.28 9.99
5/24/2022 12:30:00 PM 19.5 67.1 0.229 8.16 6.67 9.99
5/24/2022 12:45:00 PM 19.57 67.226 0.23 8.18 5.04 10.08
5/24/2022 1:00:00 PM 19.58 67.244 0.239 8.18 6.2 10.12
5/24/2022 1:15:00 PM 19.66 67.388 0.242 8.22 5.02 10.26
5/24/2022 1:30:00 PM 19.72 67.496 0.239 8.23 5.46 10.27
5/24/2022 1:45:00 PM 19.78 67.604 0.249 8.2 6.03 10.25
5/24/2022 2:00:00 PM 19.82 67.676 0.228 8.24 5.99 10.34
5/24/2022 2:15:00 PM 19.84 67.712 0.229 8.24 6.02 10.32
5/24/2022 2:30:00 PM 19.92 67.856 0.236 8.24 5.07 10.36
5/24/2022 2:45:00 PM 20.04 68.07201 0.234 8.28 3.99 10.43
5/24/2022 3:00:00 PM 20.1 68.18 0.246 8.26 4.36 10.37
5/24/2022 3:15:00 PM 20.14 68.252 0.234 8.27 4.04 10.39
5/24/2022 3:30:00 PM 20.14 68.252 0.241 8.27 4.71 10.52
5/24/2022 3:45:00 PM 20.17 68.306 0.248 8.29 5.61 10.47
5/24/2022 4:00:00 PM 20.26 68.468 0.237 8.3 4.89 10.54
5/24/2022 4:15:00 PM 20.27 68.486 0.242 8.3 6.64 10.52
5/24/2022 4:30:00 PM 20.26 68.468 0.245 8.3 5.51 10.56
5/24/2022 4:45:00 PM 20.22 68.396 0.252 8.27 5.49 10.48
5/24/2022 5:00:00 PM 20.19 68.342 0.233 8.29 5.63 10.4
5/24/2022 5:15:00 PM 20.18 68.324 0.238 8.31 5.13 10.58
5/24/2022 5:30:00 PM 20.15 68.27 0.249 8.3 6.09 10.55
5/24/2022 5:45:00 PM 20.11 68.198 0.24 8.32 4.39 10.58
5/24/2022 6:00:00 PM 20.06 68.108 0.236 8.32 4.81 10.58
5/24/2022 6:15:00 PM 20.02 68.036 0.244 8.28 6.06 10.43
5/24/2022 6:30:00 PM 19.98 67.964 0.239 8.3 6.4 10.51
5/24/2022 6:45:00 PM 19.92 67.856 0.248 8.29 6.44 10.48
5/24/2022 7:00:00 PM 19.86 67.748 0.234 8.3 4.93 10.47
5/24/2022 7:15:00 PM 19.8 67.64 0.231 8.29 4.76 10.38
5/24/2022 7:30:00 PM 19.73 67.514 0.24 8.25 5.02 10.32
5/24/2022 7:45:00 PM 19.66 67.388 0.242 8.22 6.22 10.21
5/24/2022 8:00:00 PM 19.58 67.244 0.244 8.17 4.94 10.06
5/24/2022 8:15:00 PM 19.51 67.118 0.241 8.17 6.76 10.04
5/24/2022 8:30:00 PM 19.43 66.974 0.245 8.14 5.25 9.93
5/24/2022 8:45:00 PM 19.36 66.848 0.243 8.1 6.2 9.85
5/24/2022 9:00:00 PM 19.29 66.722 0.241 8.09 8.95 9.81
5/24/2022 9:15:00 PM 19.22 66.596 0.243 8.05 6.66 9.67
5/24/2022 9:30:00 PM 19.17 66.506 0.237 8.04 6.55 9.65
5/24/2022 9:45:00 PM 19.1 66.38 0.24 8 8.45 9.57
5/24/2022 10:00:00 PM 19.06 66.308 0.235 7.99 9.09 9.51
5/24/2022 10:15:00 PM 18.95 66.11 0.239 7.9 6.93 9.37
5/24/2022 10:30:00 PM 18.87 65.966 0.243 7.87 5.55 9.35
5/24/2022 10:45:00 PM 18.95 66.11 0.23 7.92 6.07 9.38
5/24/2022 11:00:00 PM 18.86 65.948 0.242 7.88 6.82 9.25
5/24/2022 11:15:00 PM 18.86 65.948 0.239 7.87 5.47 9.21
5/24/2022 11:30:00 PM 18.82 65.876 0.24 7.85 5.23 9.15
5/24/2022 11:45:00 PM 18.79 65.82201 0.239 7.86 5.66 9.15
5/25/2022 12:00:00 AM 18.73 65.714 0.24 7.84 5.95 9.09
5/25/2022 12:15:00 AM 18.74 65.732 0.239 7.82 5.64 9.07
5/25/2022 12:30:00 AM 18.79 65.82201 0.233 7.83 5.67 9.02
5/25/2022 12:45:00 AM 18.74 65.732 0.24 7.81 7.89 9.02
5/25/2022 1:00:00 AM 18.74 65.732 0.234 7.8 6.67 8.95
5/25/2022 1:15:00 AM 18.7 65.66 0.244 7.8 5.9 8.96
5/25/2022 1:30:00 AM 18.73 65.714 0.237 7.81 6.27 8.99
5/25/2022 1:45:00 AM 18.73 65.714 0.237 7.8 7.15 8.99
5/25/2022 2:00:00 AM 18.71 65.67799 0.242 7.79 6.52 8.95
5/25/2022 2:15:00 AM 18.71 65.67799 0.239 7.79 5.76 8.92
5/25/2022 2:30:00 AM 18.68 65.624 0.243 7.78 5.58 8.9
5/25/2022 2:45:00 AM 18.72 65.696 0.236 7.79 6.31 8.88
5/25/2022 3:00:00 AM 18.73 65.714 0.235 7.8 5.5 8.88
5/25/2022 3:15:00 AM 18.71 65.67799 0.239 7.79 4.76 8.9
5/25/2022 3:30:00 AM 18.73 65.714 0.236 7.79 6.3 8.84
5/25/2022 3:45:00 AM 18.75 65.75 0.233 7.79 4.66 8.85
5/25/2022 4:00:00 AM 18.75 65.75 0.231 7.79 6.11 8.85
5/25/2022 4:15:00 AM 18.73 65.714 0.237 7.77 8.86 8.77
5/25/2022 4:30:00 AM 18.73 65.714 0.236 7.79 7.48 8.83
5/25/2022 4:45:00 AM 18.74 65.732 0.234 7.79 6.64 8.82
5/25/2022 5:00:00 AM 18.73 65.714 0.233 7.78 9.1 8.74
5/25/2022 5:15:00 AM 18.71 65.67799 0.237 7.76 8.96 8.69
5/25/2022 5:30:00 AM 18.71 65.67799 0.237 7.77 15.44 8.7
5/25/2022 5:45:00 AM 18.71 65.67799 0.237 7.75 7.87 8.64
5/25/2022 6:00:00 AM 18.73 65.714 0.234 7.78 5.8 8.67
5/25/2022 6:15:00 AM 18.71 65.67799 0.235 7.77 7.3 8.7
5/25/2022 6:30:00 AM 18.75 65.75 0.229 7.77 7.44 8.66
5/25/2022 6:45:00 AM 18.72 65.696 0.232 7.76 6.5 8.63
5/25/2022 7:00:00 AM 18.74 65.732 0.23 7.77 6.52 8.64
5/25/2022 7:15:00 AM 18.7 65.66 0.236 7.77 5.12 8.64
5/25/2022 7:30:00 AM 18.69 65.642 0.237 7.76 6.87 8.61
5/25/2022 7:45:00 AM 18.75 65.75 0.228 7.78 5.86 8.67
5/25/2022 8:00:00 AM 18.73 65.714 0.234 7.78 5.28 8.73
5/25/2022 8:15:00 AM 18.74 65.732 0.231 7.78 7.11 8.66
5/25/2022 8:30:00 AM 18.76 65.768 0.228 7.82 6.2 8.86
5/25/2022 8:45:00 AM 18.76 65.768 0.231 7.83 5.71 8.84
5/25/2022 9:00:00 AM 18.76 65.768 0.236 7.85 5.51 8.94
5/25/2022 9:15:00 AM 18.82 65.876 0.227 7.85 4.59 8.9
5/25/2022 9:30:00 AM 18.87 65.966 0.225 7.88 5.31 9.09
5/25/2022 9:45:00 AM 18.89 66.002 0.232 7.89 4.72 9.14
5/25/2022 10:00:00 AM 18.93 66.074 0.233 7.93 5.55 9.27
5/25/2022 10:15:00 AM 19.01 66.218 0.225 7.95 4.59 9.27
5/25/2022 10:30:00 AM 19.08 66.344 0.227 7.97 3.68 9.35
5/25/2022 10:45:00 AM 19.21 66.578 0.23 8.01 7.24 9.57
5/25/2022 11:00:00 AM 19.36 66.848 0.227 8.04 7.79 9.63
5/25/2022 11:15:00 AM 19.51 67.118 0.229 8.05 5.67 9.7
5/25/2022 11:30:00 AM 19.69 67.442 0.238 8.08 5.7 9.82
5/25/2022 11:45:00 AM 19.81 67.658 0.232 8.08 5.06 9.68
5/25/2022 12:00:00 PM 19.99 67.982 0.229 8.13 5.2 9.9
5/25/2022 12:15:00 PM 20.2 68.36 0.247 8.11 5.09 10
5/25/2022 12:30:00 PM 20.37 68.666 0.256 8.11 5.29 9.94
5/25/2022 12:45:00 PM 20.58 69.044 0.257 8.15 4.83 10.11
5/25/2022 1:00:00 PM 20.77 69.386 0.278 8.15 5.83 10.27
5/25/2022 1:15:00 PM 20.92 69.656 0.252 8.2 5.53 10.3
5/25/2022 1:30:00 PM 21.08 69.944 0.239 8.25 6.09 10.38
5/25/2022 1:45:00 PM 21.28 70.304 0.247 8.23 5.67 10.34
5/25/2022 2:00:00 PM 21.41 70.538 0.239 8.23 5.3 10.42
5/25/2022 2:15:00 PM 21.57 70.826 0.241 8.27 6.17 10.4
5/25/2022 2:30:00 PM 21.71 71.078 0.242 8.29 4.4 10.47
5/25/2022 2:45:00 PM 21.8 71.24 0.235 8.27 4.37 10.46
5/25/2022 3:00:00 PM 21.89 71.402 0.235 8.29 4.05 10.31
5/25/2022 3:15:00 PM 21.94 71.492 0.231 8.25 5.13 10.26
5/25/2022 3:30:00 PM 22.03 71.654 0.231 8.24 8.84 10.35
5/25/2022 3:45:00 PM 22.11 71.798 0.233 8.3 4.14 10.42
5/25/2022 4:00:00 PM 22.09 71.762 0.228 8.33 4.63 10.56
5/25/2022 4:15:00 PM 22.19 71.942 0.236 8.32 4.6 10.56
5/25/2022 4:30:00 PM 22.2 71.96 0.24 8.3 4.82 10.51
5/25/2022 4:45:00 PM 22.19 71.942 0.257 8.27 5.08 10.36
5/25/2022 5:00:00 PM 22.18 71.924 0.253 8.3 4.87 10.5
5/25/2022 5:15:00 PM 22.21 71.978 0.263 8.29 5.58 10.45
5/25/2022 5:30:00 PM 22.09 71.762 0.263 8.27 6.24 10.37
5/25/2022 5:45:00 PM 21.99 71.582 0.237 8.29 4.65 10.42
5/25/2022 6:00:00 PM 21.93 71.474 0.241 8.27 5.56 10.12
5/25/2022 6:15:00 PM 21.77 71.186 0.231 8.34 4.72 10.55
5/25/2022 6:30:00 PM 21.73 71.114 0.251 8.3 5.03 10.43
5/25/2022 6:45:00 PM 21.59 70.862 0.256 8.29 5.47 10.42
5/25/2022 7:00:00 PM 21.45 70.61 0.238 8.32 6.78 10.45
5/25/2022 7:15:00 PM 21.37 70.466 0.241 8.25 6.86 10.22
5/25/2022 7:30:00 PM 21.23 70.214 0.236 8.22 5.54 10.04
5/25/2022 7:45:00 PM 21.04 69.872 0.229 8.26 4.62 10.21
5/25/2022 8:00:00 PM 20.94 69.692 0.231 8.2 4.53 9.98
5/25/2022 8:15:00 PM 20.72 69.296 0.223 8.21 4.73 9.99
5/25/2022 8:30:00 PM 20.56 69.008 0.226 8.2 5.24 10.01
5/25/2022 8:45:00 PM 20.47 68.846 0.227 8.13 6.37 9.86
5/25/2022 9:00:00 PM 20.35 68.63 0.229 8.09 6.74 9.62
5/25/2022 9:15:00 PM 20.24 68.432 0.228 8.07 6.24 9.63
5/25/2022 9:30:00 PM 20.13 68.234 0.237 8.04 5.48 9.57
5/25/2022 9:45:00 PM 20 68 0.231 8.02 5.58 9.55
5/25/2022 10:00:00 PM 19.91 67.838 0.232 7.98 4.96 9.42
5/25/2022 10:15:00 PM 18.95 66.11 0.236 7.34 8.31 9.04
5/25/2022 10:30:00 PM 19.64 67.352 0.233 7.84 8.53 9.19
5/25/2022 10:45:00 PM 19.59 67.262 0.233 7.84 9.3 9.25
5/25/2022 11:00:00 PM 19.55 67.19 0.235 7.82 7.24 8.95
5/25/2022 11:15:00 PM 19.52 67.136 0.227 7.85 10.6 9.04
5/25/2022 11:30:00 PM 19.45 67.01 0.235 7.82 6.42 9.02
5/25/2022 11:45:00 PM 19.42 66.956 0.227 7.85 8.87 9.05
5/26/2022 12:00:00 AM 19.34 66.812 0.235 7.81 6.77 9.02
5/26/2022 12:15:00 AM 19.3 66.74 0.233 7.79 11.47 8.93
5/26/2022 12:30:00 AM 19.24 66.632 0.234 7.79 6.94 8.97
5/26/2022 12:45:00 AM 19.05 66.29 0.232 7.63 12.18 8.87
5/26/2022 1:00:00 AM 19.09 66.362 0.237 7.7 21.01 8.83
5/26/2022 1:15:00 AM 19.1 66.38 0.232 7.73 9.79 8.79
5/26/2022 1:30:00 AM 19.1 66.38 0.227 7.74 5.17 8.8
5/26/2022 1:45:00 AM 19.04 66.272 0.233 7.72 8.21 8.75
5/26/2022 2:00:00 AM 19.03 66.254 0.233 7.73 5.71 8.77
5/26/2022 2:15:00 AM 18.99 66.182 0.236 7.73 7.82 8.77
5/26/2022 2:30:00 AM 19.01 66.218 0.229 7.73 9.31 8.71
5/26/2022 2:45:00 AM 18.99 66.182 0.233 7.72 6.25 8.69
5/26/2022 3:00:00 AM 18.98 66.164 0.235 7.73 8.8 8.7
5/26/2022 3:15:00 AM 18.98 66.164 0.232 7.74 11.65 8.75
5/26/2022 3:30:00 AM 18.95 66.11 0.236 7.72 9.95 8.66
5/26/2022 3:45:00 AM 18.95 66.11 0.234 7.73 7.09 8.64
5/26/2022 4:00:00 AM 18.92 66.056 0.236 7.71 10.18 8.64
5/26/2022 4:15:00 AM 18.94 66.092 0.233 7.73 5.65 8.72
5/26/2022 4:30:00 AM 18.93 66.074 0.232 7.71 7.19 8.52
5/26/2022 4:45:00 AM 18.94 66.092 0.228 7.7 6.62 8.53
5/26/2022 5:00:00 AM 18.86 65.948 0.236 7.72 8.61 8.62
5/26/2022 5:15:00 AM 18.84 65.912 0.232 7.7 9.75 8.48
5/26/2022 5:30:00 AM 18.8 65.84 0.237 7.7 6.52 8.44
5/26/2022 5:45:00 AM 18.79 65.82201 0.233 7.71 6.98 8.56
5/26/2022 6:00:00 AM 18.81 65.858 0.231 7.71 6.14 8.48
5/26/2022 6:15:00 AM 18.78 65.804 0.232 7.7 5.2 8.37
5/26/2022 6:30:00 AM 18.82 65.876 0.23 7.72 5.41 8.49
5/26/2022 6:45:00 AM 18.8 65.84 0.231 7.72 7.66 8.51
5/26/2022 7:00:00 AM 18.79 65.82201 0.232 7.72 7.02 8.41
5/26/2022 7:15:00 AM 18.84 65.912 0.23 7.74 6.97 8.58
5/26/2022 7:30:00 AM 18.82 65.876 0.228 7.75 5.96 8.6
5/26/2022 7:45:00 AM 18.8 65.84 0.227 7.78 5.88 8.7
5/26/2022 8:00:00 AM 18.81 65.858 0.225 7.78 5.07 8.63
5/26/2022 8:15:00 AM 18.78 65.804 0.228 7.79 7.11 8.62
5/26/2022 8:30:00 AM 18.78 65.804 0.229 7.82 6.28 8.76
5/26/2022 8:45:00 AM 18.81 65.858 0.225 7.86 6.23 8.9
5/26/2022 9:00:00 AM 18.8 65.84 0.227 7.9 5.55 9.04
5/26/2022 9:15:00 AM 18.82 65.876 0.228 7.91 5.33 9.05
5/26/2022 9:30:00 AM 18.93 66.074 0.225 7.93 7.19 9.13
5/26/2022 9:45:00 AM 18.98 66.164 0.225 7.99 5.63 9.25
5/26/2022 10:00:00 AM 19.07 66.326 0.225 7.98 6.16 9.23
5/26/2022 10:15:00 AM 19.14 66.452 0.225 8.04 6.31 9.39
5/26/2022 10:30:00 AM 19.19 66.542 0.228 8.02 7.23 9.26
5/26/2022 10:45:00 AM 19.27 66.686 0.226 8.08 6.58 9.49
5/26/2022 11:00:00 AM 19.37 66.866 0.225 8.11 5.71 9.58
5/26/2022 11:15:00 AM 19.49 67.082 0.228 8.13 5.42 9.62
5/26/2022 11:30:00 AM 19.62 67.316 0.226 8.16 4.19 9.73
5/26/2022 11:45:00 AM 19.75 67.55 0.227 8.17 4.53 9.78
5/26/2022 12:00:00 PM 19.94 67.892 0.241 8.19 6.62 9.88
5/26/2022 12:15:00 PM 20.11 68.198 0.229 8.23 6.01 10.03
5/26/2022 12:30:00 PM 20.24 68.432 0.226 8.27 5.38 10.02
5/26/2022 12:45:00 PM 20.41 68.738 0.227 8.27 5.29 10.03
5/26/2022 1:00:00 PM 20.61 69.098 0.228 8.29 11.81 10.07
5/26/2022 1:15:00 PM 20.82 69.476 0.227 8.28 9.05 10.09
5/26/2022 1:30:00 PM 21.02 69.836 0.23 8.3 8.44 10.14
5/26/2022 1:45:00 PM 21.21 70.17799 0.227 8.32 6.36 10.12
5/26/2022 2:00:00 PM 21.46 70.628 0.23 8.33 7.16 10.24
5/26/2022 2:15:00 PM 21.63 70.934 0.228 8.29 11.44 10.14
5/26/2022 2:30:00 PM 21.79 71.222 0.228 8.34 8.55 10.13
5/26/2022 2:45:00 PM 21.96 71.528 0.227 8.33 11.02 10.08
5/26/2022 3:00:00 PM 22.12 71.816 0.228 8.34 6.23 10.21
5/26/2022 3:15:00 PM 22.29 72.122 0.231 8.39 6.17 10.4
5/26/2022 3:30:00 PM 22.45 72.41 0.227 8.36 5.86 10.27
5/26/2022 3:45:00 PM 22.6 72.68 0.227 8.34 5.45 10.11
5/26/2022 4:00:00 PM 22.72 72.896 0.228 8.37 5.38 10.28
5/26/2022 4:15:00 PM 22.78 73.004 0.228 8.37 11.57 10.21
5/26/2022 4:30:00 PM 22.73 72.914 0.228 8.38 9.07 10.22
5/26/2022 4:45:00 PM 22.63 72.734 0.229 8.37 10.06 10.25
5/26/2022 5:00:00 PM 22.35 72.23 0.229 8.31 31.38 10.13
5/26/2022 5:15:00 PM 22.09 71.762 0.229 8.32 14.43 10.08
5/26/2022 5:30:00 PM 21.75 71.15 0.23 8.32 10.09 10.04
5/26/2022 5:45:00 PM 21.52 70.736 0.228 8.32 8.22 10.02
5/26/2022 6:00:00 PM 21.4 70.52 0.229 8.29 7.92 9.83
5/26/2022 6:15:00 PM 21.32 70.376 0.228 8.28 7.29 9.88
5/26/2022 6:30:00 PM 21.25 70.25 0.228 8.28 7.15 9.88
5/26/2022 6:45:00 PM 21.19 70.142 0.229 8.27 7.73 9.81
5/26/2022 7:00:00 PM 21.08 69.944 0.228 8.26 6.68 9.76
5/26/2022 7:15:00 PM 20.97 69.746 0.23 8.2 6.74 9.69
5/26/2022 7:30:00 PM 20.85 69.53 0.229 8.2 5.71 9.65
5/26/2022 7:45:00 PM 20.73 69.314 0.229 8.16 6.98 9.54
5/26/2022 8:00:00 PM 20.62 69.116 0.229 8.13 4.47 9.46
5/26/2022 8:15:00 PM 20.51 68.918 0.229 8.12 4.22 9.39
5/26/2022 8:30:00 PM 20.43 68.774 0.23 8.04 33.2 9.27
5/26/2022 8:45:00 PM 20.36 68.648 0.23 8.01 9.1 9.14
5/26/2022 9:00:00 PM 20.3 68.54 0.23 8 7.78 9.12
5/26/2022 9:15:00 PM 20.25 68.45 0.23 7.98 6.66 9.05
5/26/2022 9:30:00 PM 20.21 68.378 0.231 7.94 6.56 8.99
5/26/2022 9:45:00 PM 20.16 68.288 0.23 7.92 4.89 8.96
5/26/2022 10:00:00 PM 20.12 68.216 0.231 7.89 5.13 8.9
5/26/2022 10:15:00 PM 18.63 65.534 0.248 7.08 19.32 8.25
5/26/2022 10:30:00 PM 19.29 66.722 0.242 7.33 8.57 8.45
5/26/2022 10:45:00 PM 19.62 67.316 0.238 7.47 6.56 8.41
5/26/2022 11:00:00 PM 19.81 67.658 0.235 7.6 6.91 8.49
5/26/2022 11:15:00 PM 19.92 67.856 0.233 7.74 7.23 8.61
5/26/2022 11:30:00 PM 19.92 67.856 0.232 7.75 5.8 8.57
5/26/2022 11:45:00 PM 19.91 67.838 0.232 7.74 5.23 8.55
5/27/2022 12:00:00 AM 19.89 67.802 0.232 7.74 5 8.52
5/27/2022 12:15:00 AM 19.87 67.766 0.232 7.73 5.52 8.47
5/27/2022 12:30:00 AM 19.86 67.748 0.234 7.72 5.07 8.45
5/27/2022 12:45:00 AM 19.85 67.73 0.235 7.7 5.34 8.39
5/27/2022 1:00:00 AM 19.83 67.694 0.242 7.69 6.14 8.36
5/27/2022 1:15:00 AM 19.85 67.73 0.236 7.68 5.05 8.28
5/27/2022 1:30:00 AM 19.85 67.73 0.234 7.67 5.59 8.27
5/27/2022 1:45:00 AM 19.81 67.658 0.246 7.67 5.98 8.29
5/27/2022 2:00:00 AM 19.83 67.694 0.243 7.66 7.71 8.21
5/27/2022 2:15:00 AM 19.85 67.73 0.24 7.68 5.84 8.3
5/27/2022 2:30:00 AM 19.89 67.802 0.238 7.66 6.12 8.28
5/27/2022 2:45:00 AM 19.86 67.748 0.245 7.65 5.48 8.15
5/27/2022 3:00:00 AM 19.8 67.64 0.261 7.61 6.59 8.06
5/27/2022 3:15:00 AM 18.81 65.858 0.262 7.15 12.63 7.78
5/27/2022 3:30:00 AM 18.98 66.164 0.263 7.14 13.67 7.5
5/27/2022 3:45:00 AM 19.37 66.866 0.253 7.32 7.72 7.79
5/27/2022 4:00:00 AM 18.27 64.886 0.269 6.96 23.26 7.44
5/27/2022 4:15:00 AM 18.38 65.084 0.262 7.01 30.62 7.72
5/27/2022 4:30:00 AM 18.89 66.002 0.257 7.12 12.25 7.69
5/27/2022 4:45:00 AM 19.32 66.776 0.248 7.25 9.33 7.63
5/27/2022 5:00:00 AM 19.45 67.01 0.249 7.29 9.43 7.49
5/27/2022 5:15:00 AM 19.62 67.316 0.251 7.38 6.75 7.59
5/27/2022 5:30:00 AM 19.67 67.406 0.258 7.42 7.43 7.59
5/27/2022 5:45:00 AM 19.71 67.478 0.263 7.43 8.18 7.46
5/27/2022 6:00:00 AM 19.74 67.532 0.272 7.46 9.3 7.5
5/27/2022 6:15:00 AM 19.64 67.352 0.291 7.41 8.62 7.26
5/27/2022 6:30:00 AM 19.8 67.64 0.267 7.5 6.2 7.43
5/27/2022 6:45:00 AM 19.87 67.766 0.258 7.53 5.86 7.61
5/27/2022 7:00:00 AM 19.89 67.802 0.258 7.52 5.52 7.58
5/27/2022 7:15:00 AM 19.91 67.838 0.266 7.54 7.27 7.41
5/27/2022 7:30:00 AM 19.95 67.91 0.257 7.53 7.32 7.58
5/27/2022 7:45:00 AM 19.96 67.92799 0.26 7.55 6.76 7.72
5/27/2022 8:00:00 AM 19.92 67.856 0.285 7.53 7 7.59
5/27/2022 8:15:00 AM 19.84 67.712 0.318 7.46 8.27 7.38
5/27/2022 8:30:00 AM 19.9 67.82 0.303 7.54 6.24 7.81
5/27/2022 8:45:00 AM 19.95 67.91 0.301 7.53 7.28 7.74
5/27/2022 9:00:00 AM 19.89 67.802 0.347 7.52 6.57 7.8
5/27/2022 9:15:00 AM 19.88 67.784 0.361 7.54 8.01 7.9
5/27/2022 9:30:00 AM 19.95 67.91 0.35 7.54 7 7.94
5/27/2022 9:45:00 AM 20.12 68.216 0.313 7.6 5.31 8.02
5/27/2022 10:00:00 AM 20.17 68.306 0.311 7.62 7.8 8.18
5/27/2022 10:15:00 AM 20.13 68.234 0.343 7.55 5.9 7.94
5/27/2022 10:30:00 AM 20.51 68.918 0.258 7.84 5.07 8.76
5/27/2022 10:45:00 AM 20.56 69.008 0.257 7.77 7.28 8.62
5/27/2022 11:00:00 AM 20.49 68.882 0.303 7.79 5.05 8.72
5/27/2022 11:15:00 AM 20.44 68.792 0.337 7.76 7.66 8.87
5/27/2022 11:30:00 AM 20.43 68.774 0.355 7.78 5.8 8.95
5/27/2022 11:45:00 AM 20.51 68.918 0.351 7.84 7.26 9.21
5/27/2022 12:00:00 PM 20.63 69.134 0.308 7.81 6.58 8.85
5/27/2022 12:15:00 PM 20.65 69.17 0.324 7.84 6.33 9.09
5/27/2022 12:30:00 PM 20.72 69.296 0.307 7.91 6.22 9.12
5/27/2022 12:45:00 PM 20.77 69.386 0.309 7.93 5.97 9.27
5/27/2022 1:00:00 PM 20.83 69.494 0.311 8.01 7.15 9.75
5/27/2022 1:15:00 PM 20.92 69.656 0.323 8.05 4.86 9.71
5/27/2022 1:30:00 PM 21.02 69.836 0.294 8.05 5.43 9.64
5/27/2022 1:45:00 PM 21.04 69.872 0.285 8.07 5.86 9.51
5/27/2022 2:00:00 PM 21.06 69.908 0.346 8.07 7.08 9.73
5/27/2022 2:15:00 PM 21.14 70.052 0.32 8.09 6.09 9.66
5/27/2022 2:30:00 PM 21.18 70.124 0.332 8.12 9 9.9
5/27/2022 2:45:00 PM 21.18 70.124 0.348 8.09 12.05 9.94
5/27/2022 3:00:00 PM 21.18 70.124 0.273 8.07 7.51 9.26
5/27/2022 3:15:00 PM 21.14 70.052 0.297 8.12 7.05 9.56
5/27/2022 3:30:00 PM 21.09 69.962 0.257 8.12 6.44 9.29
5/27/2022 3:45:00 PM 21.03 69.854 0.258 8.06 6.2 9.35
5/27/2022 4:00:00 PM 20.96 69.728 0.238 8.09 6 9.23
5/27/2022 4:15:00 PM 20.89 69.602 0.271 8.02 6.44 9.21
5/27/2022 4:30:00 PM 20.84 69.512 0.271 8.02 8.95 9.11
5/27/2022 4:45:00 PM 20.8 69.44 0.287 7.99 7.76 9.05
5/27/2022 5:00:00 PM 20.76 69.368 0.308 7.98 8.48 9.13
5/27/2022 5:15:00 PM 20.77 69.386 0.291 8 10.02 9.15
5/27/2022 5:30:00 PM 20.72 69.296 0.352 7.97 9.38 9.29
5/27/2022 5:45:00 PM 20.71 69.278 0.347 7.95 7.09 9.21
5/27/2022 6:00:00 PM 20.73 69.314 0.324 7.97 7.78 9.2
5/27/2022 6:15:00 PM 20.72 69.296 0.334 8.01 7.84 9.4
5/27/2022 6:30:00 PM 20.68 69.224 0.342 7.93 6.87 9.09
5/27/2022 6:45:00 PM 20.69 69.242 0.28 8 5.98 9.21
5/27/2022 7:00:00 PM 20.64 69.152 0.3 7.96 5.57 9.22
5/27/2022 7:15:00 PM 20.62 69.116 0.275 8.02 4.93 9.25
5/27/2022 7:30:00 PM 20.52 68.936 0.302 7.93 12.25 9.11
5/27/2022 7:45:00 PM 20.47 68.846 0.32 7.86 14.18 8.81
5/27/2022 8:00:00 PM 20.4 68.72 0.304 7.9 12.39 8.93
5/27/2022 8:15:00 PM 20.36 68.648 0.266 7.93 6.74 9.04
5/27/2022 8:30:00 PM 20.29 68.522 0.241 7.94 4.51 8.99
5/27/2022 8:45:00 PM 20.22 68.396 0.241 7.89 10.19 8.86
5/27/2022 9:00:00 PM 20.14 68.252 0.236 7.89 7.29 8.87
5/27/2022 9:15:00 PM 20.07 68.126 0.237 7.87 8.15 8.76
5/27/2022 9:30:00 PM 20.02 68.036 0.25 7.82 10.61 8.58
5/27/2022 9:45:00 PM 19.89 67.802 0.309 7.72 14.03 8.34
5/27/2022 10:00:00 PM 19.85 67.73 0.298 7.72 9.09 8.33
5/27/2022 10:15:00 PM 17.77 63.986 0.266 6.92 23.76 7.67
5/27/2022 10:30:00 PM 18.94 66.092 0.25 7.27 11 8.11
5/27/2022 10:45:00 PM 19.03 66.254 0.273 7.24 10.25 7.91
5/27/2022 11:00:00 PM 19.48 67.064 0.247 7.5 9.78 8.21
5/27/2022 11:15:00 PM 19.45 67.01 0.258 7.43 16.92 7.87
5/27/2022 11:30:00 PM 19.4 66.92 0.293 7.42 20.73 7.64
5/27/2022 11:45:00 PM 19.48 67.064 0.261 7.43 11.97 7.67
5/28/2022 12:00:00 AM 19.48 67.064 0.268 7.46 10.75 7.73
5/28/2022 12:15:00 AM 19.34 66.812 0.325 7.5 15.56 7.75
5/28/2022 12:30:00 AM 19.37 66.866 0.303 7.49 12.44 7.69
5/28/2022 12:45:00 AM 19.34 66.812 0.311 7.46 10.02 7.5
5/28/2022 1:00:00 AM 19.28 66.704 0.318 7.49 10.53 7.75
5/28/2022 1:15:00 AM 19.33 66.794 0.292 7.5 12.77 7.63
5/28/2022 1:30:00 AM 19.33 66.794 0.288 7.44 8.97 7.37
5/28/2022 1:45:00 AM 19.33 66.794 0.266 7.51 10.96 7.72
5/28/2022 2:00:00 AM 19.31 66.758 0.265 7.54 7.73 7.82
5/28/2022 2:15:00 AM 19.29 66.722 0.268 7.54 7.18 7.82
5/28/2022 2:30:00 AM 19.24 66.632 0.274 7.54 9.94 7.89
5/28/2022 2:45:00 AM 19.23 66.614 0.284 7.49 15.82 7.52
5/28/2022 3:00:00 AM 19.24 66.632 0.266 7.49 13.83 7.71
5/28/2022 3:15:00 AM 19.09 66.362 0.299 7.47 8.38 7.6
5/28/2022 3:30:00 AM 19.15 66.47 0.276 7.47 17.87 7.53
5/28/2022 3:45:00 AM 19 66.2 0.345 7.41 9.12 7.23
5/28/2022 4:00:00 AM 19.11 66.398 0.266 7.47 8.32 7.63
5/28/2022 4:15:00 AM 19.01 66.218 0.284 7.41 397.56 7.51
5/28/2022 4:30:00 AM 19.08 66.344 0.263 7.36 86.67 7.22
5/28/2022 4:45:00 AM 18.95 66.11 0.313 7.34 44.22 7.01
5/28/2022 5:00:00 AM 18.88 65.984 0.336 7.33 25.15 6.91
5/28/2022 5:15:00 AM 18.99 66.182 0.277 7.29 34.47 6.64
5/28/2022 5:30:00 AM 19.08 66.344 0.245 7.38 49.47 7.43
5/28/2022 5:45:00 AM 19.08 66.344 0.254 7.3 55.12 6.77
5/28/2022 6:00:00 AM 19.09 66.362 0.251 7.35 23.11 6.96
5/28/2022 6:15:00 AM 19.03 66.254 0.262 7.37 18.35 7.15
5/28/2022 6:30:00 AM 19.07 66.326 0.256 7.38 19.91 7.17
5/28/2022 6:45:00 AM 19.1 66.38 0.252 7.45 16.57 7.39
5/28/2022 7:00:00 AM 19.06 66.308 0.275 7.47 14.7 7.68
5/28/2022 7:15:00 AM 18.95 66.11 0.321 7.43 13.58 7.37
5/28/2022 7:30:00 AM 19.11 66.398 0.262 7.42 12.56 7.35
5/28/2022 7:45:00 AM 19.17 66.506 0.252 7.43 8.66 7.49
5/28/2022 8:00:00 AM 19.05 66.29 0.303 7.44 10.91 7.55
5/28/2022 8:15:00 AM 19.05 66.29 0.324 7.4 11.16 7.36
5/28/2022 8:30:00 AM 19.12 66.416 0.291 7.36 13.45 7.23
5/28/2022 8:45:00 AM 19.12 66.416 0.294 7.38 10.1 7.44
5/28/2022 9:00:00 AM 19.13 66.434 0.315 7.36 17.84 7.22
5/28/2022 9:15:00 AM 19.25 66.65 0.299 7.41 13.66 7.72
5/28/2022 9:30:00 AM 19.37 66.866 0.276 7.49 9.75 8.04
5/28/2022 9:45:00 AM 19.43 66.974 0.265 7.42 12.33 7.67
5/28/2022 10:00:00 AM 19.45 67.01 0.275 7.45 10.56 7.9
5/28/2022 10:15:00 AM 19.52 67.136 0.27 7.5 10.39 7.94
5/28/2022 10:30:00 AM 19.54 67.172 0.288 7.48 13.57 8.13
5/28/2022 10:45:00 AM 19.67 67.406 0.266 7.51 9.6 8.15
5/28/2022 11:00:00 AM 19.7 67.46 0.296 7.67 10.5 8.93
5/28/2022 11:15:00 AM 19.79 67.622 0.264 7.57 10.03 8.54
5/28/2022 11:30:00 AM 19.93 67.874 0.257 7.69 8.85 8.88
5/28/2022 11:45:00 AM 20.14 68.252 0.246 7.79 8.41 9.1
5/28/2022 12:00:00 PM 20.21 68.378 0.268 7.94 6.72 9.79
5/28/2022 12:15:00 PM 20.31 68.558 0.258 7.96 6.12 9.75
5/28/2022 12:30:00 PM 20.54 68.972 0.244 7.93 7.16 9.55
5/28/2022 12:45:00 PM 20.83 69.494 0.242 7.98 6.69 9.61
5/28/2022 1:00:00 PM 21.05 69.89 0.242 7.95 6.68 9.68
5/28/2022 1:15:00 PM 21.23 70.214 0.247 8.07 6.41 10.05
5/28/2022 1:30:00 PM 21.29 70.32201 0.247 7.99 6.37 9.64
5/28/2022 1:45:00 PM 21.37 70.466 0.242 7.96 8.86 9.4
5/28/2022 2:00:00 PM 21.41 70.538 0.256 8.04 5.94 9.72
5/28/2022 2:15:00 PM 21.48 70.664 0.242 7.97 8.17 9.47
5/28/2022 2:30:00 PM 21.56 70.808 0.247 8.06 6.94 9.75
5/28/2022 2:45:00 PM 21.57 70.826 0.24 8.08 6.11 9.59
5/28/2022 3:00:00 PM 21.55 70.79 0.233 8.09 5.06 9.74
5/28/2022 3:15:00 PM 21.51 70.718 0.233 8.1 7.27 9.72
5/28/2022 3:30:00 PM 21.47 70.646 0.233 8.1 5.44 9.68
5/28/2022 3:45:00 PM 21.38 70.484 0.233 8.05 5.36 9.42
5/28/2022 4:00:00 PM 21.3 70.34 0.262 8.09 6.52 9.63
5/28/2022 4:15:00 PM 21.14 70.052 0.234 8.06 17.08 9.52
5/28/2022 4:30:00 PM 21.19 70.142 0.233 8.08 5.34 9.53
5/28/2022 4:45:00 PM 21.22 70.196 0.233 8.09 5.06 9.57
5/28/2022 5:00:00 PM 21.18 70.124 0.234 8.06 5.45 9.29
5/28/2022 5:15:00 PM 21.06 69.908 0.232 8.08 4.55 9.49
5/28/2022 5:30:00 PM 21.02 69.836 0.239 8.1 5.7 9.49
5/28/2022 5:45:00 PM 20.99 69.782 0.234 8.07 4.19 9.5
5/28/2022 6:00:00 PM 20.94 69.692 0.252 8.07 5.3 9.47
5/28/2022 6:15:00 PM 20.92 69.656 0.25 8.06 6.77 9.33
5/28/2022 6:30:00 PM 20.86 69.548 0.238 8.08 6.82 9.51
5/28/2022 6:45:00 PM 20.88 69.584 0.311 8.07 7.53 9.62
5/28/2022 7:00:00 PM 20.81 69.458 0.262 8.1 6.8 9.61
5/28/2022 7:15:00 PM 20.68 69.224 0.237 8.07 4.79 9.4
5/28/2022 7:30:00 PM 20.58 69.044 0.244 8.02 5.61 9.36
5/28/2022 7:45:00 PM 20.47 68.846 0.235 8.02 4.22 9.21
5/28/2022 8:00:00 PM 20.38 68.684 0.235 7.93 18.08 9.11
5/28/2022 8:15:00 PM 20.28 68.504 0.237 7.91 7.81 8.88
5/28/2022 8:30:00 PM 18.65 65.57 0.272 7.01 30.15 8.21
5/28/2022 8:45:00 PM 19.33 66.794 0.257 7.3 25.13 8.45
5/28/2022 9:00:00 PM 19.62 67.316 0.258 7.5 12 8.67
5/28/2022 9:15:00 PM 19.7 67.46 0.254 7.56 13.92 8.57
5/28/2022 9:30:00 PM 19.7 67.46 0.247 7.57 9.32 8.4
5/28/2022 9:45:00 PM 19.66 67.388 0.248 7.66 7.86 8.49
5/28/2022 10:00:00 PM 19.58 67.244 0.249 7.75 10.27 8.69
5/28/2022 10:15:00 PM 19.45 67.01 0.275 7.75 8.14 8.62
5/28/2022 10:30:00 PM 19.43 66.974 0.269 7.66 13.49 8.21
5/28/2022 10:45:00 PM 19.35 66.83 0.263 7.7 8.93 8.4
5/28/2022 11:00:00 PM 19.31 66.758 0.279 7.67 9.35 8.28
5/28/2022 11:15:00 PM 19.2 66.56 0.265 7.66 8.52 8.24
5/28/2022 11:30:00 PM 19.14 66.452 0.262 7.64 15.54 8.21
5/28/2022 11:45:00 PM 19.08 66.344 0.267 7.62 13.5 8.07
5/29/2022 12:00:00 AM 19.06 66.308 0.246 7.64 8.22 8.02
5/29/2022 12:15:00 AM 18.86 65.948 0.284 7.62 8.32 8.15
5/29/2022 12:30:00 AM 18.91 66.038 0.258 7.61 6.04 7.99
5/29/2022 12:45:00 AM 18.86 65.948 0.25 7.6 6.29 8.03
5/29/2022 1:00:00 AM 18.72 65.696 0.275 7.58 7.99 8.05
5/29/2022 1:15:00 AM 18.74 65.732 0.253 7.54 18.25 7.81
5/29/2022 1:30:00 AM 18.64 65.552 0.265 7.58 11.39 7.93
5/29/2022 1:45:00 AM 18.64 65.552 0.247 7.56 7.33 7.88
5/29/2022 2:00:00 AM 18.6 65.48 0.25 7.58 5.84 8.03
5/29/2022 2:15:00 AM 18.58 65.444 0.243 7.55 7.04 7.89
5/29/2022 2:30:00 AM 18.47 65.246 0.248 7.38 136.29 7.56
5/29/2022 2:45:00 AM 18.49 65.282 0.241 7.4 50.27 7.41
5/29/2022 3:00:00 AM 18.48 65.264 0.243 7.37 46.59 7.14
5/29/2022 3:15:00 AM 18.4 65.12 0.255 7.45 21.39 7.62
5/29/2022 3:30:00 AM 18.4 65.12 0.249 7.45 14.09 7.51
5/29/2022 3:45:00 AM 18.37 65.066 0.247 7.46 10.27 7.55
5/29/2022 4:00:00 AM 18.35 65.03 0.251 7.49 10.44 7.66
5/29/2022 4:15:00 AM 18.34 65.012 0.247 7.5 13.22 7.78
5/29/2022 4:30:00 AM 18.3 64.94 0.254 7.48 10.6 7.65
5/29/2022 4:45:00 AM 18.24 64.832 0.262 7.48 18.48 7.67
5/29/2022 5:00:00 AM 18.23 64.814 0.248 7.44 23.34 7.47
5/29/2022 5:15:00 AM 18.22 64.796 0.257 7.4 23.66 7.28
5/29/2022 5:30:00 AM 18.17 64.706 0.267 7.41 15.27 7.29
5/29/2022 5:45:00 AM 18.19 64.742 0.254 7.38 19.02 6.98
5/29/2022 6:00:00 AM 18.22 64.796 0.247 7.41 9.55 7.17
5/29/2022 6:15:00 AM 18.21 64.778 0.253 7.42 9.77 7.39
5/29/2022 6:30:00 AM 18.19 64.742 0.253 7.4 13.23 7.31
5/29/2022 6:45:00 AM 18.19 64.742 0.252 7.43 8.6 7.44
5/29/2022 7:00:00 AM 18.18 64.724 0.254 7.45 11.95 7.62
5/29/2022 7:15:00 AM 18.21 64.778 0.243 7.44 9.55 7.62
5/29/2022 7:30:00 AM 18.24 64.832 0.243 7.41 6.75 7.41
5/29/2022 7:45:00 AM 18.24 64.832 0.25 7.44 7.79 7.59
5/29/2022 8:00:00 AM 18.27 64.886 0.247 7.45 7.23 7.67
5/29/2022 8:15:00 AM 18.31 64.958 0.243 7.46 9.64 7.65
5/29/2022 8:30:00 AM 18.36 65.048 0.247 7.48 8.8 8.06
5/29/2022 8:45:00 AM 18.38 65.084 0.254 7.49 8.33 7.94
5/29/2022 9:00:00 AM 18.36 65.048 0.277 7.53 10.11 8.15
5/29/2022 9:15:00 AM 18.48 65.264 0.254 7.52 9.17 8.02
5/29/2022 9:30:00 AM 18.59 65.462 0.247 7.55 9.52 8.21
5/29/2022 9:45:00 AM 18.64 65.552 0.25 7.55 7.54 8.37
5/29/2022 10:00:00 AM 18.75 65.75 0.249 7.57 11.3 8.48
5/29/2022 10:15:00 AM 18.84 65.912 0.244 7.55 6.89 8.33
5/29/2022 10:30:00 AM 19.01 66.218 0.245 7.65 5.77 8.82
5/29/2022 10:45:00 AM 19.15 66.47 0.244 7.68 5.44 8.89
5/29/2022 11:00:00 AM 19.29 66.722 0.242 7.65 8.21 8.62
5/29/2022 11:15:00 AM 19.5 67.1 0.243 7.68 7.8 8.79
5/29/2022 11:30:00 AM 19.68 67.424 0.248 7.67 6.69 8.71
5/29/2022 11:45:00 AM 20.04 68.07201 0.248 7.75 6.33 9.09
5/29/2022 12:00:00 PM 20.45 68.81 0.257 7.74 19.7 9.19
5/29/2022 12:15:00 PM 20.72 69.296 0.249 7.74 16.2 9.23
5/29/2022 12:30:00 PM 21.01 69.818 0.257 7.85 12.03 9.29
5/29/2022 12:45:00 PM 21.17 70.106 0.255 7.81 11.34 9.3
5/29/2022 1:00:00 PM 21.45 70.61 0.261 7.8 8.84 9.27
5/29/2022 1:15:00 PM 21.72 71.096 0.257 7.78 11.03 9.38
5/29/2022 1:30:00 PM 22.03 71.654 0.254 7.75 7.45 9.29
5/29/2022 1:45:00 PM 22.28 72.104 0.253 7.85 7.33 9.67
5/29/2022 2:00:00 PM 22.52 72.536 0.254 7.88 7.05 9.79
5/29/2022 2:15:00 PM 22.74 72.932 0.253 7.94 6.47 9.95
5/29/2022 2:30:00 PM 22.93 73.274 0.252 8.01 5.58 9.92
5/29/2022 2:45:00 PM 23.04 73.472 0.251 7.96 6.81 9.82
5/29/2022 3:00:00 PM 23.2 73.76 0.249 8.01 9.29 9.99
5/29/2022 3:15:00 PM 23.37 74.066 0.249 7.95 5.73 9.8
5/29/2022 3:30:00 PM 23.6 74.48 0.253 8.05 6.41 9.95
5/29/2022 3:45:00 PM 23.69 74.642 0.253 8.1 6.1 10.05
5/29/2022 4:00:00 PM 23.82 74.876 0.254 8.05 6.04 10.01
5/29/2022 4:15:00 PM 24.02 75.236 0.25 7.85 112.59 9.69
5/29/2022 4:30:00 PM 23.99 75.182 0.251 7.75 77.59 9.26
5/29/2022 4:45:00 PM 23.98 75.164 0.251 7.74 54.77 9.06
5/29/2022 5:00:00 PM 23.93 75.074 0.252 7.68 37.57 8.73
5/29/2022 5:15:00 PM 23.86 74.948 0.25 7.97 23.81 9.48
5/29/2022 5:30:00 PM 23.92 75.056 0.256 7.89 21.47 9.19
5/29/2022 5:45:00 PM 23.93 75.074 0.258 7.94 17.96 9.51
5/29/2022 6:00:00 PM 23.89 75.002 0.269 7.93 16.22 9.29
5/29/2022 6:15:00 PM 23.87 74.966 0.279 7.94 13.02 9.34
5/29/2022 6:30:00 PM 23.8 74.84 0.278 7.98 13.67 9.44
5/29/2022 6:45:00 PM 23.74 74.732 0.276 7.98 11.36 9.29
5/29/2022 7:00:00 PM 23.61 74.498 0.27 8.11 8.6 9.75
5/29/2022 7:15:00 PM 23.44 74.192 0.279 8.13 9.19 9.77
5/29/2022 7:30:00 PM 23.31 73.958 0.274 8.12 12.45 9.67
5/29/2022 7:45:00 PM 23.12 73.616 0.26 8.16 7.21 9.74
5/29/2022 8:00:00 PM 22.99 73.382 0.263 8.15 6.89 9.67
5/29/2022 8:15:00 PM 22.79 73.022 0.271 8.1 8.67 9.48
5/29/2022 8:30:00 PM 22.61 72.698 0.275 8.07 14.46 9.44
5/29/2022 8:45:00 PM 20.04 68.07201 0.305 6.92 42.89 8.15
5/29/2022 9:00:00 PM 21.6 70.88 0.271 7.44 15.13 8.77
5/29/2022 9:15:00 PM 21.5 70.7 0.269 7.38 26.32 8.39
5/29/2022 9:30:00 PM 21.44 70.592 0.276 7.4 18.48 8.48
5/29/2022 9:45:00 PM 21.45 70.61 0.266 7.44 7.61 8.26
5/29/2022 10:00:00 PM 21.39 70.502 0.255 7.51 9.47 8.18
5/29/2022 10:15:00 PM 21.27 70.286 0.258 7.55 12.31 8.38
5/29/2022 10:30:00 PM 21.18 70.124 0.25 7.55 26.08 8.27
5/29/2022 10:45:00 PM 21.09 69.962 0.281 7.58 18.69 8.27
5/29/2022 11:00:00 PM 20.91 69.638 0.268 7.51 9.03 8
5/29/2022 11:15:00 PM 20.82 69.476 0.275 7.45 12.35 7.82
5/29/2022 11:30:00 PM 20.69 69.242 0.275 7.64 8.91 8.28
5/29/2022 11:45:00 PM 20.63 69.134 0.273 7.64 8.71 8.18
5/30/2022 12:00:00 AM 20.52 68.936 0.301 7.63 10.31 8.11
5/30/2022 12:15:00 AM 20.4 68.72 0.26 7.64 8.85 8.16
5/30/2022 12:30:00 AM 20.31 68.558 0.284 7.63 39.97 8.16
5/30/2022 12:45:00 AM 20.22 68.396 0.268 7.64 9.63 8.19
5/30/2022 1:00:00 AM 20.12 68.216 0.281 7.62 9.44 7.97
5/30/2022 1:15:00 AM 20.05 68.09 0.277 7.6 8.16 7.93
5/30/2022 1:30:00 AM 19.95 67.91 0.28 7.6 9.82 8.06
5/30/2022 1:45:00 AM 19.87 67.766 0.275 7.6 17.59 8.02
5/30/2022 2:00:00 AM 19.81 67.658 0.279 7.58 8.22 7.93
5/30/2022 2:15:00 AM 19.74 67.532 0.277 7.55 9.01 7.72
5/30/2022 2:30:00 AM 19.68 67.424 0.271 7.51 8.68 7.59
5/30/2022 2:45:00 AM 19.64 67.352 0.264 7.45 35.16 7.54
5/30/2022 3:00:00 AM 19.6 67.28 0.257 7.38 30.84 7.16
5/30/2022 3:15:00 AM 19.48 67.064 0.25 7.29 150.96 7.17
5/30/2022 3:30:00 AM 19.41 66.938 0.251 7.42 18.03 7.33
5/30/2022 3:45:00 AM 19.36 66.848 0.253 7.45 12.01 7.43
5/30/2022 4:00:00 AM 19.33 66.794 0.25 7.44 23.17 7.34
5/30/2022 4:15:00 AM 19.26 66.668 0.248 7.44 9.68 7.52
5/30/2022 4:30:00 AM 19.25 66.65 0.251 7.44 15.07 7.39
5/30/2022 4:45:00 AM 19.22 66.596 0.251 7.45 9.28 7.48
5/30/2022 5:00:00 AM 19.19 66.542 0.253 7.41 10.82 7.37
5/30/2022 5:15:00 AM 19.19 66.542 0.256 7.46 9.69 7.51
5/30/2022 5:30:00 AM 19.15 66.47 0.255 7.44 27.62 7.47
5/30/2022 5:45:00 AM 19.11 66.398 0.253 7.42 12.09 7.27
5/30/2022 6:00:00 AM 19.11 66.398 0.252 7.43 11.11 7.45
5/30/2022 6:15:00 AM 19.09 66.362 0.252 7.45 10.9 7.53
5/30/2022 6:30:00 AM 19.09 66.362 0.252 7.43 9.78 7.39
5/30/2022 6:45:00 AM 19.13 66.434 0.254 7.43 8.83 7.46
5/30/2022 7:00:00 AM 19.15 66.47 0.252 7.43 7.82 7.49
5/30/2022 7:15:00 AM 19.15 66.47 0.251 7.42 7.04 7.35
5/30/2022 7:30:00 AM 19.16 66.488 0.25 7.42 7.18 7.48
5/30/2022 7:45:00 AM 19.22 66.596 0.252 7.48 10.24 7.72
5/30/2022 8:00:00 AM 19.24 66.632 0.251 7.45 10.02 7.61
5/30/2022 8:15:00 AM 19.28 66.704 0.251 7.45 6.18 7.57
5/30/2022 8:30:00 AM 19.35 66.83 0.25 7.46 12.2 7.76
5/30/2022 8:45:00 AM 19.42 66.956 0.251 7.43 32.02 7.76
5/30/2022 9:00:00 AM 19.57 67.226 0.252 7.51 8.98 8.04
5/30/2022 9:15:00 AM 19.66 67.388 0.252 7.52 7.11 8.1
5/30/2022 9:30:00 AM 19.76 67.568 0.255 7.57 9.54 8.32
5/30/2022 9:45:00 AM 19.81 67.658 0.251 7.51 6.16 8.17
5/30/2022 10:00:00 AM 19.86 67.748 0.251 7.51 7.22 8.09
5/30/2022 10:15:00 AM 20.01 68.018 0.25 7.58 6.44 8.52
5/30/2022 10:30:00 AM 20.18 68.324 0.252 7.62 7.15 8.58
5/30/2022 10:45:00 AM 20.34 68.612 0.254 7.65 9.07 8.64
5/30/2022 11:00:00 AM 20.44 68.792 0.254 7.66 7.51 8.74
5/30/2022 11:15:00 AM 20.55 68.99 0.255 7.68 8.22 8.65
5/30/2022 11:30:00 AM 20.74 69.332 0.257 7.75 8.39 9.02
5/30/2022 11:45:00 AM 20.95 69.71 0.259 7.77 6.82 9
5/30/2022 12:00:00 PM 21.2 70.16 0.261 7.81 9.32 9.23
5/30/2022 12:15:00 PM 21.45 70.61 0.261 7.89 7.6 9.45
5/30/2022 12:30:00 PM 21.77 71.186 0.257 7.86 7.3 9.34
5/30/2022 12:45:00 PM 22.2 71.96 0.263 7.95 6.14 9.68
5/30/2022 1:00:00 PM 22.51 72.518 0.271 7.95 6.74 9.65
5/30/2022 1:15:00 PM 22.79 73.022 0.274 7.94 6.77 9.76
5/30/2022 1:30:00 PM 23.02 73.436 0.273 7.94 9.32 9.81
5/30/2022 1:45:00 PM 23.3 73.94 0.275 8.01 6.51 9.86
5/30/2022 2:00:00 PM 23.55 74.39 0.27 8.05 7.63 9.99
5/30/2022 2:15:00 PM 23.79 74.82201 0.269 8 6.57 9.86
5/30/2022 2:30:00 PM 23.98 75.164 0.267 8.03 7.97 10.1
5/30/2022 2:45:00 PM 24.23 75.614 0.261 8.07 7.05 10.13
5/30/2022 3:00:00 PM 24.42 75.956 0.259 8.13 7.21 10.25
5/30/2022 3:15:00 PM 24.6 76.28 0.256 8.13 6.53 10.11
5/30/2022 3:30:00 PM 24.75 76.55 0.256 8.13 6.54 10.39
5/30/2022 3:45:00 PM 24.93 76.874 0.255 8.1 7.71 10.04
5/30/2022 4:00:00 PM 25.09 77.162 0.254 8.2 6.75 10.47
5/30/2022 4:15:00 PM 25.19 77.342 0.252 8.23 7.86 10.25
5/30/2022 4:30:00 PM 25.28 77.504 0.252 8.25 6.94 10.62
5/30/2022 4:45:00 PM 25.39 77.702 0.253 8.25 6.18 10.29
5/30/2022 5:00:00 PM 25.46 77.828 0.261 8.24 10.87 10.32
5/30/2022 5:15:00 PM 25.5 77.9 0.26 8.3 9.93 10.36
5/30/2022 5:30:00 PM 25.47 77.846 0.258 8.28 8.54 10.3
5/30/2022 5:45:00 PM 25.44 77.792 0.267 8.23 11.74 10.07
5/30/2022 6:00:00 PM 25.39 77.702 0.279 8.29 11.49 10.23
5/30/2022 6:15:00 PM 25.32 77.576 0.279 8.29 8.44 10.18
5/30/2022 6:30:00 PM 25.18 77.324 0.268 8.32 9.58 10.16
5/30/2022 6:45:00 PM 24.99 76.982 0.257 8.34 6.45 10.17
5/30/2022 7:00:00 PM 24.87 76.766 0.281 8.3 8.78 10.05
5/30/2022 7:15:00 PM 24.76 76.568 0.277 8.28 8.63 9.91
5/30/2022 7:30:00 PM 24.62 76.316 0.293 8.2 9.2 9.66
5/30/2022 7:45:00 PM 24.41 75.938 0.271 8.24 9.66 9.76
5/30/2022 8:00:00 PM 24.21 75.578 0.264 8.23 6.73 9.71
5/30/2022 8:15:00 PM 24.03 75.254 0.253 8.13 6.31 9.39
5/30/2022 8:30:00 PM 23.81 74.858 0.255 8.08 10.66 9.26
5/30/2022 8:45:00 PM 23.65 74.57 0.251 8.01 7.3 9.13
5/30/2022 9:00:00 PM 23.49 74.282 0.263 7.97 11.48 8.91
5/30/2022 9:15:00 PM 23.31 73.958 0.252 7.92 8.82 8.83
5/30/2022 9:30:00 PM 23.12 73.616 0.269 7.96 16.83 8.87
5/30/2022 9:45:00 PM 23 73.4 0.261 7.85 28.71 8.71
5/30/2022 10:00:00 PM 22.82 73.076 0.306 7.81 19.1 8.4
5/30/2022 10:15:00 PM 20.22 68.396 0.298 6.96 38.65 7.67
5/30/2022 10:30:00 PM 21.02 69.836 0.285 7.1 29.7 7.74
5/30/2022 10:45:00 PM 21.52 70.736 0.276 7.26 18.23 7.68
5/30/2022 11:00:00 PM 21.8 71.24 0.257 7.44 36.49 7.92
5/30/2022 11:15:00 PM 21.66 70.988 0.285 7.38 16.99 7.69
5/30/2022 11:30:00 PM 21.77 71.186 0.261 7.58 10.17 7.94
5/30/2022 11:45:00 PM 21.7 71.06 0.254 7.57 8.59 7.97
5/31/2022 12:00:00 AM 21.62 70.916 0.253 7.62 16.95 8.05
5/31/2022 12:15:00 AM 21.53 70.754 0.25 7.6 10.36 7.88
5/31/2022 12:30:00 AM 21.42 70.556 0.259 7.67 9.49 8.23
5/31/2022 12:45:00 AM 21.35 70.43 0.25 7.63 10.05 8.05
5/31/2022 1:00:00 AM 21.25 70.25 0.271 7.64 7.56 8.14
5/31/2022 1:15:00 AM 21.17 70.106 0.276 7.6 9.2 7.95
5/31/2022 1:30:00 AM 21.12 70.016 0.265 7.63 12.07 7.97
5/31/2022 1:45:00 AM 21.05 69.89 0.26 7.61 9.05 8.03
5/31/2022 2:00:00 AM 21 69.8 0.267 7.6 10.81 7.88
5/31/2022 2:15:00 AM 20.95 69.71 0.262 7.61 11.93 8.01
5/31/2022 2:30:00 AM 20.81 69.458 0.289 7.59 13.09 7.89
5/31/2022 2:45:00 AM 20.81 69.458 0.273 7.57 8.62 7.92
5/31/2022 3:00:00 AM 20.79 69.422 0.268 7.57 9.28 7.78
5/31/2022 3:15:00 AM 20.74 69.332 0.267 7.54 8.8 7.69
5/31/2022 3:30:00 AM 20.72 69.296 0.26 7.56 9.35 7.82
5/31/2022 3:45:00 AM 20.66 69.188 0.273 7.56 11.05 7.84
5/31/2022 4:00:00 AM 20.65 69.17 0.271 7.52 9.02 7.5
5/31/2022 4:15:00 AM 20.63 69.134 0.269 7.52 12.3 7.67
5/31/2022 4:30:00 AM 20.58 69.044 0.273 7.49 10.67 7.5
5/31/2022 4:45:00 AM 20.55 68.99 0.275 7.49 8.72 7.42
5/31/2022 5:00:00 AM 20.57 69.026 0.262 7.51 10.5 7.63
5/31/2022 5:15:00 AM 20.57 69.026 0.26 7.51 10.48 7.64
5/31/2022 5:30:00 AM 20.53 68.954 0.256 7.44 89.49 7.37
5/31/2022 5:45:00 AM 20.53 68.954 0.261 7.42 61.93 7.26
5/31/2022 6:00:00 AM 20.5 68.9 0.267 7.43 17.29 7.2
5/31/2022 6:15:00 AM 20.52 68.936 0.261 7.47 12.98 7.47
5/31/2022 6:30:00 AM 20.46 68.828 0.275 7.45 20.71 7.4
5/31/2022 6:45:00 AM 20.48 68.864 0.272 7.41 13.77 7.15
5/31/2022 7:00:00 AM 20.52 68.936 0.26 7.45 10.97 7.28
5/31/2022 7:15:00 AM 20.45 68.81 0.307 7.4 22.8 7.1
5/31/2022 7:30:00 AM 20.52 68.936 0.269 7.44 12.07 7.29
5/31/2022 7:45:00 AM 20.57 69.026 0.262 7.41 12.07 7.02
5/31/2022 8:00:00 AM 20.55 68.99 0.269 7.29 13.32 6.27
5/31/2022 8:15:00 AM 20.65 69.17 0.257 7.43 11.16 7.13
5/31/2022 8:30:00 AM 20.69 69.242 0.263 7.42 9.91 7.1
5/31/2022 8:45:00 AM 20.75 69.35 0.257 7.44 11.08 7.5
5/31/2022 9:00:00 AM 20.82 69.476 0.26 7.47 12.21 7.35
5/31/2022 9:15:00 AM 20.94 69.692 0.259 7.51 9.76 7.52
5/31/2022 9:30:00 AM 21.07 69.926 0.255 7.51 8.82 7.77
5/31/2022 9:45:00 AM 21.24 70.232 0.255 7.56 9.19 8.1
5/31/2022 10:00:00 AM 21.39 70.502 0.253 7.57 7.73 8.04
5/31/2022 10:15:00 AM 21.6 70.88 0.256 7.63 6.76 8.12
5/31/2022 10:30:00 AM 21.83 71.294 0.257 7.67 5.42 8.34
5/31/2022 10:45:00 AM 22.06 71.708 0.26 7.72 6.05 8.49
5/31/2022 11:00:00 AM 22.22 71.996 0.258 7.65 6.21 8.46
5/31/2022 11:15:00 AM 22.52 72.536 0.26 7.68 8.23 8.6
5/31/2022 11:30:00 AM 22.94 73.292 0.262 7.81 7.85 8.97
5/31/2022 11:45:00 AM 23.16 73.688 0.273 7.79 6.95 8.82
5/31/2022 12:00:00 PM 23.3 73.94 0.27 7.78 7.57 8.85
5/31/2022 12:15:00 PM 23.6 74.48 0.269 7.84 8.1 9.16
5/31/2022 12:30:00 PM 23.95 75.11 0.273 7.91 10.91 9.29
5/31/2022 12:45:00 PM 24.26 75.668 0.274 7.92 8.79 9.34
5/31/2022 1:00:00 PM 24.42 75.956 0.276 7.92 9.85 9.37
5/31/2022 1:15:00 PM 24.56 76.208 0.273 7.9 8.95 9.42
5/31/2022 1:30:00 PM 24.82 76.676 0.276 8.07 8.94 9.6
5/31/2022 1:45:00 PM 24.98 76.964 0.27 8.15 8.97 9.99
5/31/2022 2:00:00 PM 25.16 77.288 0.272 8.09 7.43 9.67
5/31/2022 2:15:00 PM 25.29 77.522 0.268 8.09 7.61 9.81
5/31/2022 2:30:00 PM 25.4 77.72 0.266 8.12 7.28 9.96
5/31/2022 2:45:00 PM 25.62 78.116 0.275 8.2 7.54 10.12
5/31/2022 3:00:00 PM 25.71 78.278 0.273 8.14 8.75 9.68
5/31/2022 3:15:00 PM 25.76 78.368 0.27 8.14 9.6 9.8
5/31/2022 3:30:00 PM 25.85 78.53 0.267 8.22 7.94 10.03
5/31/2022 3:45:00 PM 26.01 78.818 0.271 8.22 7.18 10.04
5/31/2022 4:00:00 PM 26.07 78.926 0.273 8.19 10.69 9.67
5/31/2022 4:15:00 PM 26.14 79.052 0.27 8.11 7.64 9.61
5/31/2022 4:30:00 PM 26.2 79.16 0.267 8.21 7.08 9.78
5/31/2022 4:45:00 PM 26.2 79.16 0.269 8.11 20.03 9.54
5/31/2022 5:00:00 PM 26.16 79.088 0.274 8.2 9.58 9.61
5/31/2022 5:15:00 PM 26.06 78.908 0.278 8.21 10.57 9.53
5/31/2022 5:30:00 PM 26.03 78.854 0.301 8.22 11.15 9.77
5/31/2022 5:45:00 PM 26.01 78.818 0.286 8.25 12.25 9.64
5/31/2022 6:00:00 PM 25.96 78.728 0.275 8.26 9.65 9.73
5/31/2022 6:15:00 PM 25.95 78.71 0.286 8.2 10.07 9.55
5/31/2022 6:30:00 PM 25.94 78.692 0.282 8.25 9.15 9.79
5/31/2022 6:45:00 PM 25.83 78.494 0.266 8.31 8.28 9.86
5/31/2022 7:00:00 PM 25.8 78.44 0.279 8.23 13.1 9.46
5/31/2022 7:15:00 PM 25.7 78.26 0.288 8.19 10.58 9.27
5/31/2022 7:30:00 PM 25.59 78.062 0.296 8.22 10.32 9.54
5/31/2022 7:45:00 PM 25.47 77.846 0.312 8.17 13.88 9.3
5/31/2022 8:00:00 PM 25.37 77.666 0.287 8.19 18.43 9.4
5/31/2022 8:15:00 PM 25.24 77.432 0.289 8.13 18.76 9.14
5/31/2022 8:30:00 PM 25.12 77.216 0.298 8.07 25.99 8.98
5/31/2022 8:45:00 PM 24.96 76.92799 0.308 8.07 16.46 8.98
5/31/2022 9:00:00 PM 24.86 76.748 0.308 8 21.09 8.55
5/31/2022 9:15:00 PM 24.7 76.46 0.308 7.98 20.74 8.75
5/31/2022 9:30:00 PM 24.58 76.244 0.288 7.99 16.09 8.62
5/31/2022 9:45:00 PM 24.44 75.992 0.3 7.94 18.32 8.45
5/31/2022 10:00:00 PM 24.29 75.722 0.3 7.92 19.73 8.33
5/31/2022 10:15:00 PM 20.66 69.188 0.304 6.92 65.12 7.17
5/31/2022 10:30:00 PM 22.87 73.166 0.29 7.3 25.46 7.54
5/31/2022 10:45:00 PM 23.08 73.544 0.285 7.37 22.92 7.51
5/31/2022 11:00:00 PM 23.4 74.12 0.283 7.55 19.83 7.88
5/31/2022 11:15:00 PM 23.25 73.85 0.28 7.46 15.89 7.5
5/31/2022 11:30:00 PM 23.28 73.904 0.277 7.51 13.85 7.67
5/31/2022 11:45:00 PM 23.31 73.958 0.275 7.53 11.62 7.23
6/1/2022 12:00:00 AM 23.27 73.886 0.27 7.56 14.72 7.56
6/1/2022 12:15:00 AM 23.26 73.868 0.278 7.57 13.04 7.44
6/1/2022 12:30:00 AM 23.14 73.652 0.281 7.53 14.65 7.18
6/1/2022 12:45:00 AM 23.12 73.616 0.283 7.56 9.74 7.39
6/1/2022 1:00:00 AM 23.01 73.418 0.286 7.53 11.59 7.17
6/1/2022 1:15:00 AM 22.88 73.184 0.276 7.43 9.79 6.88
6/1/2022 1:30:00 AM 22.81 73.058 0.285 7.49 13.44 7.09
6/1/2022 1:45:00 AM 22.72 72.896 0.292 7.49 17.79 7.08
6/1/2022 2:00:00 AM 22.65 72.77 0.296 7.44 13.62 6.93
6/1/2022 2:15:00 AM 22.56 72.608 0.293 7.39 16.55 6.68
6/1/2022 2:30:00 AM 22.61 72.698 0.283 7.49 29.72 7.05
6/1/2022 2:45:00 AM 22.55 72.59 0.273 7.39 24.01 6.58
6/1/2022 3:00:00 AM 22.47 72.446 0.27 7.39 17.77 6.41
6/1/2022 3:15:00 AM 22.39 72.302 0.277 7.48 18.86 7.03
6/1/2022 3:30:00 AM 22.35 72.23 0.276 7.47 10.37 6.97
6/1/2022 3:45:00 AM 22.31 72.158 0.271 7.45 11.69 6.54
6/1/2022 4:00:00 AM 22.26 72.068 0.27 7.46 11.4 6.7
6/1/2022 4:15:00 AM 22.22 71.996 0.271 7.48 12.17 7.03
6/1/2022 4:30:00 AM 22.15 71.87 0.268 7.47 9.15 6.89
6/1/2022 4:45:00 AM 22.12 71.816 0.269 7.46 13.02 6.72
6/1/2022 5:00:00 AM 22.06 71.708 0.268 7.44 11.68 6.88
6/1/2022 5:15:00 AM 22.04 71.672 0.27 7.41 10.68 6.64
6/1/2022 5:30:00 AM 22.03 71.654 0.268 7.41 23.37 6.62
6/1/2022 5:45:00 AM 22 71.6 0.268 7.41 15.02 6.58
6/1/2022 6:00:00 AM 21.98 71.564 0.268 7.41 12.02 6.6
6/1/2022 6:15:00 AM 21.96 71.528 0.268 7.43 12.57 6.62
6/1/2022 6:30:00 AM 21.97 71.546 0.267 7.41 14.13 6.71
6/1/2022 6:45:00 AM 21.97 71.546 0.268 7.42 11.39 6.57
6/1/2022 7:00:00 AM 21.99 71.582 0.267 7.45 13.72 6.74
6/1/2022 7:15:00 AM 21.98 71.564 0.267 7.44 21.27 6.8
6/1/2022 7:30:00 AM 22 71.6 0.267 7.43 11.18 6.81
6/1/2022 7:45:00 AM 22.06 71.708 0.266 7.44 11.52 6.8
6/1/2022 8:00:00 AM 22.11 71.798 0.265 7.47 10.25 7
6/1/2022 8:15:00 AM 22.15 71.87 0.265 7.5 9.71 7.14
6/1/2022 8:30:00 AM 22.19 71.942 0.265 7.47 9.86 7.08
6/1/2022 8:45:00 AM 22.27 72.086 0.266 7.47 11.92 7.08
6/1/2022 9:00:00 AM 22.35 72.23 0.266 7.57 10.67 7.4
6/1/2022 9:15:00 AM 22.39 72.302 0.266 7.5 11.22 7.34
6/1/2022 9:30:00 AM 22.51 72.518 0.267 7.57 15.08 7.6
6/1/2022 9:45:00 AM 22.63 72.734 0.273 7.59 15.57 7.89
6/1/2022 10:00:00 AM 22.7 72.86 0.272 7.6 11.5 7.86
6/1/2022 10:15:00 AM 22.85 73.13 0.271 7.67 11.02 8.17
6/1/2022 10:30:00 AM 22.97 73.346 0.271 7.69 13.16 8.37
6/1/2022 10:45:00 AM 23.08 73.544 0.27 7.67 6129.49 8.26
6/1/2022 11:00:00 AM 23.2 73.76 0.15 7.74 41.68 8.42
6/1/2022 11:15:00 AM 23.41 74.138 0.249 7.75 24.26 8.66
6/1/2022 11:30:00 AM 23.67 74.606 0.271 7.86 10.9 8.99
6/1/2022 11:45:00 AM 23.88 74.984 0.274 7.88 8.38 8.97
6/1/2022 12:00:00 PM 24.08 75.344 0.275 7.87 7.53 8.98
6/1/2022 12:15:00 PM 24.29 75.722 0.278 7.86 9.55 9.08
6/1/2022 12:30:00 PM 24.52 76.136 0.284 7.91 8.33 9.07
6/1/2022 12:45:00 PM 24.71 76.478 0.285 7.97 11.73 9.22
6/1/2022 1:00:00 PM 24.71 76.478 0.285 7.83 9.64 8.86
6/1/2022 1:15:00 PM 24.78 76.604 0.276 7.92 9.18 8.86
6/1/2022 1:30:00 PM 24.94 76.892 0.275 7.98 9.47 9.18
6/1/2022 1:45:00 PM 25.12 77.216 0.274 8.04 9.64 9.44
6/1/2022 2:00:00 PM 25.27 77.486 0.273 8.01 8.21 9.43
6/1/2022 2:15:00 PM 25.4 77.72 0.276 8.04 9.71 9.49
6/1/2022 2:30:00 PM 25.53 77.954 0.277 8.07 9.97 9.69
6/1/2022 2:45:00 PM 25.67 78.206 0.279 8.06 11.96 9.63
6/1/2022 3:00:00 PM 25.8 78.44 0.279 8.09 10 9.61
6/1/2022 3:15:00 PM 25.91 78.638 0.28 8.08 11.54 9.47
6/1/2022 3:30:00 PM 25.9 78.62 0.282 8.04 11.49 9.42
6/1/2022 3:45:00 PM 25.84 78.512 0.282 7.98 11.38 9.14
6/1/2022 4:00:00 PM 25.85 78.53 0.286 8.02 12.76 9.12
6/1/2022 4:15:00 PM 25.71 78.278 0.289 7.92 12.52 8.75
6/1/2022 4:30:00 PM 25.42 77.756 0.269 7.86 174.38 8.53
6/1/2022 4:45:00 PM 25.18 77.324 0.264 7.83 112.78 8.32
6/1/2022 5:00:00 PM 24.39 75.902 0.337 7.55 242.42 7.89
6/1/2022 5:15:00 PM 23.66 74.588 0.337 7.39 173.53 7.35
6/1/2022 5:30:00 PM 23.84 74.912 0.311 7.46 85.48 7.35
6/1/2022 5:45:00 PM 24.14 75.452 0.323 7.36 83.62 6.89
6/1/2022 6:00:00 PM 24.1 75.38 0.314 7.32 75.33 6.46
6/1/2022 6:15:00 PM 24.27 75.686 0.303 7.42 42.71 6.58
6/1/2022 6:30:00 PM 24.25 75.65 0.298 7.44 66.43 6.86
6/1/2022 6:45:00 PM 24.35 75.83 0.289 7.51 34.11 7.14
6/1/2022 7:00:00 PM 24.12 75.416 0.313 7.35 52.18 6.16
6/1/2022 7:15:00 PM 23.61 74.498 0.363 7.32 41.75 6.55
6/1/2022 7:30:00 PM 23.25 73.85 0.395 7.31 45.6 6.62
6/1/2022 7:45:00 PM 23.27 73.886 0.262 7.41 585.36 7.94
6/1/2022 8:00:00 PM 22.05 71.69 0.259 7.15 352.28 7.21
6/1/2022 8:15:00 PM 22.16 71.888 0.257 7.13 212.05 6.99
6/1/2022 8:30:00 PM 22.3 72.14 0.259 7.12 210.54 6.44
6/1/2022 8:45:00 PM 22.38 72.284 0.258 7.12 187.52 6.33
6/1/2022 9:00:00 PM 22.43 72.374 0.256 7.1 156.89 5.86
6/1/2022 9:15:00 PM 22.3 72.14 0.261 7.23 111.62 6.86
6/1/2022 9:30:00 PM 22.12 71.816 0.254 7.22 96.79 6.82
6/1/2022 9:45:00 PM 22.29 72.122 0.254 7.18 92.28 6.24
6/1/2022 10:00:00 PM 22.54 72.57201 0.248 7.27 62.44 6.53
6/1/2022 10:15:00 PM 22.69 72.842 0.255 7.36 69.66 6.9
6/1/2022 10:30:00 PM 22.64 72.752 0.262 7.36 75.68 6.89
6/1/2022 10:45:00 PM 22.06 71.708 0.264 7.23 83.02 7.05
6/1/2022 11:00:00 PM 22.33 72.194 0.257 7.35 94.44 7.15
6/1/2022 11:15:00 PM 22.32 72.176 0.25 7.38 123.97 7.31
6/1/2022 11:30:00 PM 22.22 71.996 0.251 7.41 109.22 7.33
6/1/2022 11:45:00 PM 22.09 71.762 0.256 7.39 113.71 7.37
6/2/2022 12:00:00 AM 22.01 71.618 0.255 7.38 104.18 7.12
6/2/2022 12:15:00 AM 21.9 71.42 0.259 7.36 103.28 7.31
6/2/2022 12:30:00 AM 21.83 71.294 0.254 7.37 112.48 7.29
6/2/2022 12:45:00 AM 21.75 71.15 0.263 7.35 103.22 7.26
6/2/2022 1:00:00 AM 21.73 71.114 0.242 7.37 121.83 7.37
6/2/2022 1:15:00 AM 21.63 70.934 0.263 7.32 133.07 7.3
6/2/2022 1:30:00 AM 21.61 70.898 0.262 7.31 130.99 7.23
6/2/2022 1:45:00 AM 21.56 70.808 0.263 7.31 153.64 7.31
6/2/2022 2:00:00 AM 21.53 70.754 0.254 7.3 151.07 7.18
6/2/2022 2:15:00 AM 21.52 70.736 0.245 7.32 126.52 7.32
6/2/2022 2:30:00 AM 21.44 70.592 0.269 7.28 116.01 7.08
6/2/2022 2:45:00 AM 21.46 70.628 0.258 7.3 189.23 7.23
6/2/2022 3:00:00 AM 21.47 70.646 0.252 7.3 124.68 7.11
6/2/2022 3:15:00 AM 21.36 70.448 0.279 7.27 118.21 7.02
6/2/2022 3:30:00 AM 21.38 70.484 0.275 7.23 131.25 6.94
6/2/2022 3:45:00 AM 21.41 70.538 0.269 7.26 98.12 6.92
6/2/2022 4:00:00 AM 21.41 70.538 0.273 7.27 102.26 6.92
6/2/2022 4:15:00 AM 21.4 70.52 0.274 7.27 101.89 6.97
6/2/2022 4:30:00 AM 21.46 70.628 0.259 7.28 117.87 6.97
6/2/2022 4:45:00 AM 21.4 70.52 0.277 7.26 78.78 6.86
6/2/2022 5:00:00 AM 21.32 70.376 0.3 7.23 85.91 6.83
6/2/2022 5:15:00 AM 21.23 70.214 0.307 7.23 90.17 6.97
6/2/2022 5:30:00 AM 21.26 70.268 0.31 7.22 97.8 6.75
6/2/2022 5:45:00 AM 21.34 70.412 0.293 7.25 79.67 6.85
6/2/2022 6:00:00 AM 21.36 70.448 0.29 7.24 98.73 6.78
6/2/2022 6:15:00 AM 21.25 70.25 0.308 7.23 68.69 6.91
6/2/2022 6:30:00 AM 21.28 70.304 0.303 7.24 67.6 6.96
6/2/2022 6:45:00 AM 21.35 70.43 0.293 7.25 79.87 6.91
6/2/2022 7:00:00 AM 21.54 70.772 0.258 7.31 73.27 6.99
6/2/2022 7:15:00 AM 21.41 70.538 0.283 7.28 67.23 7
6/2/2022 7:30:00 AM 21.6 70.88 0.25 7.31 69.71 6.85
6/2/2022 7:45:00 AM 21.49 70.682 0.269 7.3 63.62 7.01
6/2/2022 8:00:00 AM 21.65 70.97 0.244 7.33 56.97 6.99
6/2/2022 8:15:00 AM 21.48 70.664 0.269 7.31 67.38 7.03
6/2/2022 8:30:00 AM 21.58 70.844 0.26 7.33 55.22 7.02
6/2/2022 8:45:00 AM 21.56 70.808 0.27 7.32 60.66 7.03
6/2/2022 9:00:00 AM 21.65 70.97 0.263 7.34 61.68 7.01
6/2/2022 9:15:00 AM 21.6 70.88 0.282 7.31 74.96 7.09
6/2/2022 9:30:00 AM 21.76 71.168 0.264 7.36 55 7.04
6/2/2022 9:45:00 AM 21.96 71.528 0.239 7.39 42.36 7.27
6/2/2022 10:00:00 AM 22.03 71.654 0.247 7.4 50.16 7.36
6/2/2022 10:15:00 AM 22.05 71.69 0.256 7.39 55.15 7.31
6/2/2022 10:30:00 AM 22.19 71.942 0.249 7.44 47.94 7.48
6/2/2022 10:45:00 AM 22.22 71.996 0.256 7.41 47.17 7.56
6/2/2022 11:00:00 AM 22.4 72.32 0.246 7.44 65.97 7.59
6/2/2022 11:15:00 AM 22.45 72.41 0.252 7.45 50.36 7.62
6/2/2022 11:30:00 AM 22.63 72.734 0.239 7.49 53.81 7.83
6/2/2022 11:45:00 AM 22.71 72.878 0.246 7.48 55.77 7.82
6/2/2022 12:00:00 PM 22.76 72.968 0.255 7.5 40.8 7.97
6/2/2022 12:15:00 PM 22.86 73.148 0.249 7.54 49.37 7.92
6/2/2022 12:30:00 PM 22.83 73.094 0.257 7.55 38.75 8.02
6/2/2022 12:45:00 PM 22.98 73.364 0.238 7.61 31.98 8.23
6/2/2022 1:00:00 PM 23.03 73.454 0.243 7.63 36.62 8.36
6/2/2022 1:15:00 PM 23.05 73.49 0.24 7.66 40.01 8.48
6/2/2022 1:30:00 PM 23.03 73.454 0.251 7.63 37.72 8.35
6/2/2022 1:45:00 PM 23.1 73.58 0.245 7.66 33.33 8.49
6/2/2022 2:00:00 PM 23.11 73.598 0.252 7.66 24.4 8.49
6/2/2022 2:15:00 PM 23.17 73.706 0.252 7.68 27.73 8.52
6/2/2022 2:30:00 PM 23.29 73.922 0.248 7.7 28.27 8.64
6/2/2022 2:45:00 PM 23.4 74.12 0.253 7.74 29.33 8.66
6/2/2022 3:00:00 PM 23.41 74.138 0.258 7.75 36.16 8.73
6/2/2022 3:15:00 PM 23.52 74.336 0.245 7.82 29.61 8.79
6/2/2022 3:30:00 PM 23.51 74.318 0.25 7.8 40.57 8.92
6/2/2022 3:45:00 PM 23.57 74.426 0.242 7.83 28.77 8.93
6/2/2022 4:00:00 PM 23.55 74.39 0.247 7.82 25.2 8.84
6/2/2022 4:15:00 PM 23.49 74.282 0.273 7.71 50.92 8.71
6/2/2022 4:30:00 PM 23.68 74.624 0.25 7.81 35.01 8.93
6/2/2022 4:45:00 PM 23.65 74.57 0.264 7.79 34.84 8.93
6/2/2022 5:00:00 PM 23.59 74.462 0.277 7.71 56.45 8.63
6/2/2022 5:15:00 PM 23.64 74.552 0.276 7.74 33.41 8.67
6/2/2022 5:30:00 PM 23.7 74.66 0.278 7.75 35.32 8.73
6/2/2022 5:45:00 PM 23.74 74.732 0.266 7.83 39.03 8.86
6/2/2022 6:00:00 PM 23.64 74.552 0.286 7.78 33.35 8.88
6/2/2022 6:15:00 PM 23.64 74.552 0.274 7.81 32.81 8.86
6/2/2022 6:30:00 PM 23.56 74.408 0.28 7.83 28.35 8.92
6/2/2022 6:45:00 PM 23.58 74.444 0.265 7.83 28.85 8.83
6/2/2022 7:00:00 PM 23.43 74.174 0.276 7.8 34.25 8.83
6/2/2022 7:15:00 PM 23.37 74.066 0.25 7.88 36.53 9.05
6/2/2022 7:30:00 PM 23.19 73.742 0.277 7.8 32.32 8.65
6/2/2022 7:45:00 PM 23.04 73.472 0.285 7.75 24.63 8.67
6/2/2022 8:00:00 PM 22.99 73.382 0.271 7.8 25.92 8.68
6/2/2022 8:15:00 PM 22.83 73.094 0.282 7.73 23.2 8.56
6/2/2022 8:30:00 PM 22.77 72.986 0.27 7.72 21.6 8.55
6/2/2022 8:45:00 PM 22.68 72.824 0.269 7.7 31.31 8.4
6/2/2022 9:00:00 PM 22.58 72.644 0.267 7.69 26.56 8.2
6/2/2022 9:15:00 PM 22.43 72.374 0.261 7.66 28.94 8.23
6/2/2022 9:30:00 PM 22.33 72.194 0.271 7.65 31.95 8.16
6/2/2022 9:45:00 PM 22.21 71.978 0.273 7.6 30.81 8.06
6/2/2022 10:00:00 PM 22.15 71.87 0.268 7.59 35.97 7.98
6/2/2022 10:15:00 PM 21.26 70.268 0.248 7.28 23.19 7.82
6/2/2022 10:30:00 PM 21.91 71.438 0.249 7.56 21.31 7.95
6/2/2022 10:45:00 PM 21.87 71.366 0.252 7.54 22.71 7.84
6/2/2022 11:00:00 PM 21.82 71.276 0.261 7.52 22.96 7.71
6/2/2022 11:15:00 PM 21.84 71.312 0.239 7.56 19.54 7.76
6/2/2022 11:30:00 PM 21.77 71.186 0.24 7.57 18.97 7.91
6/2/2022 11:45:00 PM 21.76 71.168 0.234 7.56 20.64 7.77
6/3/2022 12:00:00 AM 21.73 71.114 0.232 7.55 18.86 7.81
6/3/2022 12:15:00 AM 21.67 71.006 0.231 7.54 30.83 7.74
6/3/2022 12:30:00 AM 21.58 70.844 0.236 7.51 23.1 7.78
6/3/2022 12:45:00 AM 21.55 70.79 0.232 7.49 29.66 7.61
6/3/2022 1:00:00 AM 21.51 70.718 0.232 7.48 19.3 7.55
6/3/2022 1:15:00 AM 21.45 70.61 0.232 7.46 24.65 7.53
6/3/2022 1:30:00 AM 21.46 70.628 0.226 7.47 19.19 7.58
6/3/2022 1:45:00 AM 21.39 70.502 0.233 7.46 49.43 7.49
6/3/2022 2:00:00 AM 21.36 70.448 0.228 7.46 19.87 7.55
6/3/2022 2:15:00 AM 21.38 70.484 0.225 7.44 21.17 7.43
6/3/2022 2:30:00 AM 21.31 70.358 0.228 7.43 18.41 7.42
6/3/2022 2:45:00 AM 21.31 70.358 0.225 7.44 17.39 7.52
6/3/2022 3:00:00 AM 21.29 70.32201 0.224 7.44 21.35 7.53
6/3/2022 3:15:00 AM 21.25 70.25 0.227 7.43 18.62 7.44
6/3/2022 3:30:00 AM 21.28 70.304 0.224 7.42 21.21 7.37
6/3/2022 3:45:00 AM 21.26 70.268 0.223 7.42 19.5 7.34
6/3/2022 4:00:00 AM 21.26 70.268 0.222 7.41 16.8 7.36
6/3/2022 4:15:00 AM 21.22 70.196 0.224 7.4 20.1 7.29
6/3/2022 4:30:00 AM 21.2 70.16 0.223 7.41 18.71 7.3
6/3/2022 4:45:00 AM 21.18 70.124 0.224 7.41 18.31 7.3
6/3/2022 5:00:00 AM 21.12 70.016 0.227 7.39 30.46 7.3
6/3/2022 5:15:00 AM 21.11 69.998 0.225 7.39 28.99 7.25
6/3/2022 5:30:00 AM 21.07 69.926 0.226 7.38 43.45 7.2
6/3/2022 5:45:00 AM 21.07 69.926 0.225 7.38 27.3 7.25
6/3/2022 6:00:00 AM 21.04 69.872 0.226 7.38 31.43 7.18
6/3/2022 6:15:00 AM 21.08 69.944 0.224 7.38 24.49 7.16
6/3/2022 6:30:00 AM 21.06 69.908 0.224 7.38 21.97 7.24
6/3/2022 6:45:00 AM 21.01 69.818 0.232 7.38 24.31 7.23
6/3/2022 7:00:00 AM 21.02 69.836 0.226 7.41 25.9 7.35
6/3/2022 7:15:00 AM 20.97 69.746 0.225 7.41 19.6 7.39
6/3/2022 7:30:00 AM 20.93 69.674 0.227 7.42 22.8 7.43
6/3/2022 7:45:00 AM 20.89 69.602 0.227 7.42 18.29 7.43
6/3/2022 8:00:00 AM 20.83 69.494 0.225 7.42 18.38 7.44
6/3/2022 8:15:00 AM 20.77 69.386 0.239 7.41 17.12 7.4
6/3/2022 8:30:00 AM 20.78 69.404 0.228 7.45 14.69 7.58
6/3/2022 8:45:00 AM 20.75 69.35 0.229 7.45 14.43 7.62
6/3/2022 9:00:00 AM 20.7 69.26 0.236 7.45 14.66 7.68
6/3/2022 9:15:00 AM 20.75 69.35 0.236 7.45 16.28 7.7
6/3/2022 9:30:00 AM 20.76 69.368 0.241 7.45 19.85 7.69
6/3/2022 9:45:00 AM 20.78 69.404 0.254 7.41 22.87 7.51
6/3/2022 10:00:00 AM 20.82 69.476 0.244 7.45 19.7 7.69
6/3/2022 10:15:00 AM 20.98 69.764 0.234 7.49 16.18 7.83
6/3/2022 10:30:00 AM 21.05 69.89 0.232 7.51 15.29 8.01
6/3/2022 10:45:00 AM 21.06 69.908 0.236 7.47 21.24 7.76
6/3/2022 11:00:00 AM 21.2 70.16 0.232 7.54 18.78 8.03
6/3/2022 11:15:00 AM 21.32 70.376 0.234 7.47 21.44 7.76
6/3/2022 11:30:00 AM 21.51 70.718 0.231 7.54 13.87 8.17
6/3/2022 11:45:00 AM 21.74 71.132 0.237 7.56 14.53 8.39
6/3/2022 12:00:00 PM 21.9 71.42 0.235 7.59 14.53 8.33
6/3/2022 12:15:00 PM 22.11 71.798 0.234 7.56 15.67 8.32
6/3/2022 12:30:00 PM 22.34 72.212 0.235 7.64 14.27 8.78
6/3/2022 12:45:00 PM 22.6 72.68 0.234 7.66 20.73 8.74
6/3/2022 1:00:00 PM 22.76 72.968 0.236 7.69 16.71 8.92
6/3/2022 1:15:00 PM 23.04 73.472 0.236 7.7 40.38 9.08
6/3/2022 1:30:00 PM 23.31 73.958 0.237 7.69 19.39 9.01
6/3/2022 1:45:00 PM 23.46 74.228 0.238 7.73 16.21 9.34
6/3/2022 2:00:00 PM 23.67 74.606 0.241 7.72 21.6 9.25
6/3/2022 2:15:00 PM 23.92 75.056 0.246 7.85 25.84 9.69
6/3/2022 2:30:00 PM 24.1 75.38 0.261 7.91 23.83 9.62
6/3/2022 2:45:00 PM 24.24 75.632 0.263 7.87 22.1 9.55
6/3/2022 3:00:00 PM 24.38 75.884 0.254 7.92 20.48 9.46
6/3/2022 3:15:00 PM 24.43 75.974 0.291 7.87 22.08 9.4
6/3/2022 3:30:00 PM 24.44 75.992 0.25 8.05 22.61 9.72
6/3/2022 3:45:00 PM 24.49 76.082 0.291 7.9 46.8 9.43
6/3/2022 4:00:00 PM 24.54 76.172 0.26 7.81 23.98 9.14
6/3/2022 4:15:00 PM 24.65 76.37 0.257 8.02 25.16 9.5
6/3/2022 4:30:00 PM 24.69 76.442 0.287 7.91 23.68 9.39
6/3/2022 4:45:00 PM 24.66 76.388 0.294 7.9 27.92 9.3
6/3/2022 5:00:00 PM 24.66 76.388 0.281 8.03 19.81 9.62
6/3/2022 5:15:00 PM 24.64 76.352 0.282 8.01 24.86 9.57
6/3/2022 5:30:00 PM 24.61 76.298 0.287 7.94 25.43 9.28
6/3/2022 5:45:00 PM 24.43 75.974 0.232 8.07 17.02 9.39
6/3/2022 6:00:00 PM 24.33 75.794 0.225 8.1 18.71 9.54
6/3/2022 6:15:00 PM 24.27 75.686 0.277 7.98 17.59 9.23
6/3/2022 6:30:00 PM 24.2 75.56 0.261 7.97 15.98 9.32
6/3/2022 6:45:00 PM 24.09 75.362 0.226 8.06 21.19 9.35
6/3/2022 7:00:00 PM 23.95 75.11 0.28 7.93 18.65 9.07
6/3/2022 7:15:00 PM 23.79 74.82201 0.222 8 15.34 9.14
6/3/2022 7:30:00 PM 23.62 74.516 0.222 7.95 28.97 9
6/3/2022 7:45:00 PM 23.45 74.21 0.221 7.92 17.49 8.97
6/3/2022 8:00:00 PM 23.29 73.922 0.22 7.87 15.33 8.75
6/3/2022 8:15:00 PM 23.13 73.634 0.217 7.84 20.54 8.61
6/3/2022 8:30:00 PM 22.99 73.382 0.217 7.79 42.57 8.45
6/3/2022 8:45:00 PM 22.81 73.058 0.241 7.71 21.67 8.28
6/3/2022 9:00:00 PM 22.68 72.824 0.227 7.66 20.93 8.07
6/3/2022 9:15:00 PM 22.5 72.5 0.234 7.63 15.96 8.1
6/3/2022 9:30:00 PM 22.36 72.248 0.215 7.61 18.88 7.94
6/3/2022 9:45:00 PM 22.2 71.96 0.224 7.58 18.54 7.9
6/3/2022 10:00:00 PM 22.08 71.744 0.214 7.56 19.55 7.79
6/3/2022 10:15:00 PM 20.08 68.144 0.239 6.98 50.36 7.31
6/3/2022 10:30:00 PM 20.65 69.17 0.233 7.07 25.44 7.11
6/3/2022 10:45:00 PM 20.97 69.746 0.23 7.13 23.81 7.09
6/3/2022 11:00:00 PM 21.06 69.908 0.232 7.12 30.69 6.66
6/3/2022 11:15:00 PM 21.23 70.214 0.222 7.27 18.71 7.35
6/3/2022 11:30:00 PM 21.27 70.286 0.224 7.33 17.53 7.3
6/3/2022 11:45:00 PM 21.22 70.196 0.225 7.37 22.59 7.36
6/4/2022 12:00:00 AM 21.17 70.106 0.215 7.41 18.55 7.52
6/4/2022 12:15:00 AM 21.09 69.962 0.214 7.41 21.47 7.46
6/4/2022 12:30:00 AM 21.01 69.818 0.232 7.4 19.34 7.4
6/4/2022 12:45:00 AM 20.96 69.728 0.218 7.4 19.72 7.39
6/4/2022 1:00:00 AM 20.9 69.62 0.219 7.4 21.27 7.47
6/4/2022 1:15:00 AM 20.85 69.53 0.216 7.39 17.52 7.35
6/4/2022 1:30:00 AM 20.79 69.422 0.221 7.38 19.64 7.24
6/4/2022 1:45:00 AM 20.72 69.296 0.226 7.38 15.35 7.26
6/4/2022 2:00:00 AM 20.68 69.224 0.227 7.37 24.14 7.22
6/4/2022 2:15:00 AM 20.65 69.17 0.225 7.37 16.28 7.2
6/4/2022 2:30:00 AM 20.63 69.134 0.222 7.37 15.82 7.28
6/4/2022 2:45:00 AM 20.6 69.08 0.225 7.37 23.66 7.19
6/4/2022 3:00:00 AM 20.6 69.08 0.219 7.38 19.48 7.37
6/4/2022 3:15:00 AM 20.57 69.026 0.222 7.38 23.49 7.3
6/4/2022 3:30:00 AM 20.56 69.008 0.22 7.39 17.85 7.35
6/4/2022 3:45:00 AM 20.53 68.954 0.22 7.38 19.78 7.36
6/4/2022 4:00:00 AM 20.52 68.936 0.221 7.39 33.18 7.37
6/4/2022 4:15:00 AM 20.5 68.9 0.224 7.39 15.86 7.35
6/4/2022 4:30:00 AM 20.5 68.9 0.221 7.4 18.8 7.47
6/4/2022 4:45:00 AM 20.47 68.846 0.222 7.39 18.15 7.33
6/4/2022 5:00:00 AM 20.36 68.648 0.225 7.39 22.78 7.37
6/4/2022 5:15:00 AM 20.44 68.792 0.224 7.41 26.13 7.49
6/4/2022 5:30:00 AM 20.36 68.648 0.225 7.39 20.6 7.36
6/4/2022 5:45:00 AM 20.35 68.63 0.227 7.4 16.09 7.42
6/4/2022 6:00:00 AM 20.31 68.558 0.23 7.39 35.22 7.35
6/4/2022 6:15:00 AM 20.42 68.756 0.228 7.4 20.48 7.37
6/4/2022 6:30:00 AM 20.43 68.774 0.228 7.41 20.33 7.41
6/4/2022 6:45:00 AM 20.39 68.702 0.231 7.41 14.95 7.39
6/4/2022 7:00:00 AM 20.43 68.774 0.232 7.41 15.61 7.35
6/4/2022 7:15:00 AM 20.51 68.918 0.23 7.43 17.63 7.42
6/4/2022 7:30:00 AM 20.54 68.972 0.231 7.44 21.89 7.47
6/4/2022 7:45:00 AM 20.57 69.026 0.234 7.45 15.85 7.53
6/4/2022 8:00:00 AM 20.58 69.044 0.232 7.46 22.28 7.58
6/4/2022 8:15:00 AM 20.6 69.08 0.235 7.48 14.96 7.71
6/4/2022 8:30:00 AM 20.55 68.99 0.246 7.47 13.42 7.5
6/4/2022 8:45:00 AM 20.67 69.206 0.236 7.5 16.88 7.78
6/4/2022 9:00:00 AM 20.63 69.134 0.245 7.54 16.85 7.93
6/4/2022 9:15:00 AM 20.78 69.404 0.242 7.55 34.54 7.94
6/4/2022 9:30:00 AM 20.88 69.584 0.242 7.59 14.27 8.05
6/4/2022 9:45:00 AM 21.03 69.854 0.241 7.63 16.19 8.18
6/4/2022 10:00:00 AM 21.18 70.124 0.239 7.67 12.49 8.41
6/4/2022 10:15:00 AM 21.34 70.412 0.24 7.72 17.04 8.54
6/4/2022 10:30:00 AM 21.48 70.664 0.241 7.75 11.17 8.61
6/4/2022 10:45:00 AM 21.64 70.952 0.241 7.78 13.35 8.75
6/4/2022 11:00:00 AM 21.85 71.33 0.244 7.84 13.58 8.89
6/4/2022 11:15:00 AM 22 71.6 0.243 7.85 15.89 8.9
6/4/2022 11:30:00 AM 22.21 71.978 0.243 7.9 25.29 9.09
6/4/2022 11:45:00 AM 22.37 72.266 0.244 7.94 12.03 9.16
6/4/2022 12:00:00 PM 22.53 72.554 0.243 7.96 11.57 9.26
6/4/2022 12:15:00 PM 22.71 72.878 0.25 7.96 11.62 9.36
6/4/2022 12:30:00 PM 22.88 73.184 0.249 7.97 11.64 9.22
6/4/2022 12:45:00 PM 23.04 73.472 0.26 7.96 14 9.19
6/4/2022 1:00:00 PM 23.25 73.85 0.273 7.95 14.51 9.37
6/4/2022 1:15:00 PM 23.44 74.192 0.263 8.03 13.72 9.47
6/4/2022 1:30:00 PM 23.57 74.426 0.269 8.04 11.19 9.54
6/4/2022 1:45:00 PM 23.75 74.75 0.247 8.21 11.12 9.87
6/4/2022 2:00:00 PM 23.93 75.074 0.249 8.23 11.47 9.88
6/4/2022 2:15:00 PM 24.05 75.29 0.255 8.21 12.81 9.82
6/4/2022 2:30:00 PM 24.16 75.488 0.246 8.31 13.47 10.06
6/4/2022 2:45:00 PM 24.28 75.704 0.247 8.31 12.16 10.06
6/4/2022 3:00:00 PM 24.38 75.884 0.248 8.32 14.56 10.08
6/4/2022 3:15:00 PM 24.49 76.082 0.25 8.33 12.14 10.15
6/4/2022 3:30:00 PM 24.54 76.172 0.247 8.38 11.14 10.18
6/4/2022 3:45:00 PM 24.62 76.316 0.248 8.39 12 10.23
6/4/2022 4:00:00 PM 24.67 76.406 0.248 8.4 10.47 10.28
6/4/2022 4:15:00 PM 24.67 76.406 0.248 8.43 10.78 10.32
6/4/2022 4:30:00 PM 24.68 76.424 0.248 8.42 11.62 10.19
6/4/2022 4:45:00 PM 24.67 76.406 0.249 8.42 12.25 10.19
6/4/2022 5:00:00 PM 24.64 76.352 0.248 8.44 42.75 10.38
6/4/2022 5:15:00 PM 24.63 76.334 0.249 8.44 33.53 10.28
6/4/2022 5:30:00 PM 24.52 76.136 0.248 8.47 21.95 10.34
6/4/2022 5:45:00 PM 24.44 75.992 0.248 8.46 13.19 10.21
6/4/2022 6:00:00 PM 24.35 75.83 0.248 8.43 14.92 10.14
6/4/2022 6:15:00 PM 24.26 75.668 0.25 8.43 21.55 10.2
6/4/2022 6:30:00 PM 24.14 75.452 0.251 8.43 16.28 10.1
6/4/2022 6:45:00 PM 23.94 75.092 0.248 8.46 14 10.11
6/4/2022 7:00:00 PM 23.16 73.688 0.253 8.02 13.98 9.82
6/4/2022 7:15:00 PM 23.41 74.138 0.251 8.35 13.73 9.9
6/4/2022 7:30:00 PM 23.27 73.886 0.257 8.35 17.09 9.82
6/4/2022 7:45:00 PM 23.1 73.58 0.256 8.36 14.92 9.76
6/4/2022 8:00:00 PM 22.92 73.256 0.257 8.35 12.34 9.74
6/4/2022 8:15:00 PM 22.79 73.022 0.254 8.34 11.4 9.6
6/4/2022 8:30:00 PM 22.66 72.788 0.256 8.3 21.51 9.43
6/4/2022 8:45:00 PM 22.53 72.554 0.254 8.18 39.68 9.25
6/4/2022 9:00:00 PM 22.41 72.338 0.257 8.14 41.41 9.02
6/4/2022 9:15:00 PM 22.27 72.086 0.258 8.1 34.3 9.02
6/4/2022 9:30:00 PM 22.08 71.744 0.254 8.1 29.1 8.83
6/4/2022 9:45:00 PM 21.95 71.51 0.256 8.08 17.9 8.72
6/4/2022 10:00:00 PM 21.81 71.258 0.257 8.05 27.1 8.63
6/4/2022 10:15:00 PM 21.66 70.988 0.256 8 33 8.54
6/4/2022 10:30:00 PM 21.5 70.7 0.261 7.98 31.88 8.51
6/4/2022 10:45:00 PM 21.35 70.43 0.26 7.96 29.19 8.53
6/4/2022 11:00:00 PM 21.25 70.25 0.259 7.92 19.52 8.38
6/4/2022 11:15:00 PM 21.11 69.998 0.262 7.93 25.82 8.43
6/4/2022 11:30:00 PM 21.08 69.944 0.258 7.91 19.77 8.39
6/4/2022 11:45:00 PM 20.99 69.782 0.257 7.87 12.96 8.26
6/5/2022 12:00:00 AM 20.94 69.692 0.255 7.86 21.02 8.21
6/5/2022 12:15:00 AM 20.84 69.512 0.256 7.82 20.69 8.1
6/5/2022 12:30:00 AM 20.75 69.35 0.256 7.82 20.67 8.09
6/5/2022 12:45:00 AM 20.67 69.206 0.257 7.78 40.23 8.03
6/5/2022 1:00:00 AM 20.67 69.206 0.256 7.76 29.24 8.01
6/5/2022 1:15:00 AM 20.63 69.134 0.258 7.76 37.68 7.96
6/5/2022 1:30:00 AM 20.57 69.026 0.257 7.73 38.18 7.81
6/5/2022 1:45:00 AM 20.53 68.954 0.257 7.75 23.64 7.93
6/5/2022 2:00:00 AM 20.49 68.882 0.257 7.73 17.5 7.84
6/5/2022 2:15:00 AM 20.45 68.81 0.258 7.71 19.83 7.71
6/5/2022 2:30:00 AM 20.41 68.738 0.258 7.7 23.4 7.75
6/5/2022 2:45:00 AM 20.38 68.684 0.257 7.71 16.31 7.83
6/5/2022 3:00:00 AM 20.31 68.558 0.266 7.68 19.57 7.64
6/5/2022 3:15:00 AM 20.28 68.504 0.263 7.69 16.07 7.7
6/5/2022 3:30:00 AM 20.19 68.342 0.268 7.68 13.95 7.74
6/5/2022 3:45:00 AM 20.16 68.288 0.269 7.66 18.83 7.7
6/5/2022 4:00:00 AM 19.98 67.964 0.289 7.63 19.16 7.7
6/5/2022 4:15:00 AM 20.11 68.198 0.268 7.65 19.32 7.53
6/5/2022 4:30:00 AM 20.1 68.18 0.265 7.64 14.14 7.59
6/5/2022 4:45:00 AM 20.02 68.036 0.268 7.64 14.08 7.65
6/5/2022 5:00:00 AM 20 68 0.278 7.61 17.14 7.47
6/5/2022 5:15:00 AM 20 68 0.266 7.62 16.84 7.53
6/5/2022 5:30:00 AM 19.86 67.748 0.278 7.58 28.84 7.3
6/5/2022 5:45:00 AM 19.88 67.784 0.273 7.59 20.92 7.35
6/5/2022 6:00:00 AM 19.73 67.514 0.296 7.55 36.71 7.14
6/5/2022 6:15:00 AM 19.73 67.514 0.303 7.52 20.03 6.93
6/5/2022 6:30:00 AM 19.74 67.532 0.281 7.54 16.07 7.15
6/5/2022 6:45:00 AM 19.73 67.514 0.298 7.49 26.96 6.81
6/5/2022 7:00:00 AM 19.72 67.496 0.294 7.51 14.21 6.82
6/5/2022 7:15:00 AM 19.68 67.424 0.293 7.52 17.18 7.01
6/5/2022 7:30:00 AM 19.7 67.46 0.284 7.56 18.06 7.22
6/5/2022 7:45:00 AM 19.71 67.478 0.298 7.54 16.66 7.01
6/5/2022 8:00:00 AM 19.74 67.532 0.284 7.57 16.79 7.18
6/5/2022 8:15:00 AM 19.74 67.532 0.31 7.52 14.81 7.04
6/5/2022 8:30:00 AM 19.7 67.46 0.317 7.49 18.96 7.07
6/5/2022 8:45:00 AM 19.68 67.424 0.311 7.51 19.54 7.08
6/5/2022 9:00:00 AM 19.86 67.748 0.296 7.54 34.16 7.24
6/5/2022 9:15:00 AM 19.99 67.982 0.286 7.59 16.67 7.38
6/5/2022 9:30:00 AM 20.16 68.288 0.271 7.64 13.19 7.9
6/5/2022 9:45:00 AM 20.19 68.342 0.274 7.58 17.04 7.62
6/5/2022 10:00:00 AM 20.28 68.504 0.276 7.63 15.58 7.57
6/5/2022 10:15:00 AM 20.44 68.792 0.269 7.71 11.91 8.14
6/5/2022 10:30:00 AM 20.48 68.864 0.284 7.67 12.99 7.93
6/5/2022 10:45:00 AM 20.65 69.17 0.269 7.74 22.88 8.17
6/5/2022 11:00:00 AM 20.77 69.386 0.269 7.68 13.74 8.02
6/5/2022 11:15:00 AM 20.95 69.71 0.267 7.78 11.59 8.41
6/5/2022 11:30:00 AM 21.3 70.34 0.268 7.89 12.5 8.58
6/5/2022 11:45:00 AM 21.49 70.682 0.271 7.9 13.42 8.63
6/5/2022 12:00:00 PM 21.59 70.862 0.271 7.83 11.94 8.4
6/5/2022 12:15:00 PM 21.75 71.15 0.269 7.81 10.29 8.41
6/5/2022 12:30:00 PM 22.04 71.672 0.271 7.83 14.16 8.67
6/5/2022 12:45:00 PM 22.46 72.42799 0.272 7.96 12.76 9.07
6/5/2022 1:00:00 PM 22.61 72.698 0.281 7.86 26.54 8.92
6/5/2022 1:15:00 PM 22.9 73.22 0.271 7.94 16.86 9.07
6/5/2022 1:30:00 PM 23.16 73.688 0.27 7.84 11.99 8.87
6/5/2022 1:45:00 PM 23.42 74.156 0.277 7.94 16.33 9.22
6/5/2022 2:00:00 PM 21.45 70.61 0.299 7.16 42.34 8.7
6/5/2022 2:15:00 PM 22.86 73.148 0.288 7.39 19.74 8.77
6/5/2022 2:30:00 PM 23.55 74.39 0.285 7.69 20.67 9.15
6/5/2022 2:45:00 PM 23.92 75.056 0.28 7.72 14.14 8.98
6/5/2022 3:00:00 PM 24.2 75.56 0.285 7.79 14.51 9.29
6/5/2022 3:15:00 PM 24.42 75.956 0.284 7.87 14.6 9.25
6/5/2022 3:30:00 PM 24.57 76.226 0.283 7.92 12.58 9.23
6/5/2022 3:45:00 PM 24.73 76.514 0.283 7.87 12.96 9.16
6/5/2022 4:00:00 PM 24.97 76.946 0.288 8.19 14.5 9.81
6/5/2022 4:15:00 PM 25 77 0.287 8 6065.82 9.37
6/5/2022 4:30:00 PM 25 77 0.301 7.97 15.16 9.53
6/5/2022 4:45:00 PM 25.04 77.07201 0.31 8.05 13.62 9.67
6/5/2022 5:00:00 PM 25.07 77.126 0.305 8.17 23.8 9.74
6/5/2022 5:15:00 PM 25.08 77.144 0.338 8.07 16.8 9.67
6/5/2022 5:30:00 PM 25.04 77.07201 0.322 8.19 13.2 9.65
6/5/2022 5:45:00 PM 24.82 76.676 0.309 8.2 12.18 9.48
6/5/2022 6:00:00 PM 24.62 76.316 0.297 8.29 9.59 9.78
6/5/2022 6:15:00 PM 24.48 76.064 0.313 8.23 18.29 9.37
6/5/2022 6:30:00 PM 24.36 75.848 0.306 8.25 11.58 9.57
6/5/2022 6:45:00 PM 24.29 75.722 0.324 8.18 15.18 9.35
6/5/2022 7:00:00 PM 24.2 75.56 0.335 8.17 12.96 9.29
6/5/2022 7:15:00 PM 24.04 75.272 0.314 8.2 13.74 9.37
6/5/2022 7:30:00 PM 23.89 75.002 0.308 8.22 15.95 9.34
6/5/2022 7:45:00 PM 23.77 74.786 0.315 8.14 13.36 9.09
6/5/2022 8:00:00 PM 23.59 74.462 0.308 8.15 12.14 9.1
6/5/2022 8:15:00 PM 23.4 74.12 0.316 8.1 16 8.99
6/5/2022 8:30:00 PM 23.18 73.724 0.317 8.09 22.24 8.96
6/5/2022 8:45:00 PM 23 73.4 0.311 8.04 14.82 8.88
6/5/2022 9:00:00 PM 22.82 73.076 0.329 7.87 21.82 8.22
6/5/2022 9:15:00 PM 22.68 72.824 0.323 7.87 28.14 8.24
6/5/2022 9:30:00 PM 22.48 72.464 0.315 7.93 18 8.48
6/5/2022 9:45:00 PM 22.34 72.212 0.322 7.88 15.71 8.25
6/5/2022 10:00:00 PM 22.17 71.906 0.311 7.83 14.05 8.09
6/5/2022 10:15:00 PM 22.01 71.618 0.345 7.71 16.05 7.52
6/5/2022 10:30:00 PM 21.92 71.456 0.333 7.66 19.08 7.27
6/5/2022 10:45:00 PM 21.73 71.114 0.32 7.77 27.33 7.89
6/5/2022 11:00:00 PM 21.57 70.826 0.32 7.76 36.81 7.83
6/5/2022 11:15:00 PM 21.48 70.664 0.322 7.71 22.81 7.67
6/5/2022 11:30:00 PM 21.37 70.466 0.33 7.69 19.49 7.54
6/5/2022 11:45:00 PM 21.28 70.304 0.344 7.56 32.87 7.25
6/6/2022 12:00:00 AM 21.17 70.106 0.396 7.47 30.8 6.67
6/6/2022 12:15:00 AM 21.04 69.872 0.376 7.47 36.64 6.64
6/6/2022 12:30:00 AM 20.95 69.71 0.412 7.45 27.09 6.53
6/6/2022 12:45:00 AM 20.87 69.566 0.381 7.48 34.15 6.56
6/6/2022 1:00:00 AM 20.78 69.404 0.407 7.43 17.14 6.52
6/6/2022 1:15:00 AM 20.71 69.278 0.393 7.42 27.89 6.35
6/6/2022 1:30:00 AM 20.65 69.17 0.428 7.34 62.92 5.94
6/6/2022 1:45:00 AM 20.63 69.134 0.385 7.37 26.96 5.89
6/6/2022 2:00:00 AM 20.54 68.972 0.386 7.37 20.72 5.97
6/6/2022 2:15:00 AM 20.44 68.792 0.406 7.34 21.36 5.98
6/6/2022 2:30:00 AM 20.4 68.72 0.421 7.35 16.07 5.84
6/6/2022 2:45:00 AM 20.3 68.54 0.372 7.35 41.64 6.18
6/6/2022 3:00:00 AM 20.21 68.378 0.341 7.45 18.84 6.85
6/6/2022 3:15:00 AM 20.18 68.324 0.353 7.39 24.86 6.27
6/6/2022 3:30:00 AM 20.17 68.306 0.314 7.44 12.79 6.87
6/6/2022 3:45:00 AM 20.13 68.234 0.314 7.45 17.41 6.62
6/6/2022 4:00:00 AM 20.07 68.126 0.294 7.46 13.34 6.98
6/6/2022 4:15:00 AM 20.04 68.07201 0.291 7.46 16.24 6.84
6/6/2022 4:30:00 AM 19.99 67.982 0.289 7.47 13.89 7.04
6/6/2022 4:45:00 AM 19.94 67.892 0.386 7.34 22.89 6.1
6/6/2022 5:00:00 AM 19.93 67.874 0.308 7.41 17.72 6.56
6/6/2022 5:15:00 AM 19.9 67.82 0.29 7.45 14.39 6.85
6/6/2022 5:30:00 AM 19.9 67.82 0.287 7.48 13.23 7.1
6/6/2022 5:45:00 AM 19.85 67.73 0.288 7.51 11.6 7.14
6/6/2022 6:00:00 AM 19.79 67.622 0.288 7.48 10.64 7.14
6/6/2022 6:15:00 AM 19.77 67.586 0.288 7.48 11.49 7.1
6/6/2022 6:30:00 AM 19.78 67.604 0.287 7.46 12.88 6.96
6/6/2022 6:45:00 AM 19.71 67.478 0.287 7.45 11.33 6.97
6/6/2022 7:00:00 AM 19.71 67.478 0.288 7.48 11.25 7.23
6/6/2022 7:15:00 AM 19.71 67.478 0.287 7.45 20.71 6.89
6/6/2022 7:30:00 AM 19.71 67.478 0.286 7.47 15.83 7.01
6/6/2022 7:45:00 AM 19.72 67.496 0.287 7.45 13.92 7.03
6/6/2022 8:00:00 AM 19.71 67.478 0.287 7.48 16.09 7.23
6/6/2022 8:15:00 AM 19.76 67.568 0.287 7.53 13.14 7.37
6/6/2022 8:30:00 AM 19.83 67.694 0.285 7.57 18.37 7.57
6/6/2022 8:45:00 AM 19.9 67.82 0.285 7.55 16.56 7.56
6/6/2022 9:00:00 AM 19.96 67.92799 0.285 7.57 11.64 7.7
6/6/2022 9:15:00 AM 20.04 68.07201 0.286 7.58 11 7.78
6/6/2022 9:30:00 AM 20.13 68.234 0.286 7.63 11.04 7.94
6/6/2022 9:45:00 AM 20.22 68.396 0.289 7.64 11.7 8.03
6/6/2022 10:00:00 AM 20.27 68.486 0.288 7.64 13.65 8
6/6/2022 10:15:00 AM 20.37 68.666 0.288 7.63 11.64 7.94
6/6/2022 10:30:00 AM 20.58 69.044 0.289 7.74 10.23 8.41
6/6/2022 10:45:00 AM 20.71 69.278 0.29 7.73 10.99 8.31
6/6/2022 11:00:00 AM 21.04 69.872 0.288 7.8 11.76 8.7
6/6/2022 11:15:00 AM 21.31 70.358 0.292 7.83 12.66 8.81
6/6/2022 11:30:00 AM 21.71 71.078 0.29 7.87 12.4 8.97
6/6/2022 11:45:00 AM 22.03 71.654 0.291 7.92 10.74 9.06
6/6/2022 12:00:00 PM 22.31 72.158 0.293 7.89 14.88 9.09
6/6/2022 12:15:00 PM 22.63 72.734 0.29 7.94 9.34 9.22
6/6/2022 12:30:00 PM 22.83 73.094 0.294 7.94 11.48 9.18
6/6/2022 12:45:00 PM 23.14 73.652 0.295 7.94 13.04 9.18
6/6/2022 1:00:00 PM 23.42 74.156 0.299 7.95 11.69 9.29
6/6/2022 1:15:00 PM 23.68 74.624 0.3 7.92 9.08 9.32
6/6/2022 1:30:00 PM 24 75.2 0.302 7.92 10.64 9.19
6/6/2022 1:45:00 PM 24.27 75.686 0.303 7.93 10.82 9.39
6/6/2022 2:00:00 PM 24.53 76.154 0.305 8 10.95 9.68
6/6/2022 2:15:00 PM 24.76 76.568 0.306 8 11.85 9.57
6/6/2022 2:30:00 PM 24.9 76.82 0.307 8.02 9.8 9.56
6/6/2022 2:45:00 PM 25.1 77.18 0.308 8.11 9.05 9.77
6/6/2022 3:00:00 PM 25.29 77.522 0.307 8.13 10.1 9.83
6/6/2022 3:15:00 PM 25.47 77.846 0.308 8.19 11.23 9.85
6/6/2022 3:30:00 PM 25.59 78.062 0.307 8.24 9.02 9.93
6/6/2022 3:45:00 PM 25.7 78.26 0.309 8.23 11.36 9.85
6/6/2022 4:00:00 PM 25.72 78.296 0.303 8.27 11.32 9.99
6/6/2022 4:15:00 PM 25.73 78.314 0.312 8.23 10.05 9.75
6/6/2022 4:30:00 PM 25.74 78.332 0.31 8.26 9.61 10.02
6/6/2022 4:45:00 PM 25.72 78.296 0.304 8.3 15.43 9.84
6/6/2022 5:00:00 PM 25.74 78.332 0.297 8.36 10.66 10.06
6/6/2022 5:15:00 PM 25.66 78.188 0.294 8.36 11.36 10
6/6/2022 5:30:00 PM 25.6 78.08 0.297 8.33 30.15 9.87
6/6/2022 5:45:00 PM 25.5 77.9 0.296 8.39 10.93 10.06
6/6/2022 6:00:00 PM 25.41 77.738 0.293 8.4 14.33 9.94
6/6/2022 6:15:00 PM 25.31 77.558 0.29 8.42 13.41 9.98
6/6/2022 6:30:00 PM 25.17 77.306 0.289 8.41 12.26 9.97
6/6/2022 6:45:00 PM 25.04 77.07201 0.291 8.42 11.81 9.91
6/6/2022 7:00:00 PM 24.9 76.82 0.29 8.37 13.46 9.78
6/6/2022 7:15:00 PM 24.78 76.604 0.288 8.37 15.16 9.68
6/6/2022 7:30:00 PM 24.58 76.244 0.285 8.37 12.23 9.62
6/6/2022 7:45:00 PM 24.42 75.956 0.285 8.36 13.13 9.5
6/6/2022 8:00:00 PM 24.29 75.722 0.288 8.32 11.4 9.4
6/6/2022 8:15:00 PM 24.11 75.398 0.289 8.31 14.08 9.33
6/6/2022 8:30:00 PM 23.99 75.182 0.29 8.26 15 9.01
6/6/2022 8:45:00 PM 23.84 74.912 0.288 8.24 12.48 8.96
6/6/2022 9:00:00 PM 23.67 74.606 0.291 8.18 13.6 8.8
6/6/2022 9:15:00 PM 23.48 74.264 0.29 8.15 10.97 8.61
6/6/2022 9:30:00 PM 23.32 73.976 0.292 8.08 22.48 8.42
6/6/2022 9:45:00 PM 23.19 73.742 0.296 8.06 15.83 8.36
6/6/2022 10:00:00 PM 22.99 73.382 0.293 8.02 24.06 8.24
6/6/2022 10:15:00 PM 19.06 66.308 0.312 6.87 186.27 6.56
6/6/2022 10:30:00 PM 21.08 69.944 0.303 7.27 73.19 7.29
6/6/2022 10:45:00 PM 21.67 71.006 0.298 7.45 29.21 7.51
6/6/2022 11:00:00 PM 22 71.6 0.298 7.51 25.75 7.36
6/6/2022 11:15:00 PM 21.92 71.456 0.299 7.45 22.47 6.83
6/6/2022 11:30:00 PM 21.89 71.402 0.297 7.52 16.35 7.05
6/6/2022 11:45:00 PM 21.81 71.258 0.295 7.57 15.76 7.09
6/7/2022 12:00:00 AM 21.73 71.114 0.293 7.53 15.44 7.1
6/7/2022 12:15:00 AM 21.66 70.988 0.292 7.61 14.93 7.32
6/7/2022 12:30:00 AM 21.57 70.826 0.291 7.59 16.5 7.23
6/7/2022 12:45:00 AM 21.48 70.664 0.292 7.62 14.18 7.27
6/7/2022 1:00:00 AM 21.35 70.43 0.294 7.63 14.97 7.41
6/7/2022 1:15:00 AM 21.27 70.286 0.294 7.65 17.41 7.43
6/7/2022 1:30:00 AM 21.17 70.106 0.293 7.61 14.88 7.33
6/7/2022 1:45:00 AM 21.07 69.926 0.292 7.58 11.18 7.21
6/7/2022 2:00:00 AM 21 69.8 0.293 7.58 12.32 7.24
6/7/2022 2:15:00 AM 20.9 69.62 0.295 7.55 16.11 7.19
6/7/2022 2:30:00 AM 20.86 69.548 0.295 7.58 11.22 7.14
6/7/2022 2:45:00 AM 20.75 69.35 0.292 7.58 11.14 7.23
6/7/2022 3:00:00 AM 20.6 69.08 0.293 7.61 18.8 7.34
6/7/2022 3:15:00 AM 20.58 69.044 0.292 7.6 13.16 7.26
6/7/2022 3:30:00 AM 20.49 68.882 0.296 7.61 12.91 7.37
6/7/2022 3:45:00 AM 20.47 68.846 0.296 7.55 13.65 6.99
6/7/2022 4:00:00 AM 20.43 68.774 0.295 7.52 12.18 6.87
6/7/2022 4:15:00 AM 20.35 68.63 0.295 7.52 11.48 7
6/7/2022 4:30:00 AM 20.28 68.504 0.295 7.47 16.61 6.77
6/7/2022 4:45:00 AM 20.22 68.396 0.295 7.5 12.13 6.89
6/7/2022 5:00:00 AM 20.16 68.288 0.296 7.48 17.18 6.81
6/7/2022 5:15:00 AM 20.11 68.198 0.296 7.48 14.6 6.75
6/7/2022 5:30:00 AM 20.04 68.07201 0.296 7.51 15.13 7.03
6/7/2022 5:45:00 AM 20 68 0.296 7.51 13.49 6.92
6/7/2022 6:00:00 AM 19.96 67.92799 0.296 7.5 11.74 6.88
6/7/2022 6:15:00 AM 19.9 67.82 0.297 7.47 11.11 6.73
6/7/2022 6:30:00 AM 19.84 67.712 0.296 7.49 11.92 6.88
6/7/2022 6:45:00 AM 19.83 67.694 0.296 7.49 18.44 6.84
6/7/2022 7:00:00 AM 19.78 67.604 0.297 7.47 15.1 6.77
6/7/2022 7:15:00 AM 19.75 67.55 0.296 7.5 12.29 6.97
6/7/2022 7:30:00 AM 19.73 67.514 0.297 7.52 14.14 7.22
6/7/2022 7:45:00 AM 19.72 67.496 0.298 7.5 11.46 7.1
6/7/2022 8:00:00 AM 19.72 67.496 0.298 7.49 11.99 7.07
6/7/2022 8:15:00 AM 19.75 67.55 0.298 7.55 11.36 7.22
6/7/2022 8:30:00 AM 19.78 67.604 0.298 7.57 11.81 7.42
6/7/2022 8:45:00 AM 19.82 67.676 0.297 7.59 11.36 7.45
6/7/2022 9:00:00 AM 19.86 67.748 0.299 7.6 11.91 7.64
6/7/2022 9:15:00 AM 19.91 67.838 0.297 7.63 16.29 7.8
6/7/2022 9:30:00 AM 19.99 67.982 0.299 7.6 11.72 7.83
6/7/2022 9:45:00 AM 20.13 68.234 0.299 7.64 13.56 7.91
6/7/2022 10:00:00 AM 20.21 68.378 0.299 7.69 14.02 8.17
6/7/2022 10:15:00 AM 20.29 68.522 0.3 7.77 12.67 8.45
6/7/2022 10:30:00 AM 20.39 68.702 0.298 7.82 13 8.79
6/7/2022 10:45:00 AM 20.49 68.882 0.298 7.82 15.34 8.72
6/7/2022 11:00:00 AM 20.6 69.08 0.297 7.84 12.65 8.77
6/7/2022 11:15:00 AM 20.69 69.242 0.298 7.87 12.21 8.82
6/7/2022 11:30:00 AM 20.81 69.458 0.297 7.9 13.52 9.04
6/7/2022 11:45:00 AM 20.95 69.71 0.297 7.93 12.41 9.08
6/7/2022 12:00:00 PM 21.1 69.98 0.296 7.93 11.74 9.19
6/7/2022 12:15:00 PM 21.23 70.214 0.297 7.91 14.7 9.19
6/7/2022 12:30:00 PM 21.36 70.448 0.296 7.93 16.04 9.25
6/7/2022 12:45:00 PM 21.45 70.61 0.297 7.91 20.9 9.19
6/7/2022 1:00:00 PM 21.47 70.646 0.297 8 14.06 9.41
6/7/2022 1:15:00 PM 21.46 70.628 0.297 8.04 10.76 9.39
6/7/2022 1:30:00 PM 21.49 70.682 0.298 8.01 13.41 9.31
6/7/2022 1:45:00 PM 21.53 70.754 0.296 8.07 11.61 9.46
6/7/2022 2:00:00 PM 21.55 70.79 0.296 8.08 12.29 9.29
6/7/2022 2:15:00 PM 21.58 70.844 0.295 8.05 17.48 9.23
6/7/2022 2:30:00 PM 21.58 70.844 0.296 7.96 35.36 8.85
6/7/2022 2:45:00 PM 21.58 70.844 0.295 7.96 26.3 8.88
6/7/2022 3:00:00 PM 21.56 70.808 0.295 7.98 12.8 8.9
6/7/2022 3:15:00 PM 21.6 70.88 0.294 8.02 11.89 8.97
6/7/2022 3:30:00 PM 21.62 70.916 0.294 7.96 15.06 8.86
6/7/2022 3:45:00 PM 21.61 70.898 0.295 7.98 15.73 8.89
6/7/2022 4:00:00 PM 21.63 70.934 0.297 7.9 15.8 8.55
6/7/2022 4:15:00 PM 21.66 70.988 0.296 7.94 13.54 8.88
6/7/2022 4:30:00 PM 21.67 71.006 0.298 7.87 17.14 8.49
6/7/2022 4:45:00 PM 21.68 71.024 0.298 7.95 10.92 8.64
6/7/2022 5:00:00 PM 21.66 70.988 0.299 7.94 17.54 8.67
6/7/2022 5:15:00 PM 21.64 70.952 0.299 7.85 26.56 8.4
6/7/2022 5:30:00 PM 21.63 70.934 0.3 7.84 14.21 8.36
6/7/2022 5:45:00 PM 21.62 70.916 0.301 7.79 27.2 8.25
6/7/2022 6:00:00 PM 21.59 70.862 0.301 7.78 20.29 8.12
6/7/2022 6:15:00 PM 21.55 70.79 0.301 7.87 16.2 8.3
6/7/2022 6:30:00 PM 21.51 70.718 0.302 7.68 16.77 7.82
6/7/2022 6:45:00 PM 21.47 70.646 0.304 7.64 25.07 7.71
6/7/2022 7:00:00 PM 21.44 70.592 0.305 7.73 36.47 7.92
6/7/2022 7:15:00 PM 21.38 70.484 0.305 7.72 15.63 7.89
6/7/2022 7:30:00 PM 21.36 70.448 0.306 7.61 20.35 7.38
6/7/2022 7:45:00 PM 21.27 70.286 0.316 7.67 18.36 7.76
6/7/2022 8:00:00 PM 21.23 70.214 0.317 7.79 20.26 8.01
6/7/2022 8:15:00 PM 21.16 70.088 0.322 7.83 12.16 8.17
6/7/2022 8:30:00 PM 21.11 69.998 0.323 7.8 21.84 8.07
6/7/2022 8:45:00 PM 21.07 69.926 0.325 7.77 13.42 7.88
6/7/2022 9:00:00 PM 21.05 69.89 0.321 7.71 16 7.56
6/7/2022 9:15:00 PM 21 69.8 0.321 7.67 18.26 7.59
6/7/2022 9:30:00 PM 20.98 69.764 0.316 7.65 12.82 7.32
6/7/2022 9:45:00 PM 20.95 69.71 0.315 7.6 17 7.25
6/7/2022 10:00:00 PM 20.9 69.62 0.318 7.58 11.87 7.05
6/7/2022 10:15:00 PM 16.89 62.402 0.351 6.76 119.47 6.37
6/7/2022 10:30:00 PM 19.4 66.92 0.325 7.12 40.22 6.85
6/7/2022 10:45:00 PM 19.61 67.298 0.324 7.12 25.21 6.42
6/7/2022 11:00:00 PM 20.3 68.54 0.311 7.38 24.84 6.72
6/7/2022 11:15:00 PM 20.39 68.702 0.31 7.43 17.52 6.77
6/7/2022 11:30:00 PM 20.43 68.774 0.311 7.38 18.55 6.38
6/7/2022 11:45:00 PM 20.39 68.702 0.31 7.38 20.13 6.25
6/8/2022 12:00:00 AM 20.46 68.828 0.308 7.46 14.32 6.63
6/8/2022 12:15:00 AM 20.44 68.792 0.308 7.41 21.88 6.38
6/8/2022 12:30:00 AM 20.4 68.72 0.308 7.36 20.05 5.96
6/8/2022 12:45:00 AM 20.35 68.63 0.308 7.32 11.86 5.92
6/8/2022 1:00:00 AM 20.38 68.684 0.306 7.36 11.83 5.91
6/8/2022 1:15:00 AM 20.39 68.702 0.306 7.4 15.4 6
6/8/2022 1:30:00 AM 20.32 68.576 0.309 7.39 20.73 6.21
6/8/2022 1:45:00 AM 20.33 68.594 0.31 7.39 19.16 6.29
6/8/2022 2:00:00 AM 20.34 68.612 0.308 7.4 15.73 6.31
6/8/2022 2:15:00 AM 20.33 68.594 0.306 7.41 16.74 6.29
6/8/2022 2:30:00 AM 20.26 68.468 0.307 7.38 15.2 6.1
6/8/2022 2:45:00 AM 20.25 68.45 0.308 7.35 14.22 5.78
6/8/2022 3:00:00 AM 20.26 68.468 0.306 7.38 16.03 6.37
6/8/2022 3:15:00 AM 20.23 68.414 0.305 7.47 13.16 6.76
6/8/2022 3:30:00 AM 20.17 68.306 0.305 7.48 13.35 6.82
6/8/2022 3:45:00 AM 20.12 68.216 0.305 7.48 12.51 6.82
6/8/2022 4:00:00 AM 20.06 68.108 0.303 7.49 11.77 6.92
6/8/2022 4:15:00 AM 20.03 68.054 0.303 7.47 13.74 6.78
6/8/2022 4:30:00 AM 19.94 67.892 0.302 7.47 15.3 6.92
6/8/2022 4:45:00 AM 19.9 67.82 0.301 7.45 14.98 6.67
6/8/2022 5:00:00 AM 19.84 67.712 0.301 7.47 14.88 6.68
6/8/2022 5:15:00 AM 19.81 67.658 0.301 7.45 20.95 6.67
6/8/2022 5:30:00 AM 19.76 67.568 0.304 7.44 24.82 6.7
6/8/2022 5:45:00 AM 19.76 67.568 0.3 7.44 11.97 6.58
6/8/2022 6:00:00 AM 19.67 67.406 0.302 7.36 37.56 6.26
6/8/2022 6:15:00 AM 19.68 67.424 0.302 7.44 21.1 6.68
6/8/2022 6:30:00 AM 19.63 67.334 0.304 7.42 19.55 6.57
6/8/2022 6:45:00 AM 19.59 67.262 0.304 7.42 16.29 6.64
6/8/2022 7:00:00 AM 19.58 67.244 0.304 7.41 14.56 6.39
6/8/2022 7:15:00 AM 19.55 67.19 0.303 7.43 15.34 6.59
6/8/2022 7:30:00 AM 19.54 67.172 0.303 7.44 11.68 6.6
6/8/2022 7:45:00 AM 19.56 67.208 0.302 7.43 11.16 6.66
6/8/2022 8:00:00 AM 19.62 67.316 0.302 7.49 18.22 7.05
6/8/2022 8:15:00 AM 19.66 67.388 0.301 7.51 12.61 7.2
6/8/2022 8:30:00 AM 19.64 67.352 0.301 7.5 13.68 7.19
6/8/2022 8:45:00 AM 19.61 67.298 0.302 7.49 11.48 7.21
6/8/2022 9:00:00 AM 19.65 67.37 0.302 7.53 11.14 7.35
6/8/2022 9:15:00 AM 19.67 67.406 0.3 7.55 11.18 7.53
6/8/2022 9:30:00 AM 19.71 67.478 0.3 7.57 12.6 7.59
6/8/2022 9:45:00 AM 19.74 67.532 0.299 7.58 11.12 7.73
6/8/2022 10:00:00 AM 19.86 67.748 0.299 7.6 11.53 7.82
6/8/2022 10:15:00 AM 19.98 67.964 0.298 7.61 10.31 8
6/8/2022 10:30:00 AM 20.07 68.126 0.297 7.63 13.26 8.02
6/8/2022 10:45:00 AM 20.17 68.306 0.298 7.65 10.59 8.16
6/8/2022 11:00:00 AM 20.28 68.504 0.298 7.68 12.87 8.3
6/8/2022 11:15:00 AM 20.43 68.774 0.297 7.69 9.77 8.42
6/8/2022 11:30:00 AM 20.55 68.99 0.298 7.69 14.24 8.47
6/8/2022 11:45:00 AM 20.8 69.44 0.298 7.78 10.69 8.64
6/8/2022 12:00:00 PM 21.05 69.89 0.297 7.78 11.33 8.71
6/8/2022 12:15:00 PM 21.26 70.268 0.297 7.79 20.67 8.86
6/8/2022 12:30:00 PM 21.34 70.412 0.299 7.74 14.38 8.52
6/8/2022 12:45:00 PM 21.51 70.718 0.301 7.78 19.89 8.82
6/8/2022 1:00:00 PM 21.73 71.114 0.301 7.82 16.75 9.07
6/8/2022 1:15:00 PM 21.88 71.384 0.301 7.83 12.46 9
6/8/2022 1:30:00 PM 22.18 71.924 0.303 7.85 12.09 9.23
6/8/2022 1:45:00 PM 22.43 72.374 0.303 7.93 17.34 9.51
6/8/2022 2:00:00 PM 22.57 72.626 0.304 7.92 10.23 9.35
6/8/2022 2:15:00 PM 22.87 73.166 0.306 7.94 11.86 9.38
6/8/2022 2:30:00 PM 23.07 73.526 0.308 7.96 14.4 9.62
6/8/2022 2:45:00 PM 23.31 73.958 0.303 7.97 19.53 9.71
6/8/2022 3:00:00 PM 23.6 74.48 0.306 7.98 16.41 9.58
6/8/2022 3:15:00 PM 23.81 74.858 0.307 7.97 13 9.56
6/8/2022 3:30:00 PM 24.13 75.434 0.308 7.95 45.96 9.74
6/8/2022 3:45:00 PM 24.26 75.668 0.303 7.98 19.46 9.55
6/8/2022 4:00:00 PM 24.35 75.83 0.303 7.98 19.02 9.48
6/8/2022 4:15:00 PM 24.39 75.902 0.301 7.96 14.88 9.14
6/8/2022 4:30:00 PM 24.49 76.082 0.296 7.96 19.75 9.34
6/8/2022 4:45:00 PM 24.65 76.37 0.3 7.98 20.93 9.29
6/8/2022 5:00:00 PM 24.75 76.55 0.303 8.05 14.58 9.51
6/8/2022 5:15:00 PM 24.84 76.712 0.303 8.05 15.05 9.54
6/8/2022 5:30:00 PM 24.85 76.73 0.305 8.02 14.29 9.28
6/8/2022 5:45:00 PM 24.84 76.712 0.301 8.07 11.74 9.58
6/8/2022 6:00:00 PM 24.84 76.712 0.299 8.13 16.16 9.57
6/8/2022 6:15:00 PM 24.76 76.568 0.293 8.18 11.99 9.68
6/8/2022 6:30:00 PM 24.72 76.496 0.303 8.14 13.08 9.58
6/8/2022 6:45:00 PM 24.65 76.37 0.301 8.08 23.78 9.27
6/8/2022 7:00:00 PM 24.45 76.01 0.299 8.15 11.52 9.57
6/8/2022 7:15:00 PM 24.34 75.812 0.298 8.11 17.17 9.21
6/8/2022 7:30:00 PM 24.19 75.542 0.3 8.13 16.78 9.34
6/8/2022 7:45:00 PM 24.03 75.254 0.3 8.1 18.7 9.04
6/8/2022 8:00:00 PM 23.87 74.966 0.299 8.08 18.39 8.92
6/8/2022 8:15:00 PM 23.73 74.714 0.309 8.04 18.91 8.81
6/8/2022 8:30:00 PM 23.58 74.444 0.289 8.09 17.73 8.88
6/8/2022 8:45:00 PM 23.46 74.228 0.292 8.03 19.08 8.77
6/8/2022 9:00:00 PM 23.3 73.94 0.293 7.9 34.77 8.39
6/8/2022 9:15:00 PM 23.09 73.562 0.294 7.91 38.88 8.55
6/8/2022 9:30:00 PM 22.95 73.31 0.286 7.94 14.54 8.48
6/8/2022 9:45:00 PM 22.77 72.986 0.287 7.93 13.4 8.48
6/8/2022 10:00:00 PM 22.72 72.896 0.291 7.88 12.49 8.25
6/8/2022 10:15:00 PM 19.12 66.416 0.313 6.94 82.27 6.9
6/8/2022 10:30:00 PM 20.81 69.458 0.303 7.17 31.79 7.27
6/8/2022 10:45:00 PM 21.42 70.556 0.293 7.32 33.11 6.95
6/8/2022 11:00:00 PM 21.52 70.736 0.295 7.42 18.88 7.4
6/8/2022 11:15:00 PM 21.84 71.312 0.286 7.58 17.2 7.7
6/8/2022 11:30:00 PM 21.63 70.934 0.288 7.52 13.72 7.43
6/8/2022 11:45:00 PM 21.74 71.132 0.286 7.59 26.89 7.56
6/9/2022 12:00:00 AM 21.67 71.006 0.285 7.59 12.05 7.51
6/9/2022 12:15:00 AM 21.41 70.538 0.285 7.45 13.36 7.19
6/9/2022 12:30:00 AM 21.48 70.664 0.286 7.58 14.31 7.44
6/9/2022 12:45:00 AM 21.47 70.646 0.283 7.61 11.8 7.49
6/9/2022 1:00:00 AM 21.38 70.484 0.286 7.61 10.5 7.61
6/9/2022 1:15:00 AM 21.32 70.376 0.282 7.6 11.69 7.49
6/9/2022 1:30:00 AM 21.27 70.286 0.283 7.59 12.01 7.31
6/9/2022 1:45:00 AM 21.17 70.106 0.283 7.53 11.58 7.11
6/9/2022 2:00:00 AM 21.08 69.944 0.282 7.55 12.67 7.34
6/9/2022 2:15:00 AM 20.99 69.782 0.28 7.54 11.96 7.21
6/9/2022 2:30:00 AM 20.83 69.494 0.275 7.5 21.4 7.11
6/9/2022 2:45:00 AM 20.29 68.522 0.423 7.45 136.24 7.31
6/9/2022 3:00:00 AM 19.54 67.172 0.375 7.38 138.96 7.38
6/9/2022 3:15:00 AM 19.53 67.154 0.378 7.34 86.08 7.22
6/9/2022 3:30:00 AM 19.48 67.064 0.354 7.36 93.54 7.33
6/9/2022 3:45:00 AM 19.26 66.668 0.31 7.35 91.32 7.5
6/9/2022 4:00:00 AM 19.13 66.434 0.298 7.31 117 7.46
6/9/2022 4:15:00 AM 19.08 66.344 0.286 7.29 97.73 7.33
6/9/2022 4:30:00 AM 19.02 66.236 0.275 7.28 110.69 7.3
6/9/2022 4:45:00 AM 18.79 65.82201 0.273 7.25 108.52 7.32
6/9/2022 5:00:00 AM 18.66 65.588 0.283 7.25 138.37 7.44
6/9/2022 5:15:00 AM 18.65 65.57 0.296 7.24 99.01 7.39
6/9/2022 5:30:00 AM 18.68 65.624 0.292 7.22 109.67 7.2
6/9/2022 5:45:00 AM 18.72 65.696 0.292 7.21 107.5 6.9
6/9/2022 6:00:00 AM 18.58 65.444 0.239 7.26 78.75 7.31
6/9/2022 6:15:00 AM 18.42 65.156 0.242 7.23 65.3 7.24
6/9/2022 6:30:00 AM 18.48 65.264 0.247 7.21 65.21 7
6/9/2022 6:45:00 AM 18.52 65.336 0.248 7.2 66.22 7.02
6/9/2022 7:00:00 AM 18.57 65.426 0.249 7.19 46.91 6.79
6/9/2022 7:15:00 AM 18.62 65.516 0.256 7.18 57.91 6.53
6/9/2022 7:30:00 AM 18.66 65.588 0.266 7.18 48.88 6.5
6/9/2022 7:45:00 AM 18.71 65.67799 0.271 7.19 44.74 6.66
6/9/2022 8:00:00 AM 18.77 65.786 0.277 7.19 44.36 6.68
6/9/2022 8:15:00 AM 18.81 65.858 0.287 7.18 42.8 6.5
6/9/2022 8:30:00 AM 18.86 65.948 0.29 7.19 57.43 6.5
6/9/2022 8:45:00 AM 18.91 66.038 0.3 7.2 56.2 6.67
6/9/2022 9:00:00 AM 19.17 66.506 0.294 7.26 45.4 7.05
6/9/2022 9:15:00 AM 19.45 67.01 0.279 7.31 45.85 7.09
6/9/2022 9:30:00 AM 19.67 67.406 0.274 7.38 36.9 7.41
6/9/2022 9:45:00 AM 19.87 67.766 0.263 7.43 37.24 7.71
6/9/2022 10:00:00 AM 19.97 67.946 0.268 7.45 36.61 7.75
6/9/2022 10:15:00 AM 20.1 68.18 0.27 7.45 38.93 7.79
6/9/2022 10:30:00 AM 20.31 68.558 0.266 7.51 38.17 8
6/9/2022 10:45:00 AM 20.49 68.882 0.268 7.54 34.02 8.22
6/9/2022 11:00:00 AM 20.56 69.008 0.264 7.55 31.78 8.29
6/9/2022 11:15:00 AM 20.7 69.26 0.258 7.59 31.46 8.35
6/9/2022 11:30:00 AM 20.7 69.26 0.261 7.59 31.34 8.35
6/9/2022 11:45:00 AM 20.57 69.026 0.271 7.55 35.9 8.31
6/9/2022 12:00:00 PM 20.68 69.224 0.27 7.55 37.3 8.33
6/9/2022 12:15:00 PM 20.71 69.278 0.271 7.56 47.08 8.41
6/9/2022 12:30:00 PM 20.36 68.648 0.301 7.43 69.27 8.1
6/9/2022 12:45:00 PM 20.59 69.062 0.289 7.49 90.16 8.31
6/9/2022 1:00:00 PM 20.68 69.224 0.278 7.51 68.49 8.34
6/9/2022 1:15:00 PM 21 69.8 0.259 7.64 39.61 8.62
6/9/2022 1:30:00 PM 20.79 69.422 0.274 7.57 49.68 8.54
6/9/2022 1:45:00 PM 20.77 69.386 0.282 7.55 60.42 8.4
6/9/2022 2:00:00 PM 20.79 69.422 0.279 7.56 46.96 8.49
6/9/2022 2:15:00 PM 20.86 69.548 0.269 7.59 48.41 8.46
6/9/2022 2:30:00 PM 20.68 69.224 0.286 7.53 70.04 8.43
6/9/2022 2:45:00 PM 20.68 69.224 0.284 7.53 59.92 8.41
6/9/2022 3:00:00 PM 20.77 69.386 0.278 7.56 64.76 8.44
6/9/2022 3:15:00 PM 20.85 69.53 0.284 7.56 68.14 8.44
6/9/2022 3:30:00 PM 20.83 69.494 0.296 7.54 71.93 8.43
6/9/2022 3:45:00 PM 20.95 69.71 0.29 7.56 64.26 8.55
6/9/2022 4:00:00 PM 21.1 69.98 0.264 7.65 56.53 8.73
6/9/2022 4:15:00 PM 21.12 70.016 0.278 7.62 60.69 8.61
6/9/2022 4:30:00 PM 21.19 70.142 0.277 7.65 62.72 8.73
6/9/2022 4:45:00 PM 21.26 70.268 0.271 7.67 60.91 8.79
6/9/2022 5:00:00 PM 21.21 70.17799 0.261 7.77 39.71 8.95
6/9/2022 5:15:00 PM 21.19 70.142 0.268 7.71 54.57 8.87
6/9/2022 5:30:00 PM 21.24 70.232 0.253 7.79 33.1 8.92
6/9/2022 5:45:00 PM 20.93 69.674 0.274 7.67 58.33 8.75
6/9/2022 6:00:00 PM 20.95 69.71 0.263 7.71 54.14 8.76
6/9/2022 6:15:00 PM 20.81 69.458 0.269 7.69 64.31 8.72
6/9/2022 6:30:00 PM 20.71 69.278 0.272 7.67 57.25 8.65
6/9/2022 6:45:00 PM 20.53 68.954 0.281 7.63 60.5 8.58
6/9/2022 7:00:00 PM 20.57 69.026 0.259 7.69 46.07 8.69
6/9/2022 7:15:00 PM 20.39 68.702 0.274 7.61 57.95 8.48
6/9/2022 7:30:00 PM 20.37 68.666 0.258 7.65 41.27 8.51
6/9/2022 7:45:00 PM 20.21 68.378 0.264 7.62 47.24 8.55
6/9/2022 8:00:00 PM 20.16 68.288 0.255 7.59 53.67 8.43
6/9/2022 8:15:00 PM 19.99 67.982 0.261 7.56 71.75 8.3
6/9/2022 8:30:00 PM 19.96 67.92799 0.249 7.54 57.93 8.35
6/9/2022 8:45:00 PM 19.87 67.766 0.25 7.52 71.71 8.28
6/9/2022 9:00:00 PM 19.74 67.532 0.257 7.48 76.08 8.14
6/9/2022 9:15:00 PM 19.67 67.406 0.246 7.47 47.46 8.26
6/9/2022 9:30:00 PM 19.59 67.262 0.245 7.49 61.95 8.13
6/9/2022 9:45:00 PM 19.41 66.938 0.265 7.47 61.93 8.09
6/9/2022 10:00:00 PM 19.4 66.92 0.249 7.42 85.29 8.05
6/9/2022 10:15:00 PM 19.26 66.668 0.255 7.42 66.45 8.08
6/9/2022 10:30:00 PM 19.3 66.74 0.236 7.46 43.49 8.04
6/9/2022 10:45:00 PM 19.21 66.578 0.246 7.44 87.19 8.02
6/9/2022 11:00:00 PM 19.09 66.362 0.252 7.43 60.7 7.93
6/9/2022 11:15:00 PM 19.05 66.29 0.248 7.42 49.99 7.92
6/9/2022 11:30:00 PM 18.97 66.146 0.252 7.43 63.09 7.95
6/9/2022 11:45:00 PM 18.98 66.164 0.239 7.45 40.35 8.04
6/10/2022 12:00:00 AM 18.94 66.092 0.239 7.45 36.07 8
6/10/2022 12:15:00 AM 18.91 66.038 0.239 7.43 35.4 7.94
6/10/2022 12:30:00 AM 18.85 65.93 0.24 7.44 52.79 7.96
6/10/2022 12:45:00 AM 18.84 65.912 0.237 7.43 42.29 7.98
6/10/2022 1:00:00 AM 18.83 65.894 0.237 7.43 41.08 7.89
6/10/2022 1:15:00 AM 18.8 65.84 0.238 7.43 43.13 7.91
6/10/2022 1:30:00 AM 18.76 65.768 0.24 7.42 38.3 7.88
6/10/2022 1:45:00 AM 18.68 65.624 0.246 7.4 41.51 7.88
6/10/2022 2:00:00 AM 18.74 65.732 0.237 7.42 55.5 7.88
6/10/2022 2:15:00 AM 18.7 65.66 0.238 7.41 51.73 7.85
6/10/2022 2:30:00 AM 18.68 65.624 0.24 7.42 47.31 7.88
6/10/2022 2:45:00 AM 18.62 65.516 0.242 7.41 38.95 7.94
6/10/2022 3:00:00 AM 18.66 65.588 0.235 7.4 31.93 7.75
6/10/2022 3:15:00 AM 18.59 65.462 0.242 7.41 39.62 7.93
6/10/2022 3:30:00 AM 18.63 65.534 0.235 7.4 49.45 7.82
6/10/2022 3:45:00 AM 18.64 65.552 0.232 7.43 37.42 7.92
6/10/2022 4:00:00 AM 18.59 65.462 0.236 7.42 27.43 8
6/10/2022 4:15:00 AM 18.52 65.336 0.24 7.4 83.05 7.94
6/10/2022 4:30:00 AM 18.51 65.318 0.239 7.39 30.7 7.81
6/10/2022 4:45:00 AM 18.48 65.264 0.241 7.35 53.02 7.7
6/10/2022 5:00:00 AM 18.52 65.336 0.233 7.41 84.8 7.88
6/10/2022 5:15:00 AM 18.48 65.264 0.238 7.39 35.51 7.83
6/10/2022 5:30:00 AM 18.53 65.354 0.231 7.42 28.63 7.89
6/10/2022 5:45:00 AM 18.46 65.228 0.238 7.4 43.74 7.86
6/10/2022 6:00:00 AM 18.48 65.264 0.231 7.38 47.19 7.71
6/10/2022 6:15:00 AM 18.47 65.246 0.233 7.4 40.57 7.82
6/10/2022 6:30:00 AM 18.45 65.21 0.237 7.41 29.86 7.84
6/10/2022 6:45:00 AM 18.57 65.426 0.228 7.44 21.81 8.04
6/10/2022 7:00:00 AM 18.61 65.498 0.223 7.45 21.82 7.94
6/10/2022 7:15:00 AM 18.64 65.552 0.22 7.46 22.63 8.04
6/10/2022 7:30:00 AM 18.56 65.408 0.23 7.45 29.78 7.98
6/10/2022 7:45:00 AM 18.5 65.3 0.238 7.44 32.83 8.02
6/10/2022 8:00:00 AM 18.5 65.3 0.237 7.45 23.83 8.02
6/10/2022 8:15:00 AM 18.52 65.336 0.237 7.45 37.26 7.91
6/10/2022 8:30:00 AM 18.52 65.336 0.24 7.47 24.61 8.15
6/10/2022 8:45:00 AM 18.53 65.354 0.241 7.45 30.39 8
6/10/2022 9:00:00 AM 18.61 65.498 0.237 7.48 25.03 8.19
6/10/2022 9:15:00 AM 18.62 65.516 0.243 7.49 28.98 8.18
6/10/2022 9:30:00 AM 18.73 65.714 0.244 7.5 29.28 8.27
6/10/2022 9:45:00 AM 18.84 65.912 0.242 7.52 22.6 8.36
6/10/2022 10:00:00 AM 18.94 66.092 0.244